<?xml version="1.0" encoding="UTF-8" standalone="no" ?>
<gpx xmlns="http://www.topografix.com/GPX/1/1" xmlns:xsi="http://www.w3.org/2001/XMLSchema-instance" xsi:schemaLocation="http://www.topografix.com/GPX/1/1 http://www.topografix.com/GPX/1/1/gpx.xsd" version="1.1" creator="VisuGPX - https://www.visugpx.com">
  <metadata>
    <name>Randonnée du 19/03/26 boucle de 8,1kms au Champ du Feu</name>
  </metadata>
  <trk>
    <name><![CDATA[Parcours du 19/03/2026 16h33]]></name>
    <trkseg>
      <trkpt lat="48.40744" lon="7.25587">
        <ele>998.9962</ele>
        <time>2026-03-19T13:04:42Z</time>
      </trkpt>
      <trkpt lat="48.40743" lon="7.25587">
        <ele>998.8023</ele>
        <time>2026-03-19T13:04:43Z</time>
      </trkpt>
      <trkpt lat="48.40743" lon="7.25596">
        <ele>998.8023</ele>
        <time>2026-03-19T13:04:52Z</time>
      </trkpt>
      <trkpt lat="48.40741" lon="7.25604">
        <ele>998.8023</ele>
        <time>2026-03-19T13:04:57Z</time>
      </trkpt>
      <trkpt lat="48.40743" lon="7.25614">
        <ele>998.84106</ele>
        <time>2026-03-19T13:05:01Z</time>
      </trkpt>
      <trkpt lat="48.40741" lon="7.25622">
        <ele>998.8023</ele>
        <time>2026-03-19T13:05:04Z</time>
      </trkpt>
      <trkpt lat="48.40739" lon="7.25631">
        <ele>998.8023</ele>
        <time>2026-03-19T13:05:12Z</time>
      </trkpt>
      <trkpt lat="48.4074" lon="7.25637">
        <ele>998.8023</ele>
        <time>2026-03-19T13:05:16Z</time>
      </trkpt>
      <trkpt lat="48.40739" lon="7.25645">
        <ele>998.8023</ele>
        <time>2026-03-19T13:05:20Z</time>
      </trkpt>
      <trkpt lat="48.40739" lon="7.25652">
        <ele>998.8023</ele>
        <time>2026-03-19T13:05:25Z</time>
      </trkpt>
      <trkpt lat="48.40738" lon="7.25659">
        <ele>998.8023</ele>
        <time>2026-03-19T13:05:30Z</time>
      </trkpt>
      <trkpt lat="48.40737" lon="7.25668">
        <ele>998.8023</ele>
        <time>2026-03-19T13:05:34Z</time>
      </trkpt>
      <trkpt lat="48.40738" lon="7.25677">
        <ele>998.8023</ele>
        <time>2026-03-19T13:05:39Z</time>
      </trkpt>
      <trkpt lat="48.40739" lon="7.25684">
        <ele>998.8023</ele>
        <time>2026-03-19T13:05:45Z</time>
      </trkpt>
      <trkpt lat="48.40736" lon="7.2569">
        <ele>998.8023</ele>
        <time>2026-03-19T13:05:50Z</time>
      </trkpt>
      <trkpt lat="48.40736" lon="7.25697">
        <ele>998.8023</ele>
        <time>2026-03-19T13:05:54Z</time>
      </trkpt>
      <trkpt lat="48.40735" lon="7.25706">
        <ele>998.8023</ele>
        <time>2026-03-19T13:05:58Z</time>
      </trkpt>
      <trkpt lat="48.40733" lon="7.25712">
        <ele>998.8023</ele>
        <time>2026-03-19T13:06:04Z</time>
      </trkpt>
      <trkpt lat="48.40731" lon="7.25723">
        <ele>998.8023</ele>
        <time>2026-03-19T13:06:08Z</time>
      </trkpt>
      <trkpt lat="48.40732" lon="7.2573">
        <ele>998.8023</ele>
        <time>2026-03-19T13:06:14Z</time>
      </trkpt>
      <trkpt lat="48.4073" lon="7.25737">
        <ele>998.8023</ele>
        <time>2026-03-19T13:06:17Z</time>
      </trkpt>
      <trkpt lat="48.40729" lon="7.25744">
        <ele>998.8023</ele>
        <time>2026-03-19T13:06:21Z</time>
      </trkpt>
      <trkpt lat="48.40729" lon="7.25751">
        <ele>998.8023</ele>
        <time>2026-03-19T13:06:25Z</time>
      </trkpt>
      <trkpt lat="48.40728" lon="7.25758">
        <ele>998.8023</ele>
        <time>2026-03-19T13:06:29Z</time>
      </trkpt>
      <trkpt lat="48.40726" lon="7.25765">
        <ele>998.8023</ele>
        <time>2026-03-19T13:06:34Z</time>
      </trkpt>
      <trkpt lat="48.40725" lon="7.25773">
        <ele>998.8023</ele>
        <time>2026-03-19T13:06:39Z</time>
      </trkpt>
      <trkpt lat="48.40724" lon="7.2578">
        <ele>998.8023</ele>
        <time>2026-03-19T13:06:43Z</time>
      </trkpt>
      <trkpt lat="48.40724" lon="7.25788">
        <ele>998.8023</ele>
        <time>2026-03-19T13:06:48Z</time>
      </trkpt>
      <trkpt lat="48.40723" lon="7.25795">
        <ele>998.8023</ele>
        <time>2026-03-19T13:06:53Z</time>
      </trkpt>
      <trkpt lat="48.40722" lon="7.25803">
        <ele>998.8023</ele>
        <time>2026-03-19T13:06:58Z</time>
      </trkpt>
      <trkpt lat="48.40719" lon="7.25811">
        <ele>998.8023</ele>
        <time>2026-03-19T13:07:02Z</time>
      </trkpt>
      <trkpt lat="48.40719" lon="7.25819">
        <ele>998.8023</ele>
        <time>2026-03-19T13:07:07Z</time>
      </trkpt>
      <trkpt lat="48.40717" lon="7.25827">
        <ele>998.8023</ele>
        <time>2026-03-19T13:07:12Z</time>
      </trkpt>
      <trkpt lat="48.40715" lon="7.25835">
        <ele>998.8023</ele>
        <time>2026-03-19T13:07:16Z</time>
      </trkpt>
      <trkpt lat="48.40714" lon="7.25843">
        <ele>998.8023</ele>
        <time>2026-03-19T13:07:22Z</time>
      </trkpt>
      <trkpt lat="48.40713" lon="7.2585">
        <ele>998.8023</ele>
        <time>2026-03-19T13:07:26Z</time>
      </trkpt>
      <trkpt lat="48.40711" lon="7.25857">
        <ele>998.8023</ele>
        <time>2026-03-19T13:07:30Z</time>
      </trkpt>
      <trkpt lat="48.40709" lon="7.25866">
        <ele>998.8023</ele>
        <time>2026-03-19T13:07:36Z</time>
      </trkpt>
      <trkpt lat="48.40706" lon="7.25873">
        <ele>998.8023</ele>
        <time>2026-03-19T13:07:40Z</time>
      </trkpt>
      <trkpt lat="48.40704" lon="7.25879">
        <ele>998.8023</ele>
        <time>2026-03-19T13:07:45Z</time>
      </trkpt>
      <trkpt lat="48.40702" lon="7.25886">
        <ele>998.8023</ele>
        <time>2026-03-19T13:07:49Z</time>
      </trkpt>
      <trkpt lat="48.40699" lon="7.25893">
        <ele>998.8023</ele>
        <time>2026-03-19T13:07:53Z</time>
      </trkpt>
      <trkpt lat="48.40698" lon="7.259">
        <ele>998.8023</ele>
        <time>2026-03-19T13:07:57Z</time>
      </trkpt>
      <trkpt lat="48.40696" lon="7.25907">
        <ele>998.8023</ele>
        <time>2026-03-19T13:08:01Z</time>
      </trkpt>
      <trkpt lat="48.40695" lon="7.25915">
        <ele>998.8023</ele>
        <time>2026-03-19T13:08:09Z</time>
      </trkpt>
      <trkpt lat="48.40694" lon="7.25927">
        <ele>998.8023</ele>
        <time>2026-03-19T13:08:11Z</time>
      </trkpt>
      <trkpt lat="48.40693" lon="7.25934">
        <ele>998.8023</ele>
        <time>2026-03-19T13:08:16Z</time>
      </trkpt>
      <trkpt lat="48.40693" lon="7.25941">
        <ele>998.8023</ele>
        <time>2026-03-19T13:08:19Z</time>
      </trkpt>
      <trkpt lat="48.40694" lon="7.25949">
        <ele>998.8023</ele>
        <time>2026-03-19T13:08:24Z</time>
      </trkpt>
      <trkpt lat="48.40694" lon="7.25958">
        <ele>998.8023</ele>
        <time>2026-03-19T13:08:29Z</time>
      </trkpt>
      <trkpt lat="48.40696" lon="7.25968">
        <ele>998.8023</ele>
        <time>2026-03-19T13:08:34Z</time>
      </trkpt>
      <trkpt lat="48.40698" lon="7.25974">
        <ele>998.8023</ele>
        <time>2026-03-19T13:08:39Z</time>
      </trkpt>
      <trkpt lat="48.40701" lon="7.25981">
        <ele>998.8023</ele>
        <time>2026-03-19T13:08:45Z</time>
      </trkpt>
      <trkpt lat="48.40704" lon="7.25988">
        <ele>998.8023</ele>
        <time>2026-03-19T13:08:49Z</time>
      </trkpt>
      <trkpt lat="48.40708" lon="7.25985">
        <ele>998.8023</ele>
        <time>2026-03-19T13:08:53Z</time>
      </trkpt>
      <trkpt lat="48.40713" lon="7.25987">
        <ele>998.8023</ele>
        <time>2026-03-19T13:08:56Z</time>
      </trkpt>
      <trkpt lat="48.40717" lon="7.25992">
        <ele>998.8023</ele>
        <time>2026-03-19T13:09:01Z</time>
      </trkpt>
      <trkpt lat="48.40722" lon="7.25998">
        <ele>998.8023</ele>
        <time>2026-03-19T13:09:06Z</time>
      </trkpt>
      <trkpt lat="48.40725" lon="7.26002">
        <ele>998.8023</ele>
        <time>2026-03-19T13:09:10Z</time>
      </trkpt>
      <trkpt lat="48.40729" lon="7.2601">
        <ele>998.8023</ele>
        <time>2026-03-19T13:09:16Z</time>
      </trkpt>
      <trkpt lat="48.40733" lon="7.26015">
        <ele>998.8023</ele>
        <time>2026-03-19T13:09:20Z</time>
      </trkpt>
      <trkpt lat="48.40735" lon="7.26021">
        <ele>998.8023</ele>
        <time>2026-03-19T13:09:25Z</time>
      </trkpt>
      <trkpt lat="48.40739" lon="7.26028">
        <ele>998.8023</ele>
        <time>2026-03-19T13:09:30Z</time>
      </trkpt>
      <trkpt lat="48.40742" lon="7.26034">
        <ele>998.8023</ele>
        <time>2026-03-19T13:09:35Z</time>
      </trkpt>
      <trkpt lat="48.40745" lon="7.26041">
        <ele>998.8023</ele>
        <time>2026-03-19T13:09:40Z</time>
      </trkpt>
      <trkpt lat="48.40748" lon="7.26047">
        <ele>998.8023</ele>
        <time>2026-03-19T13:09:45Z</time>
      </trkpt>
      <trkpt lat="48.4075" lon="7.26055">
        <ele>998.8023</ele>
        <time>2026-03-19T13:09:50Z</time>
      </trkpt>
      <trkpt lat="48.40752" lon="7.26063">
        <ele>998.8023</ele>
        <time>2026-03-19T13:09:56Z</time>
      </trkpt>
      <trkpt lat="48.40754" lon="7.2607">
        <ele>998.8023</ele>
        <time>2026-03-19T13:10:01Z</time>
      </trkpt>
      <trkpt lat="48.40754" lon="7.26077">
        <ele>998.8023</ele>
        <time>2026-03-19T13:10:06Z</time>
      </trkpt>
      <trkpt lat="48.40756" lon="7.26085">
        <ele>998.8023</ele>
        <time>2026-03-19T13:10:11Z</time>
      </trkpt>
      <trkpt lat="48.40755" lon="7.26092">
        <ele>998.8023</ele>
        <time>2026-03-19T13:10:16Z</time>
      </trkpt>
      <trkpt lat="48.40757" lon="7.26099">
        <ele>998.8023</ele>
        <time>2026-03-19T13:10:20Z</time>
      </trkpt>
      <trkpt lat="48.40757" lon="7.26107">
        <ele>998.8023</ele>
        <time>2026-03-19T13:10:25Z</time>
      </trkpt>
      <trkpt lat="48.40756" lon="7.26117">
        <ele>998.8023</ele>
        <time>2026-03-19T13:10:29Z</time>
      </trkpt>
      <trkpt lat="48.40757" lon="7.26124">
        <ele>998.8023</ele>
        <time>2026-03-19T13:10:35Z</time>
      </trkpt>
      <trkpt lat="48.40756" lon="7.26131">
        <ele>1000.9982</ele>
        <time>2026-03-19T13:10:42Z</time>
      </trkpt>
      <trkpt lat="48.40754" lon="7.26138">
        <ele>1003.19415</ele>
        <time>2026-03-19T13:10:48Z</time>
      </trkpt>
      <trkpt lat="48.40754" lon="7.26145">
        <ele>1005.3901</ele>
        <time>2026-03-19T13:10:54Z</time>
      </trkpt>
      <trkpt lat="48.40753" lon="7.26153">
        <ele>1007.586</ele>
        <time>2026-03-19T13:11:08Z</time>
      </trkpt>
      <trkpt lat="48.40754" lon="7.26159">
        <ele>1009.7819</ele>
        <time>2026-03-19T13:11:14Z</time>
      </trkpt>
      <trkpt lat="48.40755" lon="7.26167">
        <ele>1009.7819</ele>
        <time>2026-03-19T13:11:20Z</time>
      </trkpt>
      <trkpt lat="48.40758" lon="7.26173">
        <ele>1009.7819</ele>
        <time>2026-03-19T13:11:24Z</time>
      </trkpt>
      <trkpt lat="48.4076" lon="7.26182">
        <ele>1009.7819</ele>
        <time>2026-03-19T13:11:30Z</time>
      </trkpt>
      <trkpt lat="48.40761" lon="7.26189">
        <ele>1009.7819</ele>
        <time>2026-03-19T13:11:34Z</time>
      </trkpt>
      <trkpt lat="48.40763" lon="7.26196">
        <ele>1009.7819</ele>
        <time>2026-03-19T13:11:40Z</time>
      </trkpt>
      <trkpt lat="48.40764" lon="7.26203">
        <ele>1009.7819</ele>
        <time>2026-03-19T13:11:46Z</time>
      </trkpt>
      <trkpt lat="48.40764" lon="7.26211">
        <ele>1009.7819</ele>
        <time>2026-03-19T13:11:52Z</time>
      </trkpt>
      <trkpt lat="48.40764" lon="7.26218">
        <ele>1009.7819</ele>
        <time>2026-03-19T13:11:58Z</time>
      </trkpt>
      <trkpt lat="48.40764" lon="7.26226">
        <ele>1009.7819</ele>
        <time>2026-03-19T13:12:05Z</time>
      </trkpt>
      <trkpt lat="48.40764" lon="7.26233">
        <ele>1009.7819</ele>
        <time>2026-03-19T13:12:10Z</time>
      </trkpt>
      <trkpt lat="48.40764" lon="7.26241">
        <ele>1012.2457</ele>
        <time>2026-03-19T13:12:23Z</time>
      </trkpt>
      <trkpt lat="48.40764" lon="7.26248">
        <ele>1014.7096</ele>
        <time>2026-03-19T13:12:28Z</time>
      </trkpt>
      <trkpt lat="48.40765" lon="7.26255">
        <ele>1017.1734</ele>
        <time>2026-03-19T13:12:33Z</time>
      </trkpt>
      <trkpt lat="48.40765" lon="7.26262">
        <ele>1019.63727</ele>
        <time>2026-03-19T13:12:38Z</time>
      </trkpt>
      <trkpt lat="48.40766" lon="7.26269">
        <ele>1022.1011</ele>
        <time>2026-03-19T13:12:44Z</time>
      </trkpt>
      <trkpt lat="48.40768" lon="7.26276">
        <ele>1022.1011</ele>
        <time>2026-03-19T13:12:48Z</time>
      </trkpt>
      <trkpt lat="48.40769" lon="7.26284">
        <ele>1022.1011</ele>
        <time>2026-03-19T13:12:55Z</time>
      </trkpt>
      <trkpt lat="48.4077" lon="7.26292">
        <ele>1022.1011</ele>
        <time>2026-03-19T13:13:01Z</time>
      </trkpt>
      <trkpt lat="48.40771" lon="7.263">
        <ele>1022.1011</ele>
        <time>2026-03-19T13:13:06Z</time>
      </trkpt>
      <trkpt lat="48.40772" lon="7.26307">
        <ele>1022.1011</ele>
        <time>2026-03-19T13:13:12Z</time>
      </trkpt>
      <trkpt lat="48.40773" lon="7.26314">
        <ele>1022.1011</ele>
        <time>2026-03-19T13:13:17Z</time>
      </trkpt>
      <trkpt lat="48.40773" lon="7.26322">
        <ele>1022.1011</ele>
        <time>2026-03-19T13:13:23Z</time>
      </trkpt>
      <trkpt lat="48.40773" lon="7.26329">
        <ele>1022.1011</ele>
        <time>2026-03-19T13:13:28Z</time>
      </trkpt>
      <trkpt lat="48.40773" lon="7.26337">
        <ele>1022.1011</ele>
        <time>2026-03-19T13:13:33Z</time>
      </trkpt>
      <trkpt lat="48.40771" lon="7.26343">
        <ele>1024.137</ele>
        <time>2026-03-19T13:13:40Z</time>
      </trkpt>
      <trkpt lat="48.40772" lon="7.26351">
        <ele>1026.173</ele>
        <time>2026-03-19T13:13:47Z</time>
      </trkpt>
      <trkpt lat="48.40773" lon="7.26358">
        <ele>1028.2089</ele>
        <time>2026-03-19T13:13:52Z</time>
      </trkpt>
      <trkpt lat="48.40775" lon="7.26365">
        <ele>1030.2449</ele>
        <time>2026-03-19T13:13:58Z</time>
      </trkpt>
      <trkpt lat="48.40775" lon="7.26372">
        <ele>1032.2808</ele>
        <time>2026-03-19T13:14:02Z</time>
      </trkpt>
      <trkpt lat="48.40776" lon="7.2638">
        <ele>1032.2808</ele>
        <time>2026-03-19T13:14:09Z</time>
      </trkpt>
      <trkpt lat="48.40777" lon="7.26387">
        <ele>1032.2808</ele>
        <time>2026-03-19T13:14:14Z</time>
      </trkpt>
      <trkpt lat="48.40778" lon="7.26394">
        <ele>1032.2808</ele>
        <time>2026-03-19T13:14:19Z</time>
      </trkpt>
      <trkpt lat="48.40779" lon="7.26401">
        <ele>1032.2808</ele>
        <time>2026-03-19T13:14:23Z</time>
      </trkpt>
      <trkpt lat="48.4078" lon="7.26409">
        <ele>1032.2808</ele>
        <time>2026-03-19T13:14:28Z</time>
      </trkpt>
      <trkpt lat="48.4078" lon="7.26416">
        <ele>1032.2808</ele>
        <time>2026-03-19T13:14:33Z</time>
      </trkpt>
      <trkpt lat="48.40782" lon="7.26423">
        <ele>1032.2808</ele>
        <time>2026-03-19T13:14:37Z</time>
      </trkpt>
      <trkpt lat="48.40782" lon="7.2643">
        <ele>1032.2808</ele>
        <time>2026-03-19T13:14:43Z</time>
      </trkpt>
      <trkpt lat="48.40783" lon="7.26437">
        <ele>1032.2808</ele>
        <time>2026-03-19T13:14:53Z</time>
      </trkpt>
      <trkpt lat="48.40784" lon="7.26444">
        <ele>1032.2808</ele>
        <time>2026-03-19T13:14:59Z</time>
      </trkpt>
      <trkpt lat="48.40785" lon="7.26452">
        <ele>1032.2808</ele>
        <time>2026-03-19T13:15:04Z</time>
      </trkpt>
      <trkpt lat="48.40785" lon="7.2646">
        <ele>1032.2808</ele>
        <time>2026-03-19T13:15:09Z</time>
      </trkpt>
      <trkpt lat="48.40786" lon="7.26467">
        <ele>1032.2808</ele>
        <time>2026-03-19T13:15:14Z</time>
      </trkpt>
      <trkpt lat="48.40786" lon="7.26475">
        <ele>1032.2808</ele>
        <time>2026-03-19T13:15:19Z</time>
      </trkpt>
      <trkpt lat="48.40786" lon="7.26483">
        <ele>1032.2808</ele>
        <time>2026-03-19T13:15:24Z</time>
      </trkpt>
      <trkpt lat="48.40786" lon="7.2649">
        <ele>1032.2808</ele>
        <time>2026-03-19T13:15:29Z</time>
      </trkpt>
      <trkpt lat="48.40786" lon="7.26498">
        <ele>1032.2808</ele>
        <time>2026-03-19T13:15:34Z</time>
      </trkpt>
      <trkpt lat="48.40786" lon="7.26506">
        <ele>1032.2808</ele>
        <time>2026-03-19T13:15:39Z</time>
      </trkpt>
      <trkpt lat="48.40787" lon="7.26513">
        <ele>1032.2808</ele>
        <time>2026-03-19T13:15:41Z</time>
      </trkpt>
      <trkpt lat="48.40787" lon="7.2652">
        <ele>1032.2808</ele>
        <time>2026-03-19T13:15:47Z</time>
      </trkpt>
      <trkpt lat="48.40788" lon="7.26527">
        <ele>1034.3217</ele>
        <time>2026-03-19T13:15:52Z</time>
      </trkpt>
      <trkpt lat="48.40788" lon="7.26534">
        <ele>1036.3624</ele>
        <time>2026-03-19T13:15:57Z</time>
      </trkpt>
      <trkpt lat="48.40789" lon="7.26542">
        <ele>1038.4033</ele>
        <time>2026-03-19T13:16:03Z</time>
      </trkpt>
      <trkpt lat="48.40789" lon="7.2655">
        <ele>1040.4441</ele>
        <time>2026-03-19T13:16:07Z</time>
      </trkpt>
      <trkpt lat="48.40789" lon="7.26557">
        <ele>1042.485</ele>
        <time>2026-03-19T13:16:11Z</time>
      </trkpt>
      <trkpt lat="48.40789" lon="7.26565">
        <ele>1042.485</ele>
        <time>2026-03-19T13:16:16Z</time>
      </trkpt>
      <trkpt lat="48.40788" lon="7.26573">
        <ele>1042.485</ele>
        <time>2026-03-19T13:16:21Z</time>
      </trkpt>
      <trkpt lat="48.40788" lon="7.26579">
        <ele>1042.485</ele>
        <time>2026-03-19T13:16:25Z</time>
      </trkpt>
      <trkpt lat="48.40788" lon="7.26587">
        <ele>1042.485</ele>
        <time>2026-03-19T13:16:30Z</time>
      </trkpt>
      <trkpt lat="48.40787" lon="7.26595">
        <ele>1042.485</ele>
        <time>2026-03-19T13:16:35Z</time>
      </trkpt>
      <trkpt lat="48.40786" lon="7.26603">
        <ele>1042.485</ele>
        <time>2026-03-19T13:16:40Z</time>
      </trkpt>
      <trkpt lat="48.40785" lon="7.2661">
        <ele>1042.485</ele>
        <time>2026-03-19T13:16:45Z</time>
      </trkpt>
      <trkpt lat="48.40784" lon="7.26618">
        <ele>1042.485</ele>
        <time>2026-03-19T13:16:50Z</time>
      </trkpt>
      <trkpt lat="48.40783" lon="7.26625">
        <ele>1042.485</ele>
        <time>2026-03-19T13:16:54Z</time>
      </trkpt>
      <trkpt lat="48.40782" lon="7.26631">
        <ele>1042.485</ele>
        <time>2026-03-19T13:16:58Z</time>
      </trkpt>
      <trkpt lat="48.40781" lon="7.26639">
        <ele>1042.485</ele>
        <time>2026-03-19T13:17:03Z</time>
      </trkpt>
      <trkpt lat="48.4078" lon="7.26646">
        <ele>1042.485</ele>
        <time>2026-03-19T13:17:07Z</time>
      </trkpt>
      <trkpt lat="48.40778" lon="7.26653">
        <ele>1042.485</ele>
        <time>2026-03-19T13:17:11Z</time>
      </trkpt>
      <trkpt lat="48.40776" lon="7.26659">
        <ele>1042.485</ele>
        <time>2026-03-19T13:17:16Z</time>
      </trkpt>
      <trkpt lat="48.40775" lon="7.26667">
        <ele>1042.485</ele>
        <time>2026-03-19T13:17:21Z</time>
      </trkpt>
      <trkpt lat="48.40774" lon="7.26674">
        <ele>1042.485</ele>
        <time>2026-03-19T13:17:26Z</time>
      </trkpt>
      <trkpt lat="48.40772" lon="7.26682">
        <ele>1042.485</ele>
        <time>2026-03-19T13:17:31Z</time>
      </trkpt>
      <trkpt lat="48.4077" lon="7.26689">
        <ele>1042.485</ele>
        <time>2026-03-19T13:18:23Z</time>
      </trkpt>
      <trkpt lat="48.40768" lon="7.26697">
        <ele>1042.485</ele>
        <time>2026-03-19T13:18:28Z</time>
      </trkpt>
      <trkpt lat="48.40767" lon="7.26704">
        <ele>1042.485</ele>
        <time>2026-03-19T13:18:33Z</time>
      </trkpt>
      <trkpt lat="48.40764" lon="7.26712">
        <ele>1042.485</ele>
        <time>2026-03-19T13:18:38Z</time>
      </trkpt>
      <trkpt lat="48.40762" lon="7.26719">
        <ele>1042.485</ele>
        <time>2026-03-19T13:18:43Z</time>
      </trkpt>
      <trkpt lat="48.40759" lon="7.26724">
        <ele>1042.485</ele>
        <time>2026-03-19T13:18:54Z</time>
      </trkpt>
      <trkpt lat="48.40758" lon="7.26732">
        <ele>1042.485</ele>
        <time>2026-03-19T13:19:13Z</time>
      </trkpt>
      <trkpt lat="48.40756" lon="7.2674">
        <ele>1042.485</ele>
        <time>2026-03-19T13:19:21Z</time>
      </trkpt>
      <trkpt lat="48.40754" lon="7.26746">
        <ele>1042.485</ele>
        <time>2026-03-19T13:19:25Z</time>
      </trkpt>
      <trkpt lat="48.40752" lon="7.26753">
        <ele>1042.485</ele>
        <time>2026-03-19T13:19:30Z</time>
      </trkpt>
      <trkpt lat="48.4075" lon="7.26762">
        <ele>1042.485</ele>
        <time>2026-03-19T13:19:35Z</time>
      </trkpt>
      <trkpt lat="48.40749" lon="7.2677">
        <ele>1042.485</ele>
        <time>2026-03-19T13:19:41Z</time>
      </trkpt>
      <trkpt lat="48.40748" lon="7.26776">
        <ele>1042.485</ele>
        <time>2026-03-19T13:19:46Z</time>
      </trkpt>
      <trkpt lat="48.40748" lon="7.26783">
        <ele>1042.485</ele>
        <time>2026-03-19T13:19:50Z</time>
      </trkpt>
      <trkpt lat="48.40747" lon="7.2679">
        <ele>1042.485</ele>
        <time>2026-03-19T13:19:54Z</time>
      </trkpt>
      <trkpt lat="48.40747" lon="7.26797">
        <ele>1042.485</ele>
        <time>2026-03-19T13:19:58Z</time>
      </trkpt>
      <trkpt lat="48.40746" lon="7.26805">
        <ele>1042.485</ele>
        <time>2026-03-19T13:20:03Z</time>
      </trkpt>
      <trkpt lat="48.40745" lon="7.26813">
        <ele>1042.485</ele>
        <time>2026-03-19T13:20:08Z</time>
      </trkpt>
      <trkpt lat="48.40746" lon="7.2682">
        <ele>1042.485</ele>
        <time>2026-03-19T13:20:13Z</time>
      </trkpt>
      <trkpt lat="48.40745" lon="7.26828">
        <ele>1042.485</ele>
        <time>2026-03-19T13:20:18Z</time>
      </trkpt>
      <trkpt lat="48.40745" lon="7.26835">
        <ele>1042.485</ele>
        <time>2026-03-19T13:20:22Z</time>
      </trkpt>
      <trkpt lat="48.40745" lon="7.26842">
        <ele>1042.485</ele>
        <time>2026-03-19T13:20:46Z</time>
      </trkpt>
      <trkpt lat="48.40745" lon="7.2685">
        <ele>1042.485</ele>
        <time>2026-03-19T13:20:51Z</time>
      </trkpt>
      <trkpt lat="48.40745" lon="7.26857">
        <ele>1042.485</ele>
        <time>2026-03-19T13:20:55Z</time>
      </trkpt>
      <trkpt lat="48.40746" lon="7.26863">
        <ele>1042.485</ele>
        <time>2026-03-19T13:20:59Z</time>
      </trkpt>
      <trkpt lat="48.40747" lon="7.2687">
        <ele>1042.485</ele>
        <time>2026-03-19T13:21:04Z</time>
      </trkpt>
      <trkpt lat="48.40748" lon="7.26878">
        <ele>1042.485</ele>
        <time>2026-03-19T13:21:08Z</time>
      </trkpt>
      <trkpt lat="48.40748" lon="7.26886">
        <ele>1042.485</ele>
        <time>2026-03-19T13:21:15Z</time>
      </trkpt>
      <trkpt lat="48.4075" lon="7.26894">
        <ele>1042.485</ele>
        <time>2026-03-19T13:21:20Z</time>
      </trkpt>
      <trkpt lat="48.40752" lon="7.26901">
        <ele>1042.485</ele>
        <time>2026-03-19T13:21:26Z</time>
      </trkpt>
      <trkpt lat="48.40754" lon="7.26908">
        <ele>1042.485</ele>
        <time>2026-03-19T13:21:31Z</time>
      </trkpt>
      <trkpt lat="48.40757" lon="7.26915">
        <ele>1042.485</ele>
        <time>2026-03-19T13:21:35Z</time>
      </trkpt>
      <trkpt lat="48.40759" lon="7.26922">
        <ele>1042.485</ele>
        <time>2026-03-19T13:21:39Z</time>
      </trkpt>
      <trkpt lat="48.40761" lon="7.26929">
        <ele>1042.485</ele>
        <time>2026-03-19T13:21:45Z</time>
      </trkpt>
      <trkpt lat="48.40763" lon="7.26937">
        <ele>1042.485</ele>
        <time>2026-03-19T13:21:52Z</time>
      </trkpt>
      <trkpt lat="48.40765" lon="7.26945">
        <ele>1042.485</ele>
        <time>2026-03-19T13:21:57Z</time>
      </trkpt>
      <trkpt lat="48.40765" lon="7.26951">
        <ele>1042.485</ele>
        <time>2026-03-19T13:22:03Z</time>
      </trkpt>
      <trkpt lat="48.40767" lon="7.26958">
        <ele>1042.485</ele>
        <time>2026-03-19T13:22:08Z</time>
      </trkpt>
      <trkpt lat="48.40768" lon="7.26966">
        <ele>1042.485</ele>
        <time>2026-03-19T13:22:13Z</time>
      </trkpt>
      <trkpt lat="48.40768" lon="7.26975">
        <ele>1042.485</ele>
        <time>2026-03-19T13:22:18Z</time>
      </trkpt>
      <trkpt lat="48.40763" lon="7.26983">
        <ele>1042.485</ele>
        <time>2026-03-19T13:22:21Z</time>
      </trkpt>
      <trkpt lat="48.40763" lon="7.2699">
        <ele>1042.485</ele>
        <time>2026-03-19T13:22:25Z</time>
      </trkpt>
      <trkpt lat="48.40765" lon="7.26996">
        <ele>1042.485</ele>
        <time>2026-03-19T13:22:30Z</time>
      </trkpt>
      <trkpt lat="48.40765" lon="7.27004">
        <ele>1042.485</ele>
        <time>2026-03-19T13:22:35Z</time>
      </trkpt>
      <trkpt lat="48.40766" lon="7.27011">
        <ele>1042.485</ele>
        <time>2026-03-19T13:22:39Z</time>
      </trkpt>
      <trkpt lat="48.40767" lon="7.27018">
        <ele>1042.485</ele>
        <time>2026-03-19T13:22:44Z</time>
      </trkpt>
      <trkpt lat="48.40767" lon="7.27027">
        <ele>1042.485</ele>
        <time>2026-03-19T13:22:49Z</time>
      </trkpt>
      <trkpt lat="48.40768" lon="7.27034">
        <ele>1042.485</ele>
        <time>2026-03-19T13:22:54Z</time>
      </trkpt>
      <trkpt lat="48.40768" lon="7.27041">
        <ele>1042.485</ele>
        <time>2026-03-19T13:22:59Z</time>
      </trkpt>
      <trkpt lat="48.40769" lon="7.27048">
        <ele>1042.485</ele>
        <time>2026-03-19T13:23:04Z</time>
      </trkpt>
      <trkpt lat="48.4077" lon="7.27055">
        <ele>1042.485</ele>
        <time>2026-03-19T13:23:08Z</time>
      </trkpt>
      <trkpt lat="48.40771" lon="7.27063">
        <ele>1044.5237</ele>
        <time>2026-03-19T13:23:12Z</time>
      </trkpt>
      <trkpt lat="48.40772" lon="7.27069">
        <ele>1046.5624</ele>
        <time>2026-03-19T13:23:18Z</time>
      </trkpt>
      <trkpt lat="48.40773" lon="7.27077">
        <ele>1048.601</ele>
        <time>2026-03-19T13:23:23Z</time>
      </trkpt>
      <trkpt lat="48.40774" lon="7.27083">
        <ele>1050.6396</ele>
        <time>2026-03-19T13:23:27Z</time>
      </trkpt>
      <trkpt lat="48.40775" lon="7.2709">
        <ele>1052.6783</ele>
        <time>2026-03-19T13:23:32Z</time>
      </trkpt>
      <trkpt lat="48.40776" lon="7.27098">
        <ele>1052.6783</ele>
        <time>2026-03-19T13:23:36Z</time>
      </trkpt>
      <trkpt lat="48.40777" lon="7.27106">
        <ele>1052.6783</ele>
        <time>2026-03-19T13:23:41Z</time>
      </trkpt>
      <trkpt lat="48.40778" lon="7.27114">
        <ele>1052.6783</ele>
        <time>2026-03-19T13:23:45Z</time>
      </trkpt>
      <trkpt lat="48.4078" lon="7.27121">
        <ele>1052.6783</ele>
        <time>2026-03-19T13:23:50Z</time>
      </trkpt>
      <trkpt lat="48.40781" lon="7.27129">
        <ele>1052.6783</ele>
        <time>2026-03-19T13:23:55Z</time>
      </trkpt>
      <trkpt lat="48.40783" lon="7.27136">
        <ele>1052.6783</ele>
        <time>2026-03-19T13:24:03Z</time>
      </trkpt>
      <trkpt lat="48.40784" lon="7.27144">
        <ele>1052.6783</ele>
        <time>2026-03-19T13:24:10Z</time>
      </trkpt>
      <trkpt lat="48.40786" lon="7.2715">
        <ele>1052.6783</ele>
        <time>2026-03-19T13:24:15Z</time>
      </trkpt>
      <trkpt lat="48.40787" lon="7.27158">
        <ele>1052.6783</ele>
        <time>2026-03-19T13:24:21Z</time>
      </trkpt>
      <trkpt lat="48.40787" lon="7.27166">
        <ele>1052.6783</ele>
        <time>2026-03-19T13:24:27Z</time>
      </trkpt>
      <trkpt lat="48.40788" lon="7.27173">
        <ele>1052.6783</ele>
        <time>2026-03-19T13:24:32Z</time>
      </trkpt>
      <trkpt lat="48.40789" lon="7.2718">
        <ele>1052.6783</ele>
        <time>2026-03-19T13:24:36Z</time>
      </trkpt>
      <trkpt lat="48.40792" lon="7.27188">
        <ele>1052.6783</ele>
        <time>2026-03-19T13:24:42Z</time>
      </trkpt>
      <trkpt lat="48.40794" lon="7.27195">
        <ele>1052.6783</ele>
        <time>2026-03-19T13:24:46Z</time>
      </trkpt>
      <trkpt lat="48.40796" lon="7.27202">
        <ele>1052.6783</ele>
        <time>2026-03-19T13:24:51Z</time>
      </trkpt>
      <trkpt lat="48.40797" lon="7.2721">
        <ele>1052.6783</ele>
        <time>2026-03-19T13:24:56Z</time>
      </trkpt>
      <trkpt lat="48.40798" lon="7.27217">
        <ele>1052.6783</ele>
        <time>2026-03-19T13:25:01Z</time>
      </trkpt>
      <trkpt lat="48.40799" lon="7.27224">
        <ele>1052.6783</ele>
        <time>2026-03-19T13:25:06Z</time>
      </trkpt>
      <trkpt lat="48.408" lon="7.27231">
        <ele>1052.6783</ele>
        <time>2026-03-19T13:25:10Z</time>
      </trkpt>
      <trkpt lat="48.40801" lon="7.27239">
        <ele>1052.6783</ele>
        <time>2026-03-19T13:25:16Z</time>
      </trkpt>
      <trkpt lat="48.40802" lon="7.27246">
        <ele>1052.6783</ele>
        <time>2026-03-19T13:25:24Z</time>
      </trkpt>
      <trkpt lat="48.40799" lon="7.27255">
        <ele>1052.6783</ele>
        <time>2026-03-19T13:25:31Z</time>
      </trkpt>
      <trkpt lat="48.40798" lon="7.27263">
        <ele>1052.6783</ele>
        <time>2026-03-19T13:25:36Z</time>
      </trkpt>
      <trkpt lat="48.40797" lon="7.2727">
        <ele>1052.6783</ele>
        <time>2026-03-19T13:25:43Z</time>
      </trkpt>
      <trkpt lat="48.40796" lon="7.27277">
        <ele>1052.6783</ele>
        <time>2026-03-19T13:25:50Z</time>
      </trkpt>
      <trkpt lat="48.40798" lon="7.27283">
        <ele>1052.6783</ele>
        <time>2026-03-19T13:26:50Z</time>
      </trkpt>
      <trkpt lat="48.40793" lon="7.27284">
        <ele>1052.6783</ele>
        <time>2026-03-19T13:27:35Z</time>
      </trkpt>
      <trkpt lat="48.40788" lon="7.27287">
        <ele>1052.6783</ele>
        <time>2026-03-19T13:27:42Z</time>
      </trkpt>
      <trkpt lat="48.40786" lon="7.27294">
        <ele>1052.6783</ele>
        <time>2026-03-19T13:27:48Z</time>
      </trkpt>
      <trkpt lat="48.40786" lon="7.27301">
        <ele>1052.6783</ele>
        <time>2026-03-19T13:27:53Z</time>
      </trkpt>
      <trkpt lat="48.40786" lon="7.2731">
        <ele>1052.6783</ele>
        <time>2026-03-19T13:27:58Z</time>
      </trkpt>
      <trkpt lat="48.40788" lon="7.27318">
        <ele>1052.6783</ele>
        <time>2026-03-19T13:28:04Z</time>
      </trkpt>
      <trkpt lat="48.40788" lon="7.27326">
        <ele>1052.6783</ele>
        <time>2026-03-19T13:28:09Z</time>
      </trkpt>
      <trkpt lat="48.40785" lon="7.27333">
        <ele>1052.6783</ele>
        <time>2026-03-19T13:28:14Z</time>
      </trkpt>
      <trkpt lat="48.40785" lon="7.2734">
        <ele>1052.6783</ele>
        <time>2026-03-19T13:28:47Z</time>
      </trkpt>
      <trkpt lat="48.40779" lon="7.27339">
        <ele>1052.6783</ele>
        <time>2026-03-19T13:28:54Z</time>
      </trkpt>
      <trkpt lat="48.40775" lon="7.27335">
        <ele>1052.6783</ele>
        <time>2026-03-19T13:28:57Z</time>
      </trkpt>
      <trkpt lat="48.40772" lon="7.27329">
        <ele>1052.6783</ele>
        <time>2026-03-19T13:29:02Z</time>
      </trkpt>
      <trkpt lat="48.40772" lon="7.27322">
        <ele>1052.6783</ele>
        <time>2026-03-19T13:29:06Z</time>
      </trkpt>
      <trkpt lat="48.40772" lon="7.27313">
        <ele>1052.6783</ele>
        <time>2026-03-19T13:29:10Z</time>
      </trkpt>
      <trkpt lat="48.40773" lon="7.27306">
        <ele>1052.6783</ele>
        <time>2026-03-19T13:29:14Z</time>
      </trkpt>
      <trkpt lat="48.40773" lon="7.27298">
        <ele>1052.6783</ele>
        <time>2026-03-19T13:29:19Z</time>
      </trkpt>
      <trkpt lat="48.40771" lon="7.27292">
        <ele>1052.6783</ele>
        <time>2026-03-19T13:29:25Z</time>
      </trkpt>
      <trkpt lat="48.40768" lon="7.27285">
        <ele>1052.6783</ele>
        <time>2026-03-19T13:29:31Z</time>
      </trkpt>
      <trkpt lat="48.40766" lon="7.27278">
        <ele>1052.6783</ele>
        <time>2026-03-19T13:29:37Z</time>
      </trkpt>
      <trkpt lat="48.40763" lon="7.27271">
        <ele>1052.6783</ele>
        <time>2026-03-19T13:29:42Z</time>
      </trkpt>
      <trkpt lat="48.4076" lon="7.27264">
        <ele>1052.6783</ele>
        <time>2026-03-19T13:29:47Z</time>
      </trkpt>
      <trkpt lat="48.40758" lon="7.27257">
        <ele>1052.6783</ele>
        <time>2026-03-19T13:29:52Z</time>
      </trkpt>
      <trkpt lat="48.40755" lon="7.27251">
        <ele>1052.6783</ele>
        <time>2026-03-19T13:29:56Z</time>
      </trkpt>
      <trkpt lat="48.40752" lon="7.27246">
        <ele>1052.6783</ele>
        <time>2026-03-19T13:30:01Z</time>
      </trkpt>
      <trkpt lat="48.40749" lon="7.27239">
        <ele>1052.6783</ele>
        <time>2026-03-19T13:30:05Z</time>
      </trkpt>
      <trkpt lat="48.40747" lon="7.27233">
        <ele>1052.6783</ele>
        <time>2026-03-19T13:30:10Z</time>
      </trkpt>
      <trkpt lat="48.40744" lon="7.27227">
        <ele>1052.6783</ele>
        <time>2026-03-19T13:30:15Z</time>
      </trkpt>
      <trkpt lat="48.40741" lon="7.27221">
        <ele>1052.6783</ele>
        <time>2026-03-19T13:30:20Z</time>
      </trkpt>
      <trkpt lat="48.40738" lon="7.27216">
        <ele>1052.6783</ele>
        <time>2026-03-19T13:30:24Z</time>
      </trkpt>
      <trkpt lat="48.40735" lon="7.2721">
        <ele>1052.6783</ele>
        <time>2026-03-19T13:30:27Z</time>
      </trkpt>
      <trkpt lat="48.40732" lon="7.27204">
        <ele>1052.6783</ele>
        <time>2026-03-19T13:30:36Z</time>
      </trkpt>
      <trkpt lat="48.40727" lon="7.272">
        <ele>1052.6783</ele>
        <time>2026-03-19T13:30:42Z</time>
      </trkpt>
      <trkpt lat="48.40726" lon="7.27194">
        <ele>1052.6783</ele>
        <time>2026-03-19T13:30:46Z</time>
      </trkpt>
      <trkpt lat="48.40723" lon="7.27187">
        <ele>1052.6783</ele>
        <time>2026-03-19T13:30:49Z</time>
      </trkpt>
      <trkpt lat="48.4072" lon="7.27182">
        <ele>1054.8693</ele>
        <time>2026-03-19T13:30:53Z</time>
      </trkpt>
      <trkpt lat="48.40716" lon="7.27175">
        <ele>1057.0602</ele>
        <time>2026-03-19T13:30:57Z</time>
      </trkpt>
      <trkpt lat="48.40712" lon="7.2717">
        <ele>1059.2512</ele>
        <time>2026-03-19T13:31:02Z</time>
      </trkpt>
      <trkpt lat="48.40708" lon="7.27165">
        <ele>1061.4421</ele>
        <time>2026-03-19T13:31:06Z</time>
      </trkpt>
      <trkpt lat="48.40704" lon="7.2716">
        <ele>1063.633</ele>
        <time>2026-03-19T13:31:11Z</time>
      </trkpt>
      <trkpt lat="48.40699" lon="7.27153">
        <ele>1063.633</ele>
        <time>2026-03-19T13:31:16Z</time>
      </trkpt>
      <trkpt lat="48.40695" lon="7.27147">
        <ele>1063.633</ele>
        <time>2026-03-19T13:31:21Z</time>
      </trkpt>
      <trkpt lat="48.40692" lon="7.27143">
        <ele>1063.633</ele>
        <time>2026-03-19T13:31:25Z</time>
      </trkpt>
      <trkpt lat="48.40687" lon="7.27146">
        <ele>1063.633</ele>
        <time>2026-03-19T13:31:35Z</time>
      </trkpt>
      <trkpt lat="48.40684" lon="7.27151">
        <ele>1063.633</ele>
        <time>2026-03-19T13:31:40Z</time>
      </trkpt>
      <trkpt lat="48.4068" lon="7.27146">
        <ele>1063.633</ele>
        <time>2026-03-19T13:31:45Z</time>
      </trkpt>
      <trkpt lat="48.40676" lon="7.2714">
        <ele>1063.633</ele>
        <time>2026-03-19T13:31:51Z</time>
      </trkpt>
      <trkpt lat="48.40672" lon="7.27136">
        <ele>1063.633</ele>
        <time>2026-03-19T13:31:57Z</time>
      </trkpt>
      <trkpt lat="48.40668" lon="7.27131">
        <ele>1063.633</ele>
        <time>2026-03-19T13:32:02Z</time>
      </trkpt>
      <trkpt lat="48.40664" lon="7.27126">
        <ele>1063.633</ele>
        <time>2026-03-19T13:32:07Z</time>
      </trkpt>
      <trkpt lat="48.40662" lon="7.27119">
        <ele>1063.633</ele>
        <time>2026-03-19T13:32:11Z</time>
      </trkpt>
      <trkpt lat="48.4066" lon="7.27113">
        <ele>1063.633</ele>
        <time>2026-03-19T13:32:15Z</time>
      </trkpt>
      <trkpt lat="48.40656" lon="7.27107">
        <ele>1063.633</ele>
        <time>2026-03-19T13:32:20Z</time>
      </trkpt>
      <trkpt lat="48.40652" lon="7.27103">
        <ele>1063.633</ele>
        <time>2026-03-19T13:32:25Z</time>
      </trkpt>
      <trkpt lat="48.40647" lon="7.27099">
        <ele>1063.633</ele>
        <time>2026-03-19T13:32:30Z</time>
      </trkpt>
      <trkpt lat="48.40643" lon="7.27095">
        <ele>1063.633</ele>
        <time>2026-03-19T13:32:35Z</time>
      </trkpt>
      <trkpt lat="48.40638" lon="7.27092">
        <ele>1063.633</ele>
        <time>2026-03-19T13:32:40Z</time>
      </trkpt>
      <trkpt lat="48.40634" lon="7.27088">
        <ele>1063.633</ele>
        <time>2026-03-19T13:32:46Z</time>
      </trkpt>
      <trkpt lat="48.4063" lon="7.27085">
        <ele>1063.633</ele>
        <time>2026-03-19T13:32:50Z</time>
      </trkpt>
      <trkpt lat="48.40625" lon="7.27082">
        <ele>1063.633</ele>
        <time>2026-03-19T13:32:56Z</time>
      </trkpt>
      <trkpt lat="48.4062" lon="7.27081">
        <ele>1063.633</ele>
        <time>2026-03-19T13:33:01Z</time>
      </trkpt>
      <trkpt lat="48.40616" lon="7.27078">
        <ele>1063.633</ele>
        <time>2026-03-19T13:33:05Z</time>
      </trkpt>
      <trkpt lat="48.40611" lon="7.27077">
        <ele>1065.6466</ele>
        <time>2026-03-19T13:33:10Z</time>
      </trkpt>
      <trkpt lat="48.40608" lon="7.27071">
        <ele>1067.6603</ele>
        <time>2026-03-19T13:33:14Z</time>
      </trkpt>
      <trkpt lat="48.40603" lon="7.27068">
        <ele>1069.6738</ele>
        <time>2026-03-19T13:33:19Z</time>
      </trkpt>
      <trkpt lat="48.40598" lon="7.27065">
        <ele>1071.6875</ele>
        <time>2026-03-19T13:33:23Z</time>
      </trkpt>
      <trkpt lat="48.40594" lon="7.27063">
        <ele>1073.701</ele>
        <time>2026-03-19T13:33:28Z</time>
      </trkpt>
      <trkpt lat="48.40589" lon="7.2706">
        <ele>1073.701</ele>
        <time>2026-03-19T13:33:33Z</time>
      </trkpt>
      <trkpt lat="48.40584" lon="7.27057">
        <ele>1073.701</ele>
        <time>2026-03-19T13:33:38Z</time>
      </trkpt>
      <trkpt lat="48.40579" lon="7.27055">
        <ele>1073.701</ele>
        <time>2026-03-19T13:33:43Z</time>
      </trkpt>
      <trkpt lat="48.40575" lon="7.27052">
        <ele>1073.701</ele>
        <time>2026-03-19T13:33:48Z</time>
      </trkpt>
      <trkpt lat="48.4057" lon="7.27049">
        <ele>1073.701</ele>
        <time>2026-03-19T13:33:53Z</time>
      </trkpt>
      <trkpt lat="48.40566" lon="7.27047">
        <ele>1073.701</ele>
        <time>2026-03-19T13:33:58Z</time>
      </trkpt>
      <trkpt lat="48.40561" lon="7.27044">
        <ele>1073.701</ele>
        <time>2026-03-19T13:34:03Z</time>
      </trkpt>
      <trkpt lat="48.40556" lon="7.27042">
        <ele>1073.701</ele>
        <time>2026-03-19T13:34:08Z</time>
      </trkpt>
      <trkpt lat="48.40551" lon="7.27039">
        <ele>1073.701</ele>
        <time>2026-03-19T13:34:15Z</time>
      </trkpt>
      <trkpt lat="48.40546" lon="7.27035">
        <ele>1073.701</ele>
        <time>2026-03-19T13:34:21Z</time>
      </trkpt>
      <trkpt lat="48.4054" lon="7.27032">
        <ele>1073.701</ele>
        <time>2026-03-19T13:34:26Z</time>
      </trkpt>
      <trkpt lat="48.40536" lon="7.2703">
        <ele>1073.701</ele>
        <time>2026-03-19T13:34:31Z</time>
      </trkpt>
      <trkpt lat="48.40532" lon="7.27028">
        <ele>1073.701</ele>
        <time>2026-03-19T13:34:36Z</time>
      </trkpt>
      <trkpt lat="48.40527" lon="7.27025">
        <ele>1073.701</ele>
        <time>2026-03-19T13:34:41Z</time>
      </trkpt>
      <trkpt lat="48.40521" lon="7.27023">
        <ele>1073.701</ele>
        <time>2026-03-19T13:34:47Z</time>
      </trkpt>
      <trkpt lat="48.40517" lon="7.2702">
        <ele>1073.701</ele>
        <time>2026-03-19T13:34:52Z</time>
      </trkpt>
      <trkpt lat="48.40512" lon="7.27022">
        <ele>1073.701</ele>
        <time>2026-03-19T13:34:57Z</time>
      </trkpt>
      <trkpt lat="48.40506" lon="7.27029">
        <ele>1073.701</ele>
        <time>2026-03-19T13:35:01Z</time>
      </trkpt>
      <trkpt lat="48.40501" lon="7.27026">
        <ele>1073.701</ele>
        <time>2026-03-19T13:35:07Z</time>
      </trkpt>
      <trkpt lat="48.40496" lon="7.27025">
        <ele>1073.701</ele>
        <time>2026-03-19T13:35:12Z</time>
      </trkpt>
      <trkpt lat="48.40491" lon="7.27023">
        <ele>1073.701</ele>
        <time>2026-03-19T13:35:17Z</time>
      </trkpt>
      <trkpt lat="48.40486" lon="7.27021">
        <ele>1073.701</ele>
        <time>2026-03-19T13:35:23Z</time>
      </trkpt>
      <trkpt lat="48.40481" lon="7.27019">
        <ele>1073.701</ele>
        <time>2026-03-19T13:35:28Z</time>
      </trkpt>
      <trkpt lat="48.40476" lon="7.27018">
        <ele>1073.701</ele>
        <time>2026-03-19T13:35:33Z</time>
      </trkpt>
      <trkpt lat="48.40471" lon="7.27017">
        <ele>1073.701</ele>
        <time>2026-03-19T13:35:38Z</time>
      </trkpt>
      <trkpt lat="48.40466" lon="7.27015">
        <ele>1073.701</ele>
        <time>2026-03-19T13:35:43Z</time>
      </trkpt>
      <trkpt lat="48.40461" lon="7.27014">
        <ele>1073.701</ele>
        <time>2026-03-19T13:35:48Z</time>
      </trkpt>
      <trkpt lat="48.40456" lon="7.27014">
        <ele>1073.701</ele>
        <time>2026-03-19T13:35:53Z</time>
      </trkpt>
      <trkpt lat="48.40451" lon="7.27013">
        <ele>1073.701</ele>
        <time>2026-03-19T13:35:58Z</time>
      </trkpt>
      <trkpt lat="48.40446" lon="7.27013">
        <ele>1073.701</ele>
        <time>2026-03-19T13:36:03Z</time>
      </trkpt>
      <trkpt lat="48.40441" lon="7.27013">
        <ele>1073.701</ele>
        <time>2026-03-19T13:36:07Z</time>
      </trkpt>
      <trkpt lat="48.40436" lon="7.27013">
        <ele>1073.701</ele>
        <time>2026-03-19T13:36:12Z</time>
      </trkpt>
      <trkpt lat="48.40431" lon="7.27013">
        <ele>1073.701</ele>
        <time>2026-03-19T13:36:17Z</time>
      </trkpt>
      <trkpt lat="48.40425" lon="7.27013">
        <ele>1073.701</ele>
        <time>2026-03-19T13:36:22Z</time>
      </trkpt>
      <trkpt lat="48.40419" lon="7.27013">
        <ele>1073.701</ele>
        <time>2026-03-19T13:36:27Z</time>
      </trkpt>
      <trkpt lat="48.40415" lon="7.27013">
        <ele>1073.701</ele>
        <time>2026-03-19T13:36:31Z</time>
      </trkpt>
      <trkpt lat="48.40409" lon="7.27013">
        <ele>1073.701</ele>
        <time>2026-03-19T13:36:37Z</time>
      </trkpt>
      <trkpt lat="48.40404" lon="7.27013">
        <ele>1073.701</ele>
        <time>2026-03-19T13:36:41Z</time>
      </trkpt>
      <trkpt lat="48.40399" lon="7.27013">
        <ele>1073.701</ele>
        <time>2026-03-19T13:36:47Z</time>
      </trkpt>
      <trkpt lat="48.40394" lon="7.27011">
        <ele>1073.701</ele>
        <time>2026-03-19T13:36:52Z</time>
      </trkpt>
      <trkpt lat="48.40389" lon="7.2701">
        <ele>1073.701</ele>
        <time>2026-03-19T13:36:57Z</time>
      </trkpt>
      <trkpt lat="48.40383" lon="7.2701">
        <ele>1073.701</ele>
        <time>2026-03-19T13:37:03Z</time>
      </trkpt>
      <trkpt lat="48.40378" lon="7.2701">
        <ele>1073.701</ele>
        <time>2026-03-19T13:37:08Z</time>
      </trkpt>
      <trkpt lat="48.40373" lon="7.2701">
        <ele>1073.701</ele>
        <time>2026-03-19T13:37:13Z</time>
      </trkpt>
      <trkpt lat="48.40368" lon="7.27009">
        <ele>1073.701</ele>
        <time>2026-03-19T13:37:18Z</time>
      </trkpt>
      <trkpt lat="48.40364" lon="7.27009">
        <ele>1073.701</ele>
        <time>2026-03-19T13:37:23Z</time>
      </trkpt>
      <trkpt lat="48.40358" lon="7.27009">
        <ele>1073.701</ele>
        <time>2026-03-19T13:37:28Z</time>
      </trkpt>
      <trkpt lat="48.40353" lon="7.27008">
        <ele>1073.701</ele>
        <time>2026-03-19T13:37:33Z</time>
      </trkpt>
      <trkpt lat="48.40348" lon="7.27008">
        <ele>1073.701</ele>
        <time>2026-03-19T13:37:37Z</time>
      </trkpt>
      <trkpt lat="48.40342" lon="7.27008">
        <ele>1073.701</ele>
        <time>2026-03-19T13:37:43Z</time>
      </trkpt>
      <trkpt lat="48.40337" lon="7.27007">
        <ele>1073.701</ele>
        <time>2026-03-19T13:37:47Z</time>
      </trkpt>
      <trkpt lat="48.40332" lon="7.27007">
        <ele>1073.701</ele>
        <time>2026-03-19T13:37:52Z</time>
      </trkpt>
      <trkpt lat="48.40327" lon="7.27007">
        <ele>1073.701</ele>
        <time>2026-03-19T13:37:59Z</time>
      </trkpt>
      <trkpt lat="48.40321" lon="7.27007">
        <ele>1073.701</ele>
        <time>2026-03-19T13:38:41Z</time>
      </trkpt>
      <trkpt lat="48.40316" lon="7.27006">
        <ele>1073.701</ele>
        <time>2026-03-19T13:38:46Z</time>
      </trkpt>
      <trkpt lat="48.40312" lon="7.27007">
        <ele>1073.701</ele>
        <time>2026-03-19T13:38:54Z</time>
      </trkpt>
      <trkpt lat="48.40307" lon="7.27007">
        <ele>1073.701</ele>
        <time>2026-03-19T13:39:01Z</time>
      </trkpt>
      <trkpt lat="48.40302" lon="7.27005">
        <ele>1073.701</ele>
        <time>2026-03-19T13:39:06Z</time>
      </trkpt>
      <trkpt lat="48.40297" lon="7.27004">
        <ele>1073.701</ele>
        <time>2026-03-19T13:39:10Z</time>
      </trkpt>
      <trkpt lat="48.40291" lon="7.27003">
        <ele>1073.701</ele>
        <time>2026-03-19T13:39:16Z</time>
      </trkpt>
      <trkpt lat="48.40286" lon="7.27004">
        <ele>1073.701</ele>
        <time>2026-03-19T13:39:21Z</time>
      </trkpt>
      <trkpt lat="48.40281" lon="7.27004">
        <ele>1073.701</ele>
        <time>2026-03-19T13:39:25Z</time>
      </trkpt>
      <trkpt lat="48.40276" lon="7.27003">
        <ele>1073.701</ele>
        <time>2026-03-19T13:39:30Z</time>
      </trkpt>
      <trkpt lat="48.40271" lon="7.27001">
        <ele>1073.701</ele>
        <time>2026-03-19T13:39:35Z</time>
      </trkpt>
      <trkpt lat="48.40267" lon="7.27">
        <ele>1073.701</ele>
        <time>2026-03-19T13:39:39Z</time>
      </trkpt>
      <trkpt lat="48.40262" lon="7.26998">
        <ele>1073.701</ele>
        <time>2026-03-19T13:39:44Z</time>
      </trkpt>
      <trkpt lat="48.40258" lon="7.26996">
        <ele>1073.701</ele>
        <time>2026-03-19T13:39:48Z</time>
      </trkpt>
      <trkpt lat="48.40253" lon="7.26994">
        <ele>1073.701</ele>
        <time>2026-03-19T13:39:53Z</time>
      </trkpt>
      <trkpt lat="48.40249" lon="7.26993">
        <ele>1073.701</ele>
        <time>2026-03-19T13:39:57Z</time>
      </trkpt>
      <trkpt lat="48.40244" lon="7.26991">
        <ele>1073.701</ele>
        <time>2026-03-19T13:40:01Z</time>
      </trkpt>
      <trkpt lat="48.4024" lon="7.2699">
        <ele>1073.701</ele>
        <time>2026-03-19T13:40:05Z</time>
      </trkpt>
      <trkpt lat="48.40235" lon="7.26989">
        <ele>1073.701</ele>
        <time>2026-03-19T13:40:09Z</time>
      </trkpt>
      <trkpt lat="48.4023" lon="7.26986">
        <ele>1073.701</ele>
        <time>2026-03-19T13:40:14Z</time>
      </trkpt>
      <trkpt lat="48.40225" lon="7.26984">
        <ele>1073.701</ele>
        <time>2026-03-19T13:40:18Z</time>
      </trkpt>
      <trkpt lat="48.40221" lon="7.26982">
        <ele>1073.701</ele>
        <time>2026-03-19T13:40:22Z</time>
      </trkpt>
      <trkpt lat="48.40216" lon="7.26979">
        <ele>1073.701</ele>
        <time>2026-03-19T13:40:26Z</time>
      </trkpt>
      <trkpt lat="48.40211" lon="7.26976">
        <ele>1073.701</ele>
        <time>2026-03-19T13:40:31Z</time>
      </trkpt>
      <trkpt lat="48.40206" lon="7.26973">
        <ele>1073.701</ele>
        <time>2026-03-19T13:40:35Z</time>
      </trkpt>
      <trkpt lat="48.40201" lon="7.26971">
        <ele>1073.701</ele>
        <time>2026-03-19T13:40:40Z</time>
      </trkpt>
      <trkpt lat="48.40197" lon="7.26969">
        <ele>1073.701</ele>
        <time>2026-03-19T13:40:43Z</time>
      </trkpt>
      <trkpt lat="48.40192" lon="7.26966">
        <ele>1073.701</ele>
        <time>2026-03-19T13:40:48Z</time>
      </trkpt>
      <trkpt lat="48.40188" lon="7.26968">
        <ele>1073.701</ele>
        <time>2026-03-19T13:40:52Z</time>
      </trkpt>
      <trkpt lat="48.40182" lon="7.26965">
        <ele>1073.701</ele>
        <time>2026-03-19T13:40:57Z</time>
      </trkpt>
      <trkpt lat="48.40177" lon="7.26963">
        <ele>1073.701</ele>
        <time>2026-03-19T13:41:01Z</time>
      </trkpt>
      <trkpt lat="48.40173" lon="7.26961">
        <ele>1073.701</ele>
        <time>2026-03-19T13:41:05Z</time>
      </trkpt>
      <trkpt lat="48.40168" lon="7.26959">
        <ele>1073.701</ele>
        <time>2026-03-19T13:41:09Z</time>
      </trkpt>
      <trkpt lat="48.40163" lon="7.26957">
        <ele>1073.701</ele>
        <time>2026-03-19T13:41:13Z</time>
      </trkpt>
      <trkpt lat="48.40159" lon="7.26954">
        <ele>1073.701</ele>
        <time>2026-03-19T13:41:18Z</time>
      </trkpt>
      <trkpt lat="48.40154" lon="7.26952">
        <ele>1073.701</ele>
        <time>2026-03-19T13:41:24Z</time>
      </trkpt>
      <trkpt lat="48.40149" lon="7.26949">
        <ele>1073.701</ele>
        <time>2026-03-19T13:41:28Z</time>
      </trkpt>
      <trkpt lat="48.40145" lon="7.26946">
        <ele>1073.701</ele>
        <time>2026-03-19T13:41:32Z</time>
      </trkpt>
      <trkpt lat="48.40141" lon="7.26944">
        <ele>1073.701</ele>
        <time>2026-03-19T13:41:36Z</time>
      </trkpt>
      <trkpt lat="48.40136" lon="7.26941">
        <ele>1073.701</ele>
        <time>2026-03-19T13:41:41Z</time>
      </trkpt>
      <trkpt lat="48.4013" lon="7.26938">
        <ele>1073.701</ele>
        <time>2026-03-19T13:41:46Z</time>
      </trkpt>
      <trkpt lat="48.40126" lon="7.26936">
        <ele>1073.701</ele>
        <time>2026-03-19T13:41:50Z</time>
      </trkpt>
      <trkpt lat="48.40122" lon="7.26934">
        <ele>1073.701</ele>
        <time>2026-03-19T13:41:54Z</time>
      </trkpt>
      <trkpt lat="48.40117" lon="7.26931">
        <ele>1073.701</ele>
        <time>2026-03-19T13:41:59Z</time>
      </trkpt>
      <trkpt lat="48.40112" lon="7.26928">
        <ele>1073.701</ele>
        <time>2026-03-19T13:42:04Z</time>
      </trkpt>
      <trkpt lat="48.40107" lon="7.26925">
        <ele>1073.701</ele>
        <time>2026-03-19T13:42:08Z</time>
      </trkpt>
      <trkpt lat="48.40102" lon="7.26922">
        <ele>1073.701</ele>
        <time>2026-03-19T13:42:12Z</time>
      </trkpt>
      <trkpt lat="48.40096" lon="7.26919">
        <ele>1073.701</ele>
        <time>2026-03-19T13:42:17Z</time>
      </trkpt>
      <trkpt lat="48.40092" lon="7.26916">
        <ele>1073.701</ele>
        <time>2026-03-19T13:42:22Z</time>
      </trkpt>
      <trkpt lat="48.40087" lon="7.26912">
        <ele>1073.701</ele>
        <time>2026-03-19T13:42:26Z</time>
      </trkpt>
      <trkpt lat="48.40083" lon="7.26908">
        <ele>1073.701</ele>
        <time>2026-03-19T13:42:31Z</time>
      </trkpt>
      <trkpt lat="48.40078" lon="7.26903">
        <ele>1073.701</ele>
        <time>2026-03-19T13:42:35Z</time>
      </trkpt>
      <trkpt lat="48.40073" lon="7.26899">
        <ele>1073.701</ele>
        <time>2026-03-19T13:42:40Z</time>
      </trkpt>
      <trkpt lat="48.40068" lon="7.26895">
        <ele>1073.701</ele>
        <time>2026-03-19T13:42:45Z</time>
      </trkpt>
      <trkpt lat="48.40064" lon="7.26891">
        <ele>1073.701</ele>
        <time>2026-03-19T13:42:49Z</time>
      </trkpt>
      <trkpt lat="48.40059" lon="7.26887">
        <ele>1073.701</ele>
        <time>2026-03-19T13:42:54Z</time>
      </trkpt>
      <trkpt lat="48.40055" lon="7.26884">
        <ele>1073.701</ele>
        <time>2026-03-19T13:42:59Z</time>
      </trkpt>
      <trkpt lat="48.40051" lon="7.2688">
        <ele>1073.701</ele>
        <time>2026-03-19T13:43:03Z</time>
      </trkpt>
      <trkpt lat="48.40047" lon="7.26876">
        <ele>1073.701</ele>
        <time>2026-03-19T13:43:08Z</time>
      </trkpt>
      <trkpt lat="48.40042" lon="7.26872">
        <ele>1073.701</ele>
        <time>2026-03-19T13:43:13Z</time>
      </trkpt>
      <trkpt lat="48.40037" lon="7.26867">
        <ele>1073.701</ele>
        <time>2026-03-19T13:43:18Z</time>
      </trkpt>
      <trkpt lat="48.40033" lon="7.26864">
        <ele>1073.701</ele>
        <time>2026-03-19T13:43:22Z</time>
      </trkpt>
      <trkpt lat="48.40028" lon="7.26859">
        <ele>1073.701</ele>
        <time>2026-03-19T13:43:27Z</time>
      </trkpt>
      <trkpt lat="48.40024" lon="7.26855">
        <ele>1073.701</ele>
        <time>2026-03-19T13:43:32Z</time>
      </trkpt>
      <trkpt lat="48.4002" lon="7.26851">
        <ele>1073.701</ele>
        <time>2026-03-19T13:43:36Z</time>
      </trkpt>
      <trkpt lat="48.40015" lon="7.26847">
        <ele>1073.701</ele>
        <time>2026-03-19T13:43:41Z</time>
      </trkpt>
      <trkpt lat="48.40011" lon="7.26844">
        <ele>1073.701</ele>
        <time>2026-03-19T13:43:45Z</time>
      </trkpt>
      <trkpt lat="48.40007" lon="7.2684">
        <ele>1073.701</ele>
        <time>2026-03-19T13:43:49Z</time>
      </trkpt>
      <trkpt lat="48.40003" lon="7.26836">
        <ele>1073.701</ele>
        <time>2026-03-19T13:43:53Z</time>
      </trkpt>
      <trkpt lat="48.39999" lon="7.26832">
        <ele>1073.701</ele>
        <time>2026-03-19T13:43:58Z</time>
      </trkpt>
      <trkpt lat="48.39994" lon="7.26828">
        <ele>1073.701</ele>
        <time>2026-03-19T13:44:03Z</time>
      </trkpt>
      <trkpt lat="48.3999" lon="7.26824">
        <ele>1073.701</ele>
        <time>2026-03-19T13:44:07Z</time>
      </trkpt>
      <trkpt lat="48.39986" lon="7.2682">
        <ele>1073.701</ele>
        <time>2026-03-19T13:44:12Z</time>
      </trkpt>
      <trkpt lat="48.39981" lon="7.26816">
        <ele>1073.701</ele>
        <time>2026-03-19T13:44:18Z</time>
      </trkpt>
      <trkpt lat="48.39977" lon="7.26812">
        <ele>1073.701</ele>
        <time>2026-03-19T13:44:24Z</time>
      </trkpt>
      <trkpt lat="48.39972" lon="7.26808">
        <ele>1073.701</ele>
        <time>2026-03-19T13:44:29Z</time>
      </trkpt>
      <trkpt lat="48.39968" lon="7.26804">
        <ele>1073.701</ele>
        <time>2026-03-19T13:44:34Z</time>
      </trkpt>
      <trkpt lat="48.39965" lon="7.26798">
        <ele>1073.701</ele>
        <time>2026-03-19T13:44:40Z</time>
      </trkpt>
      <trkpt lat="48.39967" lon="7.26805">
        <ele>1073.701</ele>
        <time>2026-03-19T13:46:01Z</time>
      </trkpt>
      <trkpt lat="48.39965" lon="7.26813">
        <ele>1073.701</ele>
        <time>2026-03-19T13:46:05Z</time>
      </trkpt>
      <trkpt lat="48.39963" lon="7.26818">
        <ele>1073.701</ele>
        <time>2026-03-19T13:46:10Z</time>
      </trkpt>
      <trkpt lat="48.39959" lon="7.26824">
        <ele>1073.701</ele>
        <time>2026-03-19T13:46:15Z</time>
      </trkpt>
      <trkpt lat="48.39955" lon="7.26827">
        <ele>1073.701</ele>
        <time>2026-03-19T13:46:20Z</time>
      </trkpt>
      <trkpt lat="48.39951" lon="7.26831">
        <ele>1073.701</ele>
        <time>2026-03-19T13:46:26Z</time>
      </trkpt>
      <trkpt lat="48.39946" lon="7.26834">
        <ele>1073.701</ele>
        <time>2026-03-19T13:46:32Z</time>
      </trkpt>
      <trkpt lat="48.39942" lon="7.26839">
        <ele>1073.701</ele>
        <time>2026-03-19T13:46:39Z</time>
      </trkpt>
      <trkpt lat="48.39938" lon="7.26843">
        <ele>1073.701</ele>
        <time>2026-03-19T13:46:45Z</time>
      </trkpt>
      <trkpt lat="48.39933" lon="7.26848">
        <ele>1073.701</ele>
        <time>2026-03-19T13:46:50Z</time>
      </trkpt>
      <trkpt lat="48.39929" lon="7.26852">
        <ele>1073.701</ele>
        <time>2026-03-19T13:46:55Z</time>
      </trkpt>
      <trkpt lat="48.39925" lon="7.26857">
        <ele>1073.701</ele>
        <time>2026-03-19T13:46:59Z</time>
      </trkpt>
      <trkpt lat="48.39922" lon="7.26861">
        <ele>1073.701</ele>
        <time>2026-03-19T13:47:03Z</time>
      </trkpt>
      <trkpt lat="48.39919" lon="7.26867">
        <ele>1073.701</ele>
        <time>2026-03-19T13:47:08Z</time>
      </trkpt>
      <trkpt lat="48.39915" lon="7.26871">
        <ele>1073.701</ele>
        <time>2026-03-19T13:47:12Z</time>
      </trkpt>
      <trkpt lat="48.39911" lon="7.26877">
        <ele>1073.701</ele>
        <time>2026-03-19T13:47:17Z</time>
      </trkpt>
      <trkpt lat="48.39908" lon="7.26881">
        <ele>1073.701</ele>
        <time>2026-03-19T13:47:21Z</time>
      </trkpt>
      <trkpt lat="48.39903" lon="7.26887">
        <ele>1073.701</ele>
        <time>2026-03-19T13:47:26Z</time>
      </trkpt>
      <trkpt lat="48.399" lon="7.26892">
        <ele>1073.701</ele>
        <time>2026-03-19T13:47:31Z</time>
      </trkpt>
      <trkpt lat="48.39896" lon="7.26897">
        <ele>1073.701</ele>
        <time>2026-03-19T13:47:35Z</time>
      </trkpt>
      <trkpt lat="48.39893" lon="7.26902">
        <ele>1073.701</ele>
        <time>2026-03-19T13:47:40Z</time>
      </trkpt>
      <trkpt lat="48.39889" lon="7.26907">
        <ele>1073.701</ele>
        <time>2026-03-19T13:47:45Z</time>
      </trkpt>
      <trkpt lat="48.39886" lon="7.26911">
        <ele>1073.701</ele>
        <time>2026-03-19T13:47:49Z</time>
      </trkpt>
      <trkpt lat="48.39882" lon="7.26916">
        <ele>1073.701</ele>
        <time>2026-03-19T13:47:54Z</time>
      </trkpt>
      <trkpt lat="48.39879" lon="7.26922">
        <ele>1073.701</ele>
        <time>2026-03-19T13:47:59Z</time>
      </trkpt>
      <trkpt lat="48.39875" lon="7.26927">
        <ele>1073.701</ele>
        <time>2026-03-19T13:48:03Z</time>
      </trkpt>
      <trkpt lat="48.39871" lon="7.26931">
        <ele>1073.701</ele>
        <time>2026-03-19T13:48:08Z</time>
      </trkpt>
      <trkpt lat="48.39868" lon="7.26937">
        <ele>1073.701</ele>
        <time>2026-03-19T13:48:13Z</time>
      </trkpt>
      <trkpt lat="48.39864" lon="7.26943">
        <ele>1073.701</ele>
        <time>2026-03-19T13:48:18Z</time>
      </trkpt>
      <trkpt lat="48.39861" lon="7.26949">
        <ele>1071.6316</ele>
        <time>2026-03-19T13:48:23Z</time>
      </trkpt>
      <trkpt lat="48.39858" lon="7.26955">
        <ele>1069.5621</ele>
        <time>2026-03-19T13:48:28Z</time>
      </trkpt>
      <trkpt lat="48.39855" lon="7.26961">
        <ele>1067.4926</ele>
        <time>2026-03-19T13:48:33Z</time>
      </trkpt>
      <trkpt lat="48.39851" lon="7.26966">
        <ele>1065.4231</ele>
        <time>2026-03-19T13:48:39Z</time>
      </trkpt>
      <trkpt lat="48.39848" lon="7.26973">
        <ele>1063.3536</ele>
        <time>2026-03-19T13:48:45Z</time>
      </trkpt>
      <trkpt lat="48.39846" lon="7.26979">
        <ele>1063.3536</ele>
        <time>2026-03-19T13:48:50Z</time>
      </trkpt>
      <trkpt lat="48.39844" lon="7.26986">
        <ele>1063.3536</ele>
        <time>2026-03-19T13:48:55Z</time>
      </trkpt>
      <trkpt lat="48.39842" lon="7.26992">
        <ele>1063.3536</ele>
        <time>2026-03-19T13:49:00Z</time>
      </trkpt>
      <trkpt lat="48.39839" lon="7.27">
        <ele>1063.3536</ele>
        <time>2026-03-19T13:49:06Z</time>
      </trkpt>
      <trkpt lat="48.39837" lon="7.27007">
        <ele>1063.3536</ele>
        <time>2026-03-19T13:49:11Z</time>
      </trkpt>
      <trkpt lat="48.39834" lon="7.27013">
        <ele>1063.3536</ele>
        <time>2026-03-19T13:49:16Z</time>
      </trkpt>
      <trkpt lat="48.39832" lon="7.27019">
        <ele>1063.3536</ele>
        <time>2026-03-19T13:49:21Z</time>
      </trkpt>
      <trkpt lat="48.39829" lon="7.27026">
        <ele>1063.3536</ele>
        <time>2026-03-19T13:49:26Z</time>
      </trkpt>
      <trkpt lat="48.39827" lon="7.27032">
        <ele>1063.3536</ele>
        <time>2026-03-19T13:49:31Z</time>
      </trkpt>
      <trkpt lat="48.39824" lon="7.2704">
        <ele>1063.3536</ele>
        <time>2026-03-19T13:49:36Z</time>
      </trkpt>
      <trkpt lat="48.39822" lon="7.27047">
        <ele>1063.3536</ele>
        <time>2026-03-19T13:49:41Z</time>
      </trkpt>
      <trkpt lat="48.39819" lon="7.27054">
        <ele>1063.3536</ele>
        <time>2026-03-19T13:49:46Z</time>
      </trkpt>
      <trkpt lat="48.39817" lon="7.2706">
        <ele>1063.3536</ele>
        <time>2026-03-19T13:49:51Z</time>
      </trkpt>
      <trkpt lat="48.39815" lon="7.27067">
        <ele>1063.3536</ele>
        <time>2026-03-19T13:49:56Z</time>
      </trkpt>
      <trkpt lat="48.39813" lon="7.27074">
        <ele>1063.3536</ele>
        <time>2026-03-19T13:50:01Z</time>
      </trkpt>
      <trkpt lat="48.3981" lon="7.2708">
        <ele>1063.3536</ele>
        <time>2026-03-19T13:50:07Z</time>
      </trkpt>
      <trkpt lat="48.39808" lon="7.27089">
        <ele>1063.3536</ele>
        <time>2026-03-19T13:50:12Z</time>
      </trkpt>
      <trkpt lat="48.39806" lon="7.27095">
        <ele>1063.3536</ele>
        <time>2026-03-19T13:50:17Z</time>
      </trkpt>
      <trkpt lat="48.39804" lon="7.27102">
        <ele>1063.3536</ele>
        <time>2026-03-19T13:50:22Z</time>
      </trkpt>
      <trkpt lat="48.39802" lon="7.27108">
        <ele>1063.3536</ele>
        <time>2026-03-19T13:50:27Z</time>
      </trkpt>
      <trkpt lat="48.398" lon="7.27115">
        <ele>1063.3536</ele>
        <time>2026-03-19T13:50:32Z</time>
      </trkpt>
      <trkpt lat="48.39798" lon="7.27121">
        <ele>1063.3536</ele>
        <time>2026-03-19T13:50:37Z</time>
      </trkpt>
      <trkpt lat="48.39796" lon="7.27128">
        <ele>1063.3536</ele>
        <time>2026-03-19T13:50:42Z</time>
      </trkpt>
      <trkpt lat="48.39795" lon="7.27135">
        <ele>1061.3253</ele>
        <time>2026-03-19T13:50:47Z</time>
      </trkpt>
      <trkpt lat="48.39792" lon="7.27142">
        <ele>1059.2971</ele>
        <time>2026-03-19T13:50:53Z</time>
      </trkpt>
      <trkpt lat="48.3979" lon="7.2715">
        <ele>1057.2688</ele>
        <time>2026-03-19T13:50:59Z</time>
      </trkpt>
      <trkpt lat="48.39788" lon="7.27157">
        <ele>1055.2406</ele>
        <time>2026-03-19T13:51:05Z</time>
      </trkpt>
      <trkpt lat="48.39786" lon="7.27163">
        <ele>1053.2123</ele>
        <time>2026-03-19T13:51:10Z</time>
      </trkpt>
      <trkpt lat="48.39784" lon="7.2717">
        <ele>1053.2123</ele>
        <time>2026-03-19T13:51:15Z</time>
      </trkpt>
      <trkpt lat="48.39783" lon="7.27177">
        <ele>1053.2123</ele>
        <time>2026-03-19T13:51:22Z</time>
      </trkpt>
      <trkpt lat="48.39781" lon="7.27184">
        <ele>1053.2123</ele>
        <time>2026-03-19T13:51:34Z</time>
      </trkpt>
      <trkpt lat="48.39779" lon="7.2719">
        <ele>1053.2123</ele>
        <time>2026-03-19T13:51:39Z</time>
      </trkpt>
      <trkpt lat="48.39777" lon="7.27197">
        <ele>1053.2123</ele>
        <time>2026-03-19T13:51:45Z</time>
      </trkpt>
      <trkpt lat="48.39774" lon="7.27203">
        <ele>1053.2123</ele>
        <time>2026-03-19T13:51:51Z</time>
      </trkpt>
      <trkpt lat="48.39771" lon="7.2721">
        <ele>1053.2123</ele>
        <time>2026-03-19T13:51:57Z</time>
      </trkpt>
      <trkpt lat="48.39769" lon="7.27216">
        <ele>1053.2123</ele>
        <time>2026-03-19T13:52:03Z</time>
      </trkpt>
      <trkpt lat="48.39765" lon="7.27222">
        <ele>1053.2123</ele>
        <time>2026-03-19T13:52:08Z</time>
      </trkpt>
      <trkpt lat="48.39762" lon="7.27227">
        <ele>1053.2123</ele>
        <time>2026-03-19T13:52:13Z</time>
      </trkpt>
      <trkpt lat="48.39758" lon="7.27233">
        <ele>1053.2123</ele>
        <time>2026-03-19T13:52:18Z</time>
      </trkpt>
      <trkpt lat="48.39755" lon="7.27238">
        <ele>1053.2123</ele>
        <time>2026-03-19T13:52:23Z</time>
      </trkpt>
      <trkpt lat="48.39751" lon="7.27244">
        <ele>1053.2123</ele>
        <time>2026-03-19T13:52:29Z</time>
      </trkpt>
      <trkpt lat="48.39748" lon="7.27248">
        <ele>1053.2123</ele>
        <time>2026-03-19T13:52:34Z</time>
      </trkpt>
      <trkpt lat="48.39745" lon="7.27254">
        <ele>1053.2123</ele>
        <time>2026-03-19T13:52:38Z</time>
      </trkpt>
      <trkpt lat="48.39742" lon="7.2726">
        <ele>1053.2123</ele>
        <time>2026-03-19T13:52:44Z</time>
      </trkpt>
      <trkpt lat="48.39739" lon="7.27266">
        <ele>1053.2123</ele>
        <time>2026-03-19T13:52:50Z</time>
      </trkpt>
      <trkpt lat="48.39737" lon="7.27273">
        <ele>1053.2123</ele>
        <time>2026-03-19T13:52:57Z</time>
      </trkpt>
      <trkpt lat="48.39734" lon="7.27279">
        <ele>1053.2123</ele>
        <time>2026-03-19T13:53:03Z</time>
      </trkpt>
      <trkpt lat="48.39731" lon="7.27286">
        <ele>1053.2123</ele>
        <time>2026-03-19T13:53:09Z</time>
      </trkpt>
      <trkpt lat="48.39732" lon="7.27293">
        <ele>1053.2123</ele>
        <time>2026-03-19T13:53:12Z</time>
      </trkpt>
      <trkpt lat="48.39728" lon="7.273">
        <ele>1053.2123</ele>
        <time>2026-03-19T13:53:18Z</time>
      </trkpt>
      <trkpt lat="48.39726" lon="7.27305">
        <ele>1053.2123</ele>
        <time>2026-03-19T13:53:23Z</time>
      </trkpt>
      <trkpt lat="48.39722" lon="7.27311">
        <ele>1053.2123</ele>
        <time>2026-03-19T13:53:29Z</time>
      </trkpt>
      <trkpt lat="48.39719" lon="7.27317">
        <ele>1053.2123</ele>
        <time>2026-03-19T13:53:33Z</time>
      </trkpt>
      <trkpt lat="48.39716" lon="7.27323">
        <ele>1053.2123</ele>
        <time>2026-03-19T13:53:38Z</time>
      </trkpt>
      <trkpt lat="48.39713" lon="7.2733">
        <ele>1053.2123</ele>
        <time>2026-03-19T13:53:43Z</time>
      </trkpt>
      <trkpt lat="48.3971" lon="7.27336">
        <ele>1053.2123</ele>
        <time>2026-03-19T13:53:48Z</time>
      </trkpt>
      <trkpt lat="48.39708" lon="7.27342">
        <ele>1053.2123</ele>
        <time>2026-03-19T13:53:52Z</time>
      </trkpt>
      <trkpt lat="48.39705" lon="7.27349">
        <ele>1053.2123</ele>
        <time>2026-03-19T13:53:57Z</time>
      </trkpt>
      <trkpt lat="48.39702" lon="7.27355">
        <ele>1051.1454</ele>
        <time>2026-03-19T13:54:02Z</time>
      </trkpt>
      <trkpt lat="48.39699" lon="7.27362">
        <ele>1049.0786</ele>
        <time>2026-03-19T13:54:07Z</time>
      </trkpt>
      <trkpt lat="48.39697" lon="7.27368">
        <ele>1047.0117</ele>
        <time>2026-03-19T13:54:12Z</time>
      </trkpt>
      <trkpt lat="48.39694" lon="7.27374">
        <ele>1044.945</ele>
        <time>2026-03-19T13:54:16Z</time>
      </trkpt>
      <trkpt lat="48.39691" lon="7.27379">
        <ele>1042.878</ele>
        <time>2026-03-19T13:54:20Z</time>
      </trkpt>
      <trkpt lat="48.39689" lon="7.27385">
        <ele>1042.878</ele>
        <time>2026-03-19T13:54:24Z</time>
      </trkpt>
      <trkpt lat="48.39685" lon="7.27392">
        <ele>1042.878</ele>
        <time>2026-03-19T13:54:29Z</time>
      </trkpt>
      <trkpt lat="48.39683" lon="7.27398">
        <ele>1042.878</ele>
        <time>2026-03-19T13:54:34Z</time>
      </trkpt>
      <trkpt lat="48.39682" lon="7.27405">
        <ele>1042.878</ele>
        <time>2026-03-19T13:54:39Z</time>
      </trkpt>
      <trkpt lat="48.39679" lon="7.27411">
        <ele>1042.878</ele>
        <time>2026-03-19T13:54:43Z</time>
      </trkpt>
      <trkpt lat="48.39677" lon="7.27417">
        <ele>1042.878</ele>
        <time>2026-03-19T13:54:48Z</time>
      </trkpt>
      <trkpt lat="48.39673" lon="7.27423">
        <ele>1042.878</ele>
        <time>2026-03-19T13:54:53Z</time>
      </trkpt>
      <trkpt lat="48.39672" lon="7.27429">
        <ele>1042.878</ele>
        <time>2026-03-19T13:54:58Z</time>
      </trkpt>
      <trkpt lat="48.3967" lon="7.27436">
        <ele>1042.878</ele>
        <time>2026-03-19T13:55:03Z</time>
      </trkpt>
      <trkpt lat="48.39668" lon="7.27443">
        <ele>1042.878</ele>
        <time>2026-03-19T13:55:08Z</time>
      </trkpt>
      <trkpt lat="48.39665" lon="7.2745">
        <ele>1042.878</ele>
        <time>2026-03-19T13:55:12Z</time>
      </trkpt>
      <trkpt lat="48.39662" lon="7.27457">
        <ele>1042.878</ele>
        <time>2026-03-19T13:55:18Z</time>
      </trkpt>
      <trkpt lat="48.39659" lon="7.27465">
        <ele>1042.878</ele>
        <time>2026-03-19T13:55:23Z</time>
      </trkpt>
      <trkpt lat="48.39656" lon="7.27471">
        <ele>1042.878</ele>
        <time>2026-03-19T13:55:29Z</time>
      </trkpt>
      <trkpt lat="48.39653" lon="7.27479">
        <ele>1042.878</ele>
        <time>2026-03-19T13:55:35Z</time>
      </trkpt>
      <trkpt lat="48.39651" lon="7.27485">
        <ele>1042.878</ele>
        <time>2026-03-19T13:55:39Z</time>
      </trkpt>
      <trkpt lat="48.39648" lon="7.2749">
        <ele>1042.878</ele>
        <time>2026-03-19T13:55:43Z</time>
      </trkpt>
      <trkpt lat="48.39645" lon="7.27498">
        <ele>1042.878</ele>
        <time>2026-03-19T13:55:48Z</time>
      </trkpt>
      <trkpt lat="48.39643" lon="7.27505">
        <ele>1042.878</ele>
        <time>2026-03-19T13:55:53Z</time>
      </trkpt>
      <trkpt lat="48.39641" lon="7.27511">
        <ele>1042.878</ele>
        <time>2026-03-19T13:55:57Z</time>
      </trkpt>
      <trkpt lat="48.39639" lon="7.27518">
        <ele>1042.878</ele>
        <time>2026-03-19T13:56:02Z</time>
      </trkpt>
      <trkpt lat="48.39636" lon="7.27526">
        <ele>1042.878</ele>
        <time>2026-03-19T13:56:07Z</time>
      </trkpt>
      <trkpt lat="48.39634" lon="7.27533">
        <ele>1042.878</ele>
        <time>2026-03-19T13:56:12Z</time>
      </trkpt>
      <trkpt lat="48.39631" lon="7.27539">
        <ele>1042.878</ele>
        <time>2026-03-19T13:56:17Z</time>
      </trkpt>
      <trkpt lat="48.3963" lon="7.27546">
        <ele>1042.878</ele>
        <time>2026-03-19T13:56:22Z</time>
      </trkpt>
      <trkpt lat="48.39628" lon="7.27553">
        <ele>1042.878</ele>
        <time>2026-03-19T13:56:26Z</time>
      </trkpt>
      <trkpt lat="48.39626" lon="7.2756">
        <ele>1042.878</ele>
        <time>2026-03-19T13:56:31Z</time>
      </trkpt>
      <trkpt lat="48.39623" lon="7.27567">
        <ele>1042.878</ele>
        <time>2026-03-19T13:56:36Z</time>
      </trkpt>
      <trkpt lat="48.39621" lon="7.27573">
        <ele>1042.878</ele>
        <time>2026-03-19T13:56:41Z</time>
      </trkpt>
      <trkpt lat="48.39619" lon="7.2758">
        <ele>1042.878</ele>
        <time>2026-03-19T13:56:45Z</time>
      </trkpt>
      <trkpt lat="48.39617" lon="7.27587">
        <ele>1042.878</ele>
        <time>2026-03-19T13:56:50Z</time>
      </trkpt>
      <trkpt lat="48.39615" lon="7.27593">
        <ele>1042.878</ele>
        <time>2026-03-19T13:56:54Z</time>
      </trkpt>
      <trkpt lat="48.39612" lon="7.276">
        <ele>1042.878</ele>
        <time>2026-03-19T13:56:59Z</time>
      </trkpt>
      <trkpt lat="48.3961" lon="7.27607">
        <ele>1042.878</ele>
        <time>2026-03-19T13:57:04Z</time>
      </trkpt>
      <trkpt lat="48.39608" lon="7.27613">
        <ele>1042.878</ele>
        <time>2026-03-19T13:57:08Z</time>
      </trkpt>
      <trkpt lat="48.39605" lon="7.2762">
        <ele>1042.878</ele>
        <time>2026-03-19T13:57:13Z</time>
      </trkpt>
      <trkpt lat="48.39603" lon="7.27626">
        <ele>1042.878</ele>
        <time>2026-03-19T13:57:19Z</time>
      </trkpt>
      <trkpt lat="48.39602" lon="7.27633">
        <ele>1042.878</ele>
        <time>2026-03-19T13:57:25Z</time>
      </trkpt>
      <trkpt lat="48.396" lon="7.2764">
        <ele>1042.878</ele>
        <time>2026-03-19T13:57:30Z</time>
      </trkpt>
      <trkpt lat="48.39598" lon="7.27646">
        <ele>1042.878</ele>
        <time>2026-03-19T13:57:35Z</time>
      </trkpt>
      <trkpt lat="48.39596" lon="7.27653">
        <ele>1042.878</ele>
        <time>2026-03-19T13:57:40Z</time>
      </trkpt>
      <trkpt lat="48.39594" lon="7.2766">
        <ele>1042.878</ele>
        <time>2026-03-19T13:57:45Z</time>
      </trkpt>
      <trkpt lat="48.39593" lon="7.27667">
        <ele>1042.878</ele>
        <time>2026-03-19T13:57:50Z</time>
      </trkpt>
      <trkpt lat="48.39591" lon="7.27675">
        <ele>1042.878</ele>
        <time>2026-03-19T13:57:55Z</time>
      </trkpt>
      <trkpt lat="48.39589" lon="7.27681">
        <ele>1042.878</ele>
        <time>2026-03-19T13:57:59Z</time>
      </trkpt>
      <trkpt lat="48.39587" lon="7.27689">
        <ele>1040.7478</ele>
        <time>2026-03-19T13:58:04Z</time>
      </trkpt>
      <trkpt lat="48.39586" lon="7.27695">
        <ele>1038.6176</ele>
        <time>2026-03-19T13:58:09Z</time>
      </trkpt>
      <trkpt lat="48.39584" lon="7.27702">
        <ele>1036.4873</ele>
        <time>2026-03-19T13:58:14Z</time>
      </trkpt>
      <trkpt lat="48.39582" lon="7.27709">
        <ele>1034.357</ele>
        <time>2026-03-19T13:58:18Z</time>
      </trkpt>
      <trkpt lat="48.3958" lon="7.27716">
        <ele>1032.2268</ele>
        <time>2026-03-19T13:58:23Z</time>
      </trkpt>
      <trkpt lat="48.39578" lon="7.27723">
        <ele>1032.2268</ele>
        <time>2026-03-19T13:58:28Z</time>
      </trkpt>
      <trkpt lat="48.39577" lon="7.2773">
        <ele>1032.2268</ele>
        <time>2026-03-19T13:58:32Z</time>
      </trkpt>
      <trkpt lat="48.39575" lon="7.27738">
        <ele>1032.2268</ele>
        <time>2026-03-19T13:58:40Z</time>
      </trkpt>
      <trkpt lat="48.39573" lon="7.27744">
        <ele>1032.2268</ele>
        <time>2026-03-19T13:58:44Z</time>
      </trkpt>
      <trkpt lat="48.39572" lon="7.27751">
        <ele>1032.2268</ele>
        <time>2026-03-19T13:58:50Z</time>
      </trkpt>
      <trkpt lat="48.3957" lon="7.27758">
        <ele>1032.2268</ele>
        <time>2026-03-19T13:58:54Z</time>
      </trkpt>
      <trkpt lat="48.39569" lon="7.27765">
        <ele>1032.2268</ele>
        <time>2026-03-19T13:58:59Z</time>
      </trkpt>
      <trkpt lat="48.39567" lon="7.27773">
        <ele>1032.2268</ele>
        <time>2026-03-19T13:59:04Z</time>
      </trkpt>
      <trkpt lat="48.39565" lon="7.27781">
        <ele>1032.2268</ele>
        <time>2026-03-19T13:59:09Z</time>
      </trkpt>
      <trkpt lat="48.3956" lon="7.27786">
        <ele>1032.2268</ele>
        <time>2026-03-19T13:59:15Z</time>
      </trkpt>
      <trkpt lat="48.39557" lon="7.27793">
        <ele>1032.2268</ele>
        <time>2026-03-19T13:59:20Z</time>
      </trkpt>
      <trkpt lat="48.39554" lon="7.27799">
        <ele>1032.2268</ele>
        <time>2026-03-19T13:59:25Z</time>
      </trkpt>
      <trkpt lat="48.39552" lon="7.27808">
        <ele>1032.2268</ele>
        <time>2026-03-19T13:59:31Z</time>
      </trkpt>
      <trkpt lat="48.39552" lon="7.27815">
        <ele>1032.2268</ele>
        <time>2026-03-19T13:59:37Z</time>
      </trkpt>
      <trkpt lat="48.3955" lon="7.27823">
        <ele>1032.2268</ele>
        <time>2026-03-19T13:59:43Z</time>
      </trkpt>
      <trkpt lat="48.39549" lon="7.2783">
        <ele>1032.2268</ele>
        <time>2026-03-19T13:59:49Z</time>
      </trkpt>
      <trkpt lat="48.39547" lon="7.27836">
        <ele>1032.2268</ele>
        <time>2026-03-19T13:59:54Z</time>
      </trkpt>
      <trkpt lat="48.39545" lon="7.27843">
        <ele>1030.0455</ele>
        <time>2026-03-19T13:59:59Z</time>
      </trkpt>
      <trkpt lat="48.39546" lon="7.2785">
        <ele>1027.8644</ele>
        <time>2026-03-19T14:00:05Z</time>
      </trkpt>
      <trkpt lat="48.39544" lon="7.27857">
        <ele>1025.6831</ele>
        <time>2026-03-19T14:00:11Z</time>
      </trkpt>
      <trkpt lat="48.39542" lon="7.27863">
        <ele>1023.50183</ele>
        <time>2026-03-19T14:00:17Z</time>
      </trkpt>
      <trkpt lat="48.39541" lon="7.27871">
        <ele>1021.3206</ele>
        <time>2026-03-19T14:00:25Z</time>
      </trkpt>
      <trkpt lat="48.39538" lon="7.27878">
        <ele>1021.3206</ele>
        <time>2026-03-19T14:00:31Z</time>
      </trkpt>
      <trkpt lat="48.39536" lon="7.27885">
        <ele>1021.3206</ele>
        <time>2026-03-19T14:00:38Z</time>
      </trkpt>
      <trkpt lat="48.39535" lon="7.27891">
        <ele>1021.3206</ele>
        <time>2026-03-19T14:00:45Z</time>
      </trkpt>
      <trkpt lat="48.39533" lon="7.27898">
        <ele>1021.3206</ele>
        <time>2026-03-19T14:00:50Z</time>
      </trkpt>
      <trkpt lat="48.39531" lon="7.27905">
        <ele>1021.3206</ele>
        <time>2026-03-19T14:00:55Z</time>
      </trkpt>
      <trkpt lat="48.39529" lon="7.27912">
        <ele>1021.3206</ele>
        <time>2026-03-19T14:01:00Z</time>
      </trkpt>
      <trkpt lat="48.39526" lon="7.27918">
        <ele>1019.2108</ele>
        <time>2026-03-19T14:01:05Z</time>
      </trkpt>
      <trkpt lat="48.39523" lon="7.27925">
        <ele>1017.101</ele>
        <time>2026-03-19T14:01:10Z</time>
      </trkpt>
      <trkpt lat="48.39521" lon="7.27931">
        <ele>1014.99115</ele>
        <time>2026-03-19T14:01:14Z</time>
      </trkpt>
      <trkpt lat="48.39518" lon="7.27938">
        <ele>1012.88135</ele>
        <time>2026-03-19T14:01:19Z</time>
      </trkpt>
      <trkpt lat="48.39516" lon="7.27944">
        <ele>1010.77155</ele>
        <time>2026-03-19T14:01:24Z</time>
      </trkpt>
      <trkpt lat="48.39513" lon="7.2795">
        <ele>1010.77155</ele>
        <time>2026-03-19T14:01:29Z</time>
      </trkpt>
      <trkpt lat="48.39511" lon="7.27957">
        <ele>1010.77155</ele>
        <time>2026-03-19T14:01:34Z</time>
      </trkpt>
      <trkpt lat="48.39509" lon="7.27963">
        <ele>1010.77155</ele>
        <time>2026-03-19T14:01:39Z</time>
      </trkpt>
      <trkpt lat="48.39507" lon="7.27969">
        <ele>1010.77155</ele>
        <time>2026-03-19T14:01:43Z</time>
      </trkpt>
      <trkpt lat="48.39503" lon="7.27974">
        <ele>1010.77155</ele>
        <time>2026-03-19T14:01:48Z</time>
      </trkpt>
      <trkpt lat="48.395" lon="7.27981">
        <ele>1010.77155</ele>
        <time>2026-03-19T14:01:54Z</time>
      </trkpt>
      <trkpt lat="48.39497" lon="7.27987">
        <ele>1010.77155</ele>
        <time>2026-03-19T14:02:00Z</time>
      </trkpt>
      <trkpt lat="48.39492" lon="7.2799">
        <ele>1010.77155</ele>
        <time>2026-03-19T14:02:06Z</time>
      </trkpt>
      <trkpt lat="48.39494" lon="7.27983">
        <ele>1010.77155</ele>
        <time>2026-03-19T14:02:57Z</time>
      </trkpt>
      <trkpt lat="48.39488" lon="7.27986">
        <ele>1010.77155</ele>
        <time>2026-03-19T14:04:44Z</time>
      </trkpt>
      <trkpt lat="48.39491" lon="7.27979">
        <ele>1010.77155</ele>
        <time>2026-03-19T14:05:16Z</time>
      </trkpt>
      <trkpt lat="48.39487" lon="7.27973">
        <ele>1010.77155</ele>
        <time>2026-03-19T14:05:21Z</time>
      </trkpt>
      <trkpt lat="48.39483" lon="7.27969">
        <ele>1010.77155</ele>
        <time>2026-03-19T14:05:26Z</time>
      </trkpt>
      <trkpt lat="48.39479" lon="7.27963">
        <ele>1010.77155</ele>
        <time>2026-03-19T14:05:31Z</time>
      </trkpt>
      <trkpt lat="48.39475" lon="7.27957">
        <ele>1010.77155</ele>
        <time>2026-03-19T14:05:37Z</time>
      </trkpt>
      <trkpt lat="48.39474" lon="7.27949">
        <ele>1010.77155</ele>
        <time>2026-03-19T14:05:44Z</time>
      </trkpt>
      <trkpt lat="48.39471" lon="7.27943">
        <ele>1010.77155</ele>
        <time>2026-03-19T14:05:51Z</time>
      </trkpt>
      <trkpt lat="48.39467" lon="7.27938">
        <ele>1010.77155</ele>
        <time>2026-03-19T14:05:54Z</time>
      </trkpt>
      <trkpt lat="48.39466" lon="7.27932">
        <ele>1010.77155</ele>
        <time>2026-03-19T14:05:59Z</time>
      </trkpt>
      <trkpt lat="48.39463" lon="7.27924">
        <ele>1010.77155</ele>
        <time>2026-03-19T14:06:05Z</time>
      </trkpt>
      <trkpt lat="48.39461" lon="7.27918">
        <ele>1010.77155</ele>
        <time>2026-03-19T14:06:10Z</time>
      </trkpt>
      <trkpt lat="48.39458" lon="7.27911">
        <ele>1010.77155</ele>
        <time>2026-03-19T14:06:14Z</time>
      </trkpt>
      <trkpt lat="48.39455" lon="7.27905">
        <ele>1010.77155</ele>
        <time>2026-03-19T14:06:20Z</time>
      </trkpt>
      <trkpt lat="48.39454" lon="7.27899">
        <ele>1010.77155</ele>
        <time>2026-03-19T14:06:24Z</time>
      </trkpt>
      <trkpt lat="48.39451" lon="7.27892">
        <ele>1010.77155</ele>
        <time>2026-03-19T14:06:29Z</time>
      </trkpt>
      <trkpt lat="48.39449" lon="7.27885">
        <ele>1010.77155</ele>
        <time>2026-03-19T14:06:33Z</time>
      </trkpt>
      <trkpt lat="48.39444" lon="7.2788">
        <ele>1010.77155</ele>
        <time>2026-03-19T14:06:41Z</time>
      </trkpt>
      <trkpt lat="48.39441" lon="7.27873">
        <ele>1010.77155</ele>
        <time>2026-03-19T14:06:45Z</time>
      </trkpt>
      <trkpt lat="48.39438" lon="7.27867">
        <ele>1010.77155</ele>
        <time>2026-03-19T14:06:49Z</time>
      </trkpt>
      <trkpt lat="48.39436" lon="7.2786">
        <ele>1010.77155</ele>
        <time>2026-03-19T14:06:54Z</time>
      </trkpt>
      <trkpt lat="48.39434" lon="7.27853">
        <ele>1010.77155</ele>
        <time>2026-03-19T14:06:58Z</time>
      </trkpt>
      <trkpt lat="48.39431" lon="7.27848">
        <ele>1010.77155</ele>
        <time>2026-03-19T14:07:02Z</time>
      </trkpt>
      <trkpt lat="48.39427" lon="7.27842">
        <ele>1010.77155</ele>
        <time>2026-03-19T14:07:08Z</time>
      </trkpt>
      <trkpt lat="48.39425" lon="7.27837">
        <ele>1010.77155</ele>
        <time>2026-03-19T14:07:13Z</time>
      </trkpt>
      <trkpt lat="48.39422" lon="7.27831">
        <ele>1010.77155</ele>
        <time>2026-03-19T14:07:18Z</time>
      </trkpt>
      <trkpt lat="48.39418" lon="7.27826">
        <ele>1010.77155</ele>
        <time>2026-03-19T14:07:24Z</time>
      </trkpt>
      <trkpt lat="48.39415" lon="7.2782">
        <ele>1010.77155</ele>
        <time>2026-03-19T14:07:28Z</time>
      </trkpt>
      <trkpt lat="48.39415" lon="7.27812">
        <ele>1010.77155</ele>
        <time>2026-03-19T14:07:35Z</time>
      </trkpt>
      <trkpt lat="48.39411" lon="7.27806">
        <ele>1010.77155</ele>
        <time>2026-03-19T14:07:39Z</time>
      </trkpt>
      <trkpt lat="48.39405" lon="7.27804">
        <ele>1010.77155</ele>
        <time>2026-03-19T14:07:43Z</time>
      </trkpt>
      <trkpt lat="48.39401" lon="7.27799">
        <ele>1010.77155</ele>
        <time>2026-03-19T14:07:47Z</time>
      </trkpt>
      <trkpt lat="48.394" lon="7.27793">
        <ele>1010.77155</ele>
        <time>2026-03-19T14:07:52Z</time>
      </trkpt>
      <trkpt lat="48.39398" lon="7.27786">
        <ele>1010.77155</ele>
        <time>2026-03-19T14:08:32Z</time>
      </trkpt>
      <trkpt lat="48.39394" lon="7.27779">
        <ele>1010.77155</ele>
        <time>2026-03-19T14:08:36Z</time>
      </trkpt>
      <trkpt lat="48.39391" lon="7.27774">
        <ele>1010.77155</ele>
        <time>2026-03-19T14:08:41Z</time>
      </trkpt>
      <trkpt lat="48.39388" lon="7.27769">
        <ele>1010.77155</ele>
        <time>2026-03-19T14:08:45Z</time>
      </trkpt>
      <trkpt lat="48.39385" lon="7.27763">
        <ele>1012.8045</ele>
        <time>2026-03-19T14:08:49Z</time>
      </trkpt>
      <trkpt lat="48.39381" lon="7.2776">
        <ele>1014.83746</ele>
        <time>2026-03-19T14:08:54Z</time>
      </trkpt>
      <trkpt lat="48.39377" lon="7.27754">
        <ele>1016.8704</ele>
        <time>2026-03-19T14:09:00Z</time>
      </trkpt>
      <trkpt lat="48.39373" lon="7.27749">
        <ele>1018.9034</ele>
        <time>2026-03-19T14:09:04Z</time>
      </trkpt>
      <trkpt lat="48.39371" lon="7.27743">
        <ele>1020.93634</ele>
        <time>2026-03-19T14:09:08Z</time>
      </trkpt>
      <trkpt lat="48.39368" lon="7.27736">
        <ele>1020.93634</ele>
        <time>2026-03-19T14:09:13Z</time>
      </trkpt>
      <trkpt lat="48.39364" lon="7.27731">
        <ele>1020.93634</ele>
        <time>2026-03-19T14:09:21Z</time>
      </trkpt>
      <trkpt lat="48.39362" lon="7.27724">
        <ele>1020.93634</ele>
        <time>2026-03-19T14:09:25Z</time>
      </trkpt>
      <trkpt lat="48.39359" lon="7.27719">
        <ele>1020.93634</ele>
        <time>2026-03-19T14:09:31Z</time>
      </trkpt>
      <trkpt lat="48.39356" lon="7.27712">
        <ele>1020.93634</ele>
        <time>2026-03-19T14:09:35Z</time>
      </trkpt>
      <trkpt lat="48.39353" lon="7.27707">
        <ele>1020.93634</ele>
        <time>2026-03-19T14:09:41Z</time>
      </trkpt>
      <trkpt lat="48.39348" lon="7.27704">
        <ele>1020.93634</ele>
        <time>2026-03-19T14:09:44Z</time>
      </trkpt>
      <trkpt lat="48.39345" lon="7.27698">
        <ele>1020.93634</ele>
        <time>2026-03-19T14:09:49Z</time>
      </trkpt>
      <trkpt lat="48.39343" lon="7.27691">
        <ele>1020.93634</ele>
        <time>2026-03-19T14:09:55Z</time>
      </trkpt>
      <trkpt lat="48.39341" lon="7.27685">
        <ele>1020.93634</ele>
        <time>2026-03-19T14:09:57Z</time>
      </trkpt>
      <trkpt lat="48.39337" lon="7.27681">
        <ele>1020.93634</ele>
        <time>2026-03-19T14:10:02Z</time>
      </trkpt>
      <trkpt lat="48.39333" lon="7.27673">
        <ele>1020.93634</ele>
        <time>2026-03-19T14:10:07Z</time>
      </trkpt>
      <trkpt lat="48.39331" lon="7.27665">
        <ele>1020.93634</ele>
        <time>2026-03-19T14:10:12Z</time>
      </trkpt>
      <trkpt lat="48.39326" lon="7.27661">
        <ele>1020.93634</ele>
        <time>2026-03-19T14:10:18Z</time>
      </trkpt>
      <trkpt lat="48.39323" lon="7.2765">
        <ele>1020.93634</ele>
        <time>2026-03-19T14:10:27Z</time>
      </trkpt>
      <trkpt lat="48.39321" lon="7.27643">
        <ele>1020.93634</ele>
        <time>2026-03-19T14:10:33Z</time>
      </trkpt>
      <trkpt lat="48.39317" lon="7.27639">
        <ele>1020.93634</ele>
        <time>2026-03-19T14:10:38Z</time>
      </trkpt>
      <trkpt lat="48.39317" lon="7.27632">
        <ele>1020.93634</ele>
        <time>2026-03-19T14:10:42Z</time>
      </trkpt>
      <trkpt lat="48.39314" lon="7.27624">
        <ele>1020.93634</ele>
        <time>2026-03-19T14:10:48Z</time>
      </trkpt>
      <trkpt lat="48.39311" lon="7.27618">
        <ele>1020.93634</ele>
        <time>2026-03-19T14:10:53Z</time>
      </trkpt>
      <trkpt lat="48.39308" lon="7.27613">
        <ele>1022.97644</ele>
        <time>2026-03-19T14:10:59Z</time>
      </trkpt>
      <trkpt lat="48.39306" lon="7.27606">
        <ele>1025.0166</ele>
        <time>2026-03-19T14:11:04Z</time>
      </trkpt>
      <trkpt lat="48.39303" lon="7.27599">
        <ele>1027.0566</ele>
        <time>2026-03-19T14:11:09Z</time>
      </trkpt>
      <trkpt lat="48.39302" lon="7.27592">
        <ele>1029.0967</ele>
        <time>2026-03-19T14:11:13Z</time>
      </trkpt>
      <trkpt lat="48.393" lon="7.27585">
        <ele>1031.1368</ele>
        <time>2026-03-19T14:11:19Z</time>
      </trkpt>
      <trkpt lat="48.39299" lon="7.27579">
        <ele>1031.1368</ele>
        <time>2026-03-19T14:11:24Z</time>
      </trkpt>
      <trkpt lat="48.39296" lon="7.27573">
        <ele>1031.1368</ele>
        <time>2026-03-19T14:11:29Z</time>
      </trkpt>
      <trkpt lat="48.39293" lon="7.27566">
        <ele>1031.1368</ele>
        <time>2026-03-19T14:11:34Z</time>
      </trkpt>
      <trkpt lat="48.3929" lon="7.2756">
        <ele>1031.1368</ele>
        <time>2026-03-19T14:11:39Z</time>
      </trkpt>
      <trkpt lat="48.39289" lon="7.27552">
        <ele>1031.1368</ele>
        <time>2026-03-19T14:11:44Z</time>
      </trkpt>
      <trkpt lat="48.39286" lon="7.27545">
        <ele>1031.1368</ele>
        <time>2026-03-19T14:11:49Z</time>
      </trkpt>
      <trkpt lat="48.39283" lon="7.27541">
        <ele>1031.1368</ele>
        <time>2026-03-19T14:11:54Z</time>
      </trkpt>
      <trkpt lat="48.39279" lon="7.27538">
        <ele>1031.1368</ele>
        <time>2026-03-19T14:11:58Z</time>
      </trkpt>
      <trkpt lat="48.39276" lon="7.27531">
        <ele>1031.1368</ele>
        <time>2026-03-19T14:12:04Z</time>
      </trkpt>
      <trkpt lat="48.39274" lon="7.27525">
        <ele>1031.1368</ele>
        <time>2026-03-19T14:12:08Z</time>
      </trkpt>
      <trkpt lat="48.39273" lon="7.27518">
        <ele>1031.1368</ele>
        <time>2026-03-19T14:12:13Z</time>
      </trkpt>
      <trkpt lat="48.3927" lon="7.27511">
        <ele>1031.1368</ele>
        <time>2026-03-19T14:12:19Z</time>
      </trkpt>
      <trkpt lat="48.39267" lon="7.27505">
        <ele>1033.1396</ele>
        <time>2026-03-19T14:12:23Z</time>
      </trkpt>
      <trkpt lat="48.39265" lon="7.27499">
        <ele>1035.1426</ele>
        <time>2026-03-19T14:12:28Z</time>
      </trkpt>
      <trkpt lat="48.39262" lon="7.27494">
        <ele>1037.1454</ele>
        <time>2026-03-19T14:12:33Z</time>
      </trkpt>
      <trkpt lat="48.39259" lon="7.27488">
        <ele>1039.1483</ele>
        <time>2026-03-19T14:12:38Z</time>
      </trkpt>
      <trkpt lat="48.39257" lon="7.27482">
        <ele>1041.1511</ele>
        <time>2026-03-19T14:12:43Z</time>
      </trkpt>
      <trkpt lat="48.39254" lon="7.27476">
        <ele>1041.1511</ele>
        <time>2026-03-19T14:12:48Z</time>
      </trkpt>
      <trkpt lat="48.39251" lon="7.2747">
        <ele>1041.1511</ele>
        <time>2026-03-19T14:12:54Z</time>
      </trkpt>
      <trkpt lat="48.39248" lon="7.27464">
        <ele>1041.1511</ele>
        <time>2026-03-19T14:13:00Z</time>
      </trkpt>
      <trkpt lat="48.39246" lon="7.27458">
        <ele>1041.1511</ele>
        <time>2026-03-19T14:13:05Z</time>
      </trkpt>
      <trkpt lat="48.39243" lon="7.27452">
        <ele>1041.1511</ele>
        <time>2026-03-19T14:13:11Z</time>
      </trkpt>
      <trkpt lat="48.39241" lon="7.27447">
        <ele>1041.1511</ele>
        <time>2026-03-19T14:13:23Z</time>
      </trkpt>
      <trkpt lat="48.39245" lon="7.27443">
        <ele>1041.1511</ele>
        <time>2026-03-19T14:13:29Z</time>
      </trkpt>
      <trkpt lat="48.39249" lon="7.27445">
        <ele>1041.1511</ele>
        <time>2026-03-19T14:13:45Z</time>
      </trkpt>
      <trkpt lat="48.39255" lon="7.27444">
        <ele>1041.1511</ele>
        <time>2026-03-19T14:13:52Z</time>
      </trkpt>
      <trkpt lat="48.3926" lon="7.27446">
        <ele>1041.1511</ele>
        <time>2026-03-19T14:14:02Z</time>
      </trkpt>
      <trkpt lat="48.39264" lon="7.27447">
        <ele>1041.1511</ele>
        <time>2026-03-19T14:14:07Z</time>
      </trkpt>
      <trkpt lat="48.39269" lon="7.2745">
        <ele>1041.1511</ele>
        <time>2026-03-19T14:14:13Z</time>
      </trkpt>
      <trkpt lat="48.39274" lon="7.27452">
        <ele>1041.1511</ele>
        <time>2026-03-19T14:14:18Z</time>
      </trkpt>
      <trkpt lat="48.39278" lon="7.27452">
        <ele>1043.6709</ele>
        <time>2026-03-19T14:14:23Z</time>
      </trkpt>
      <trkpt lat="48.39283" lon="7.27454">
        <ele>1046.1908</ele>
        <time>2026-03-19T14:14:29Z</time>
      </trkpt>
      <trkpt lat="48.39288" lon="7.27457">
        <ele>1048.7106</ele>
        <time>2026-03-19T14:14:35Z</time>
      </trkpt>
      <trkpt lat="48.39293" lon="7.27459">
        <ele>1051.2305</ele>
        <time>2026-03-19T14:14:40Z</time>
      </trkpt>
      <trkpt lat="48.39298" lon="7.27461">
        <ele>1053.7502</ele>
        <time>2026-03-19T14:14:46Z</time>
      </trkpt>
      <trkpt lat="48.39303" lon="7.27464">
        <ele>1053.7502</ele>
        <time>2026-03-19T14:14:52Z</time>
      </trkpt>
      <trkpt lat="48.39308" lon="7.27465">
        <ele>1053.7502</ele>
        <time>2026-03-19T14:14:59Z</time>
      </trkpt>
      <trkpt lat="48.39313" lon="7.27466">
        <ele>1053.7502</ele>
        <time>2026-03-19T14:15:04Z</time>
      </trkpt>
      <trkpt lat="48.39318" lon="7.27468">
        <ele>1053.7502</ele>
        <time>2026-03-19T14:15:09Z</time>
      </trkpt>
      <trkpt lat="48.39323" lon="7.2747">
        <ele>1053.7502</ele>
        <time>2026-03-19T14:15:15Z</time>
      </trkpt>
      <trkpt lat="48.39328" lon="7.27474">
        <ele>1053.7502</ele>
        <time>2026-03-19T14:15:21Z</time>
      </trkpt>
      <trkpt lat="48.39333" lon="7.27475">
        <ele>1053.7502</ele>
        <time>2026-03-19T14:15:25Z</time>
      </trkpt>
      <trkpt lat="48.39338" lon="7.27477">
        <ele>1053.7502</ele>
        <time>2026-03-19T14:15:31Z</time>
      </trkpt>
      <trkpt lat="48.39342" lon="7.27478">
        <ele>1053.7502</ele>
        <time>2026-03-19T14:15:37Z</time>
      </trkpt>
      <trkpt lat="48.39347" lon="7.27482">
        <ele>1053.7502</ele>
        <time>2026-03-19T14:15:44Z</time>
      </trkpt>
      <trkpt lat="48.39351" lon="7.27484">
        <ele>1053.7502</ele>
        <time>2026-03-19T14:15:50Z</time>
      </trkpt>
      <trkpt lat="48.39356" lon="7.27488">
        <ele>1053.7502</ele>
        <time>2026-03-19T14:15:58Z</time>
      </trkpt>
      <trkpt lat="48.39361" lon="7.2749">
        <ele>1053.7502</ele>
        <time>2026-03-19T14:16:04Z</time>
      </trkpt>
      <trkpt lat="48.39366" lon="7.27493">
        <ele>1053.7502</ele>
        <time>2026-03-19T14:16:10Z</time>
      </trkpt>
      <trkpt lat="48.3937" lon="7.27497">
        <ele>1053.7502</ele>
        <time>2026-03-19T14:16:16Z</time>
      </trkpt>
      <trkpt lat="48.39375" lon="7.27499">
        <ele>1053.7502</ele>
        <time>2026-03-19T14:16:22Z</time>
      </trkpt>
      <trkpt lat="48.39379" lon="7.27501">
        <ele>1053.7502</ele>
        <time>2026-03-19T14:16:26Z</time>
      </trkpt>
      <trkpt lat="48.39383" lon="7.27503">
        <ele>1055.7975</ele>
        <time>2026-03-19T14:16:32Z</time>
      </trkpt>
      <trkpt lat="48.39388" lon="7.27504">
        <ele>1057.8448</ele>
        <time>2026-03-19T14:16:37Z</time>
      </trkpt>
      <trkpt lat="48.39393" lon="7.27505">
        <ele>1059.8921</ele>
        <time>2026-03-19T14:16:42Z</time>
      </trkpt>
      <trkpt lat="48.39398" lon="7.27506">
        <ele>1061.9395</ele>
        <time>2026-03-19T14:16:48Z</time>
      </trkpt>
      <trkpt lat="48.39402" lon="7.27506">
        <ele>1063.9867</ele>
        <time>2026-03-19T14:16:53Z</time>
      </trkpt>
      <trkpt lat="48.39407" lon="7.27503">
        <ele>1063.9867</ele>
        <time>2026-03-19T14:16:59Z</time>
      </trkpt>
      <trkpt lat="48.39412" lon="7.27502">
        <ele>1063.9867</ele>
        <time>2026-03-19T14:17:05Z</time>
      </trkpt>
      <trkpt lat="48.39417" lon="7.27504">
        <ele>1063.9867</ele>
        <time>2026-03-19T14:17:11Z</time>
      </trkpt>
      <trkpt lat="48.39421" lon="7.27506">
        <ele>1063.9867</ele>
        <time>2026-03-19T14:17:17Z</time>
      </trkpt>
      <trkpt lat="48.39426" lon="7.27507">
        <ele>1063.9867</ele>
        <time>2026-03-19T14:17:23Z</time>
      </trkpt>
      <trkpt lat="48.39431" lon="7.27506">
        <ele>1063.9867</ele>
        <time>2026-03-19T14:17:29Z</time>
      </trkpt>
      <trkpt lat="48.39433" lon="7.27499">
        <ele>1063.9867</ele>
        <time>2026-03-19T14:17:33Z</time>
      </trkpt>
      <trkpt lat="48.39436" lon="7.27493">
        <ele>1063.9867</ele>
        <time>2026-03-19T14:17:35Z</time>
      </trkpt>
      <trkpt lat="48.39441" lon="7.27489">
        <ele>1063.9867</ele>
        <time>2026-03-19T14:17:41Z</time>
      </trkpt>
      <trkpt lat="48.39444" lon="7.27482">
        <ele>1063.9867</ele>
        <time>2026-03-19T14:17:48Z</time>
      </trkpt>
      <trkpt lat="48.39447" lon="7.27476">
        <ele>1063.9867</ele>
        <time>2026-03-19T14:17:54Z</time>
      </trkpt>
      <trkpt lat="48.39449" lon="7.27468">
        <ele>1063.9867</ele>
        <time>2026-03-19T14:18:01Z</time>
      </trkpt>
      <trkpt lat="48.39451" lon="7.27461">
        <ele>1063.9867</ele>
        <time>2026-03-19T14:18:07Z</time>
      </trkpt>
      <trkpt lat="48.39453" lon="7.27454">
        <ele>1063.9867</ele>
        <time>2026-03-19T14:18:13Z</time>
      </trkpt>
      <trkpt lat="48.39455" lon="7.27447">
        <ele>1063.9867</ele>
        <time>2026-03-19T14:18:19Z</time>
      </trkpt>
      <trkpt lat="48.39455" lon="7.2744">
        <ele>1066.1803</ele>
        <time>2026-03-19T14:18:24Z</time>
      </trkpt>
      <trkpt lat="48.39456" lon="7.27433">
        <ele>1068.3739</ele>
        <time>2026-03-19T14:18:30Z</time>
      </trkpt>
      <trkpt lat="48.39457" lon="7.27426">
        <ele>1070.5676</ele>
        <time>2026-03-19T14:18:36Z</time>
      </trkpt>
      <trkpt lat="48.39459" lon="7.27419">
        <ele>1072.7612</ele>
        <time>2026-03-19T14:18:42Z</time>
      </trkpt>
      <trkpt lat="48.39459" lon="7.27411">
        <ele>1074.9548</ele>
        <time>2026-03-19T14:18:49Z</time>
      </trkpt>
      <trkpt lat="48.3946" lon="7.27404">
        <ele>1074.9548</ele>
        <time>2026-03-19T14:18:56Z</time>
      </trkpt>
      <trkpt lat="48.39461" lon="7.27396">
        <ele>1074.9548</ele>
        <time>2026-03-19T14:19:02Z</time>
      </trkpt>
      <trkpt lat="48.39462" lon="7.27389">
        <ele>1074.9548</ele>
        <time>2026-03-19T14:19:07Z</time>
      </trkpt>
      <trkpt lat="48.39463" lon="7.27381">
        <ele>1074.9548</ele>
        <time>2026-03-19T14:19:13Z</time>
      </trkpt>
      <trkpt lat="48.39463" lon="7.27374">
        <ele>1074.9548</ele>
        <time>2026-03-19T14:19:18Z</time>
      </trkpt>
      <trkpt lat="48.39463" lon="7.27367">
        <ele>1074.9548</ele>
        <time>2026-03-19T14:19:23Z</time>
      </trkpt>
      <trkpt lat="48.39463" lon="7.2736">
        <ele>1074.9548</ele>
        <time>2026-03-19T14:19:27Z</time>
      </trkpt>
      <trkpt lat="48.39463" lon="7.27352">
        <ele>1074.9548</ele>
        <time>2026-03-19T14:19:33Z</time>
      </trkpt>
      <trkpt lat="48.39462" lon="7.27345">
        <ele>1074.9548</ele>
        <time>2026-03-19T14:19:39Z</time>
      </trkpt>
      <trkpt lat="48.3946" lon="7.27337">
        <ele>1074.9548</ele>
        <time>2026-03-19T14:19:44Z</time>
      </trkpt>
      <trkpt lat="48.3946" lon="7.27329">
        <ele>1074.9548</ele>
        <time>2026-03-19T14:19:49Z</time>
      </trkpt>
      <trkpt lat="48.39459" lon="7.27322">
        <ele>1074.9548</ele>
        <time>2026-03-19T14:19:54Z</time>
      </trkpt>
      <trkpt lat="48.39458" lon="7.27314">
        <ele>1077.0741</ele>
        <time>2026-03-19T14:20:01Z</time>
      </trkpt>
      <trkpt lat="48.39457" lon="7.27306">
        <ele>1079.1932</ele>
        <time>2026-03-19T14:20:07Z</time>
      </trkpt>
      <trkpt lat="48.39456" lon="7.27298">
        <ele>1081.3125</ele>
        <time>2026-03-19T14:20:12Z</time>
      </trkpt>
      <trkpt lat="48.39455" lon="7.27292">
        <ele>1083.4316</ele>
        <time>2026-03-19T14:20:16Z</time>
      </trkpt>
      <trkpt lat="48.39458" lon="7.27284">
        <ele>1085.5509</ele>
        <time>2026-03-19T14:20:20Z</time>
      </trkpt>
      <trkpt lat="48.39457" lon="7.27277">
        <ele>1085.5509</ele>
        <time>2026-03-19T14:20:24Z</time>
      </trkpt>
      <trkpt lat="48.39456" lon="7.2727">
        <ele>1085.5509</ele>
        <time>2026-03-19T14:20:30Z</time>
      </trkpt>
      <trkpt lat="48.39455" lon="7.27263">
        <ele>1085.5509</ele>
        <time>2026-03-19T14:20:36Z</time>
      </trkpt>
      <trkpt lat="48.39454" lon="7.27255">
        <ele>1085.5509</ele>
        <time>2026-03-19T14:20:42Z</time>
      </trkpt>
      <trkpt lat="48.39453" lon="7.27248">
        <ele>1085.5509</ele>
        <time>2026-03-19T14:20:47Z</time>
      </trkpt>
      <trkpt lat="48.39452" lon="7.2724">
        <ele>1085.5509</ele>
        <time>2026-03-19T14:20:52Z</time>
      </trkpt>
      <trkpt lat="48.39452" lon="7.27233">
        <ele>1085.5509</ele>
        <time>2026-03-19T14:20:57Z</time>
      </trkpt>
      <trkpt lat="48.39451" lon="7.27226">
        <ele>1085.5509</ele>
        <time>2026-03-19T14:21:02Z</time>
      </trkpt>
      <trkpt lat="48.3945" lon="7.27219">
        <ele>1085.5509</ele>
        <time>2026-03-19T14:21:07Z</time>
      </trkpt>
      <trkpt lat="48.39449" lon="7.27211">
        <ele>1085.5509</ele>
        <time>2026-03-19T14:21:13Z</time>
      </trkpt>
      <trkpt lat="48.39448" lon="7.27204">
        <ele>1085.5509</ele>
        <time>2026-03-19T14:21:18Z</time>
      </trkpt>
      <trkpt lat="48.39447" lon="7.27196">
        <ele>1085.5509</ele>
        <time>2026-03-19T14:21:23Z</time>
      </trkpt>
      <trkpt lat="48.39446" lon="7.27189">
        <ele>1085.5509</ele>
        <time>2026-03-19T14:21:27Z</time>
      </trkpt>
      <trkpt lat="48.39446" lon="7.27182">
        <ele>1085.5509</ele>
        <time>2026-03-19T14:21:32Z</time>
      </trkpt>
      <trkpt lat="48.39444" lon="7.27175">
        <ele>1085.5509</ele>
        <time>2026-03-19T14:21:37Z</time>
      </trkpt>
      <trkpt lat="48.39444" lon="7.27168">
        <ele>1085.5509</ele>
        <time>2026-03-19T14:21:42Z</time>
      </trkpt>
      <trkpt lat="48.39444" lon="7.27161">
        <ele>1085.5509</ele>
        <time>2026-03-19T14:21:47Z</time>
      </trkpt>
      <trkpt lat="48.39445" lon="7.27154">
        <ele>1085.5509</ele>
        <time>2026-03-19T14:21:53Z</time>
      </trkpt>
      <trkpt lat="48.39444" lon="7.27147">
        <ele>1085.5509</ele>
        <time>2026-03-19T14:21:59Z</time>
      </trkpt>
      <trkpt lat="48.39444" lon="7.27139">
        <ele>1085.5509</ele>
        <time>2026-03-19T14:22:04Z</time>
      </trkpt>
      <trkpt lat="48.39444" lon="7.27132">
        <ele>1085.5509</ele>
        <time>2026-03-19T14:22:09Z</time>
      </trkpt>
      <trkpt lat="48.39444" lon="7.27124">
        <ele>1085.5509</ele>
        <time>2026-03-19T14:22:14Z</time>
      </trkpt>
      <trkpt lat="48.39444" lon="7.27116">
        <ele>1085.5509</ele>
        <time>2026-03-19T14:22:19Z</time>
      </trkpt>
      <trkpt lat="48.39445" lon="7.27107">
        <ele>1085.5509</ele>
        <time>2026-03-19T14:22:24Z</time>
      </trkpt>
      <trkpt lat="48.39445" lon="7.271">
        <ele>1085.5509</ele>
        <time>2026-03-19T14:22:29Z</time>
      </trkpt>
      <trkpt lat="48.39444" lon="7.27092">
        <ele>1085.5509</ele>
        <time>2026-03-19T14:22:34Z</time>
      </trkpt>
      <trkpt lat="48.39444" lon="7.27085">
        <ele>1085.5509</ele>
        <time>2026-03-19T14:22:39Z</time>
      </trkpt>
      <trkpt lat="48.39444" lon="7.27077">
        <ele>1085.5509</ele>
        <time>2026-03-19T14:22:44Z</time>
      </trkpt>
      <trkpt lat="48.39444" lon="7.2707">
        <ele>1087.5854</ele>
        <time>2026-03-19T14:22:49Z</time>
      </trkpt>
      <trkpt lat="48.39444" lon="7.27063">
        <ele>1089.62</ele>
        <time>2026-03-19T14:22:54Z</time>
      </trkpt>
      <trkpt lat="48.39445" lon="7.27055">
        <ele>1091.6547</ele>
        <time>2026-03-19T14:23:00Z</time>
      </trkpt>
      <trkpt lat="48.39445" lon="7.27047">
        <ele>1093.6892</ele>
        <time>2026-03-19T14:23:04Z</time>
      </trkpt>
      <trkpt lat="48.39445" lon="7.27039">
        <ele>1095.7238</ele>
        <time>2026-03-19T14:23:09Z</time>
      </trkpt>
      <trkpt lat="48.39445" lon="7.27032">
        <ele>1095.7238</ele>
        <time>2026-03-19T14:23:14Z</time>
      </trkpt>
      <trkpt lat="48.39445" lon="7.27024">
        <ele>1095.7238</ele>
        <time>2026-03-19T14:23:19Z</time>
      </trkpt>
      <trkpt lat="48.39445" lon="7.27017">
        <ele>1095.7238</ele>
        <time>2026-03-19T14:23:23Z</time>
      </trkpt>
      <trkpt lat="48.39445" lon="7.2701">
        <ele>1095.7238</ele>
        <time>2026-03-19T14:23:29Z</time>
      </trkpt>
      <trkpt lat="48.39445" lon="7.27002">
        <ele>1095.7238</ele>
        <time>2026-03-19T14:23:33Z</time>
      </trkpt>
      <trkpt lat="48.39444" lon="7.26995">
        <ele>1095.7238</ele>
        <time>2026-03-19T14:23:37Z</time>
      </trkpt>
      <trkpt lat="48.39444" lon="7.26987">
        <ele>1095.7238</ele>
        <time>2026-03-19T14:23:42Z</time>
      </trkpt>
      <trkpt lat="48.39444" lon="7.26979">
        <ele>1095.7238</ele>
        <time>2026-03-19T14:23:47Z</time>
      </trkpt>
      <trkpt lat="48.39444" lon="7.26972">
        <ele>1095.7238</ele>
        <time>2026-03-19T14:23:52Z</time>
      </trkpt>
      <trkpt lat="48.39444" lon="7.26964">
        <ele>1095.7238</ele>
        <time>2026-03-19T14:23:58Z</time>
      </trkpt>
      <trkpt lat="48.39444" lon="7.26957">
        <ele>1095.7238</ele>
        <time>2026-03-19T14:24:02Z</time>
      </trkpt>
      <trkpt lat="48.39448" lon="7.26953">
        <ele>1095.7238</ele>
        <time>2026-03-19T14:24:07Z</time>
      </trkpt>
      <trkpt lat="48.39452" lon="7.2695">
        <ele>1095.7238</ele>
        <time>2026-03-19T14:24:12Z</time>
      </trkpt>
      <trkpt lat="48.39456" lon="7.26944">
        <ele>1095.7238</ele>
        <time>2026-03-19T14:24:18Z</time>
      </trkpt>
      <trkpt lat="48.3946" lon="7.26939">
        <ele>1095.7238</ele>
        <time>2026-03-19T14:24:23Z</time>
      </trkpt>
      <trkpt lat="48.39463" lon="7.26934">
        <ele>1095.7238</ele>
        <time>2026-03-19T14:24:28Z</time>
      </trkpt>
      <trkpt lat="48.39467" lon="7.26937">
        <ele>1095.7238</ele>
        <time>2026-03-19T14:24:34Z</time>
      </trkpt>
      <trkpt lat="48.39471" lon="7.26933">
        <ele>1095.7238</ele>
        <time>2026-03-19T14:24:38Z</time>
      </trkpt>
      <trkpt lat="48.39474" lon="7.26927">
        <ele>1095.7238</ele>
        <time>2026-03-19T14:24:40Z</time>
      </trkpt>
      <trkpt lat="48.39475" lon="7.2692">
        <ele>1095.7238</ele>
        <time>2026-03-19T14:24:49Z</time>
      </trkpt>
      <trkpt lat="48.39473" lon="7.26913">
        <ele>1095.7238</ele>
        <time>2026-03-19T14:24:54Z</time>
      </trkpt>
      <trkpt lat="48.39473" lon="7.26904">
        <ele>1095.7238</ele>
        <time>2026-03-19T14:25:01Z</time>
      </trkpt>
      <trkpt lat="48.39473" lon="7.26897">
        <ele>1095.7238</ele>
        <time>2026-03-19T14:25:07Z</time>
      </trkpt>
      <trkpt lat="48.39473" lon="7.26887">
        <ele>1095.7238</ele>
        <time>2026-03-19T14:26:43Z</time>
      </trkpt>
      <trkpt lat="48.39473" lon="7.2688">
        <ele>1095.7238</ele>
        <time>2026-03-19T14:26:50Z</time>
      </trkpt>
      <trkpt lat="48.39475" lon="7.26873">
        <ele>1095.7238</ele>
        <time>2026-03-19T14:26:57Z</time>
      </trkpt>
      <trkpt lat="48.39478" lon="7.26867">
        <ele>1095.7238</ele>
        <time>2026-03-19T14:27:15Z</time>
      </trkpt>
      <trkpt lat="48.39479" lon="7.2686">
        <ele>1095.7238</ele>
        <time>2026-03-19T14:27:22Z</time>
      </trkpt>
      <trkpt lat="48.39477" lon="7.26853">
        <ele>1095.7238</ele>
        <time>2026-03-19T14:28:37Z</time>
      </trkpt>
      <trkpt lat="48.39474" lon="7.26858">
        <ele>1095.7238</ele>
        <time>2026-03-19T14:29:16Z</time>
      </trkpt>
      <trkpt lat="48.3947" lon="7.26862">
        <ele>1095.7238</ele>
        <time>2026-03-19T14:29:53Z</time>
      </trkpt>
      <trkpt lat="48.39469" lon="7.26854">
        <ele>1095.7238</ele>
        <time>2026-03-19T14:30:37Z</time>
      </trkpt>
      <trkpt lat="48.39464" lon="7.26855">
        <ele>1095.7238</ele>
        <time>2026-03-19T14:31:03Z</time>
      </trkpt>
      <trkpt lat="48.3946" lon="7.26851">
        <ele>1095.7238</ele>
        <time>2026-03-19T14:31:07Z</time>
      </trkpt>
      <trkpt lat="48.39455" lon="7.26851">
        <ele>1095.7238</ele>
        <time>2026-03-19T14:31:21Z</time>
      </trkpt>
      <trkpt lat="48.39449" lon="7.26851">
        <ele>1095.7238</ele>
        <time>2026-03-19T14:31:26Z</time>
      </trkpt>
      <trkpt lat="48.39444" lon="7.26851">
        <ele>1095.7238</ele>
        <time>2026-03-19T14:31:31Z</time>
      </trkpt>
      <trkpt lat="48.39439" lon="7.26854">
        <ele>1095.7238</ele>
        <time>2026-03-19T14:31:41Z</time>
      </trkpt>
      <trkpt lat="48.39442" lon="7.26848">
        <ele>1095.7238</ele>
        <time>2026-03-19T14:31:54Z</time>
      </trkpt>
      <trkpt lat="48.39446" lon="7.26841">
        <ele>1095.7238</ele>
        <time>2026-03-19T14:32:00Z</time>
      </trkpt>
      <trkpt lat="48.39449" lon="7.26834">
        <ele>1095.7238</ele>
        <time>2026-03-19T14:32:06Z</time>
      </trkpt>
      <trkpt lat="48.39446" lon="7.2684">
        <ele>1095.7238</ele>
        <time>2026-03-19T14:32:12Z</time>
      </trkpt>
      <trkpt lat="48.39443" lon="7.26846">
        <ele>1095.7238</ele>
        <time>2026-03-19T14:32:17Z</time>
      </trkpt>
      <trkpt lat="48.39438" lon="7.2685">
        <ele>1095.7238</ele>
        <time>2026-03-19T14:32:22Z</time>
      </trkpt>
      <trkpt lat="48.39434" lon="7.26854">
        <ele>1095.7238</ele>
        <time>2026-03-19T14:32:26Z</time>
      </trkpt>
      <trkpt lat="48.3943" lon="7.26858">
        <ele>1095.7238</ele>
        <time>2026-03-19T14:32:30Z</time>
      </trkpt>
      <trkpt lat="48.39426" lon="7.26863">
        <ele>1095.7238</ele>
        <time>2026-03-19T14:32:35Z</time>
      </trkpt>
      <trkpt lat="48.39422" lon="7.26867">
        <ele>1095.7238</ele>
        <time>2026-03-19T14:32:40Z</time>
      </trkpt>
      <trkpt lat="48.39417" lon="7.26872">
        <ele>1095.7238</ele>
        <time>2026-03-19T14:32:45Z</time>
      </trkpt>
      <trkpt lat="48.39414" lon="7.26879">
        <ele>1095.7238</ele>
        <time>2026-03-19T14:32:50Z</time>
      </trkpt>
      <trkpt lat="48.39411" lon="7.26885">
        <ele>1095.7238</ele>
        <time>2026-03-19T14:32:56Z</time>
      </trkpt>
      <trkpt lat="48.39405" lon="7.26885">
        <ele>1095.7238</ele>
        <time>2026-03-19T14:33:01Z</time>
      </trkpt>
      <trkpt lat="48.39398" lon="7.2688">
        <ele>1095.7238</ele>
        <time>2026-03-19T14:33:04Z</time>
      </trkpt>
      <trkpt lat="48.39393" lon="7.26877">
        <ele>1095.7238</ele>
        <time>2026-03-19T14:33:09Z</time>
      </trkpt>
      <trkpt lat="48.39388" lon="7.26875">
        <ele>1095.7238</ele>
        <time>2026-03-19T14:33:14Z</time>
      </trkpt>
      <trkpt lat="48.39384" lon="7.26872">
        <ele>1095.7238</ele>
        <time>2026-03-19T14:33:19Z</time>
      </trkpt>
      <trkpt lat="48.39379" lon="7.2687">
        <ele>1095.7238</ele>
        <time>2026-03-19T14:33:24Z</time>
      </trkpt>
      <trkpt lat="48.39375" lon="7.26866">
        <ele>1095.7238</ele>
        <time>2026-03-19T14:33:58Z</time>
      </trkpt>
      <trkpt lat="48.3937" lon="7.26864">
        <ele>1095.7238</ele>
        <time>2026-03-19T14:34:02Z</time>
      </trkpt>
      <trkpt lat="48.39365" lon="7.26863">
        <ele>1095.7238</ele>
        <time>2026-03-19T14:34:07Z</time>
      </trkpt>
      <trkpt lat="48.39361" lon="7.2686">
        <ele>1095.7238</ele>
        <time>2026-03-19T14:34:12Z</time>
      </trkpt>
      <trkpt lat="48.39356" lon="7.26858">
        <ele>1095.7238</ele>
        <time>2026-03-19T14:34:17Z</time>
      </trkpt>
      <trkpt lat="48.39351" lon="7.26855">
        <ele>1095.7238</ele>
        <time>2026-03-19T14:34:23Z</time>
      </trkpt>
      <trkpt lat="48.39346" lon="7.26853">
        <ele>1095.7238</ele>
        <time>2026-03-19T14:34:29Z</time>
      </trkpt>
      <trkpt lat="48.39341" lon="7.26851">
        <ele>1095.7238</ele>
        <time>2026-03-19T14:34:34Z</time>
      </trkpt>
      <trkpt lat="48.39337" lon="7.26849">
        <ele>1095.7238</ele>
        <time>2026-03-19T14:34:39Z</time>
      </trkpt>
      <trkpt lat="48.39332" lon="7.26848">
        <ele>1093.6158</ele>
        <time>2026-03-19T14:34:44Z</time>
      </trkpt>
      <trkpt lat="48.39328" lon="7.26846">
        <ele>1091.508</ele>
        <time>2026-03-19T14:34:48Z</time>
      </trkpt>
      <trkpt lat="48.39323" lon="7.26843">
        <ele>1089.4001</ele>
        <time>2026-03-19T14:34:53Z</time>
      </trkpt>
      <trkpt lat="48.39319" lon="7.26841">
        <ele>1087.2924</ele>
        <time>2026-03-19T14:34:58Z</time>
      </trkpt>
      <trkpt lat="48.39313" lon="7.2684">
        <ele>1085.1844</ele>
        <time>2026-03-19T14:35:04Z</time>
      </trkpt>
      <trkpt lat="48.39308" lon="7.26838">
        <ele>1085.1844</ele>
        <time>2026-03-19T14:35:08Z</time>
      </trkpt>
      <trkpt lat="48.39304" lon="7.26837">
        <ele>1085.1844</ele>
        <time>2026-03-19T14:35:14Z</time>
      </trkpt>
      <trkpt lat="48.39299" lon="7.26836">
        <ele>1085.1844</ele>
        <time>2026-03-19T14:35:20Z</time>
      </trkpt>
      <trkpt lat="48.39293" lon="7.26836">
        <ele>1085.1844</ele>
        <time>2026-03-19T14:35:25Z</time>
      </trkpt>
      <trkpt lat="48.39288" lon="7.26835">
        <ele>1085.1844</ele>
        <time>2026-03-19T14:35:31Z</time>
      </trkpt>
      <trkpt lat="48.39283" lon="7.26834">
        <ele>1085.1844</ele>
        <time>2026-03-19T14:35:37Z</time>
      </trkpt>
      <trkpt lat="48.39278" lon="7.26832">
        <ele>1085.1844</ele>
        <time>2026-03-19T14:35:42Z</time>
      </trkpt>
      <trkpt lat="48.39273" lon="7.2683">
        <ele>1085.1844</ele>
        <time>2026-03-19T14:35:47Z</time>
      </trkpt>
      <trkpt lat="48.39269" lon="7.26828">
        <ele>1085.1844</ele>
        <time>2026-03-19T14:35:52Z</time>
      </trkpt>
      <trkpt lat="48.39264" lon="7.26825">
        <ele>1085.1844</ele>
        <time>2026-03-19T14:35:56Z</time>
      </trkpt>
      <trkpt lat="48.39259" lon="7.26822">
        <ele>1085.1844</ele>
        <time>2026-03-19T14:36:00Z</time>
      </trkpt>
      <trkpt lat="48.39254" lon="7.2682">
        <ele>1085.1844</ele>
        <time>2026-03-19T14:36:05Z</time>
      </trkpt>
      <trkpt lat="48.3925" lon="7.26818">
        <ele>1085.1844</ele>
        <time>2026-03-19T14:36:09Z</time>
      </trkpt>
      <trkpt lat="48.39246" lon="7.26816">
        <ele>1085.1844</ele>
        <time>2026-03-19T14:36:14Z</time>
      </trkpt>
      <trkpt lat="48.39241" lon="7.26814">
        <ele>1085.1844</ele>
        <time>2026-03-19T14:36:20Z</time>
      </trkpt>
      <trkpt lat="48.39237" lon="7.26812">
        <ele>1085.1844</ele>
        <time>2026-03-19T14:36:25Z</time>
      </trkpt>
      <trkpt lat="48.39232" lon="7.26808">
        <ele>1085.1844</ele>
        <time>2026-03-19T14:36:30Z</time>
      </trkpt>
      <trkpt lat="48.39227" lon="7.26806">
        <ele>1085.1844</ele>
        <time>2026-03-19T14:36:36Z</time>
      </trkpt>
      <trkpt lat="48.39222" lon="7.26804">
        <ele>1085.1844</ele>
        <time>2026-03-19T14:36:41Z</time>
      </trkpt>
      <trkpt lat="48.39217" lon="7.26803">
        <ele>1082.9553</ele>
        <time>2026-03-19T14:36:50Z</time>
      </trkpt>
      <trkpt lat="48.39212" lon="7.268">
        <ele>1080.7263</ele>
        <time>2026-03-19T14:36:57Z</time>
      </trkpt>
      <trkpt lat="48.39206" lon="7.26798">
        <ele>1078.4972</ele>
        <time>2026-03-19T14:37:05Z</time>
      </trkpt>
      <trkpt lat="48.39201" lon="7.26795">
        <ele>1076.2682</ele>
        <time>2026-03-19T14:37:11Z</time>
      </trkpt>
      <trkpt lat="48.39196" lon="7.26793">
        <ele>1074.0391</ele>
        <time>2026-03-19T14:37:17Z</time>
      </trkpt>
      <trkpt lat="48.39192" lon="7.2679">
        <ele>1074.0391</ele>
        <time>2026-03-19T14:37:24Z</time>
      </trkpt>
      <trkpt lat="48.39187" lon="7.26787">
        <ele>1074.0391</ele>
        <time>2026-03-19T14:37:30Z</time>
      </trkpt>
      <trkpt lat="48.39183" lon="7.26785">
        <ele>1074.0391</ele>
        <time>2026-03-19T14:37:35Z</time>
      </trkpt>
      <trkpt lat="48.39179" lon="7.26782">
        <ele>1074.0391</ele>
        <time>2026-03-19T14:37:41Z</time>
      </trkpt>
      <trkpt lat="48.39174" lon="7.26779">
        <ele>1074.0391</ele>
        <time>2026-03-19T14:37:47Z</time>
      </trkpt>
      <trkpt lat="48.3917" lon="7.26776">
        <ele>1074.0391</ele>
        <time>2026-03-19T14:37:52Z</time>
      </trkpt>
      <trkpt lat="48.39165" lon="7.26774">
        <ele>1074.0391</ele>
        <time>2026-03-19T14:37:58Z</time>
      </trkpt>
      <trkpt lat="48.39161" lon="7.26771">
        <ele>1074.0391</ele>
        <time>2026-03-19T14:38:04Z</time>
      </trkpt>
      <trkpt lat="48.39157" lon="7.26768">
        <ele>1074.0391</ele>
        <time>2026-03-19T14:38:10Z</time>
      </trkpt>
      <trkpt lat="48.39152" lon="7.26765">
        <ele>1074.0391</ele>
        <time>2026-03-19T14:38:17Z</time>
      </trkpt>
      <trkpt lat="48.39148" lon="7.26763">
        <ele>1074.0391</ele>
        <time>2026-03-19T14:38:23Z</time>
      </trkpt>
      <trkpt lat="48.39143" lon="7.26759">
        <ele>1071.8966</ele>
        <time>2026-03-19T14:38:29Z</time>
      </trkpt>
      <trkpt lat="48.39138" lon="7.26756">
        <ele>1069.7542</ele>
        <time>2026-03-19T14:38:35Z</time>
      </trkpt>
      <trkpt lat="48.39134" lon="7.26754">
        <ele>1067.6116</ele>
        <time>2026-03-19T14:38:41Z</time>
      </trkpt>
      <trkpt lat="48.39129" lon="7.26752">
        <ele>1065.4691</ele>
        <time>2026-03-19T14:38:46Z</time>
      </trkpt>
      <trkpt lat="48.39125" lon="7.26749">
        <ele>1063.3267</ele>
        <time>2026-03-19T14:38:51Z</time>
      </trkpt>
      <trkpt lat="48.39121" lon="7.26746">
        <ele>1063.3267</ele>
        <time>2026-03-19T14:38:57Z</time>
      </trkpt>
      <trkpt lat="48.39116" lon="7.26742">
        <ele>1063.3267</ele>
        <time>2026-03-19T14:39:02Z</time>
      </trkpt>
      <trkpt lat="48.39112" lon="7.26739">
        <ele>1063.3267</ele>
        <time>2026-03-19T14:39:08Z</time>
      </trkpt>
      <trkpt lat="48.39107" lon="7.26737">
        <ele>1063.3267</ele>
        <time>2026-03-19T14:39:13Z</time>
      </trkpt>
      <trkpt lat="48.39103" lon="7.26734">
        <ele>1063.3267</ele>
        <time>2026-03-19T14:39:18Z</time>
      </trkpt>
      <trkpt lat="48.39098" lon="7.26731">
        <ele>1063.3267</ele>
        <time>2026-03-19T14:39:24Z</time>
      </trkpt>
      <trkpt lat="48.39093" lon="7.26727">
        <ele>1063.3267</ele>
        <time>2026-03-19T14:39:30Z</time>
      </trkpt>
      <trkpt lat="48.39089" lon="7.26723">
        <ele>1063.3267</ele>
        <time>2026-03-19T14:39:37Z</time>
      </trkpt>
      <trkpt lat="48.39085" lon="7.2672">
        <ele>1063.3267</ele>
        <time>2026-03-19T14:39:42Z</time>
      </trkpt>
      <trkpt lat="48.3908" lon="7.26716">
        <ele>1063.3267</ele>
        <time>2026-03-19T14:39:47Z</time>
      </trkpt>
      <trkpt lat="48.39077" lon="7.26712">
        <ele>1063.3267</ele>
        <time>2026-03-19T14:39:52Z</time>
      </trkpt>
      <trkpt lat="48.39072" lon="7.26709">
        <ele>1063.3267</ele>
        <time>2026-03-19T14:39:59Z</time>
      </trkpt>
      <trkpt lat="48.39068" lon="7.26704">
        <ele>1061.1821</ele>
        <time>2026-03-19T14:40:05Z</time>
      </trkpt>
      <trkpt lat="48.39064" lon="7.267">
        <ele>1059.0375</ele>
        <time>2026-03-19T14:40:13Z</time>
      </trkpt>
      <trkpt lat="48.39069" lon="7.26701">
        <ele>1056.893</ele>
        <time>2026-03-19T14:41:32Z</time>
      </trkpt>
      <trkpt lat="48.39074" lon="7.26701">
        <ele>1054.7483</ele>
        <time>2026-03-19T14:41:52Z</time>
      </trkpt>
      <trkpt lat="48.39069" lon="7.267">
        <ele>1052.6038</ele>
        <time>2026-03-19T14:42:27Z</time>
      </trkpt>
      <trkpt lat="48.39065" lon="7.26696">
        <ele>1052.6038</ele>
        <time>2026-03-19T14:43:04Z</time>
      </trkpt>
      <trkpt lat="48.39069" lon="7.267">
        <ele>1052.6038</ele>
        <time>2026-03-19T14:43:47Z</time>
      </trkpt>
      <trkpt lat="48.39074" lon="7.26699">
        <ele>1052.6038</ele>
        <time>2026-03-19T14:43:52Z</time>
      </trkpt>
      <trkpt lat="48.39079" lon="7.26697">
        <ele>1052.6038</ele>
        <time>2026-03-19T14:44:02Z</time>
      </trkpt>
      <trkpt lat="48.39084" lon="7.26694">
        <ele>1052.6038</ele>
        <time>2026-03-19T14:44:07Z</time>
      </trkpt>
      <trkpt lat="48.39089" lon="7.26691">
        <ele>1052.6038</ele>
        <time>2026-03-19T14:44:13Z</time>
      </trkpt>
      <trkpt lat="48.39093" lon="7.26686">
        <ele>1052.6038</ele>
        <time>2026-03-19T14:44:17Z</time>
      </trkpt>
      <trkpt lat="48.39097" lon="7.2668">
        <ele>1052.6038</ele>
        <time>2026-03-19T14:44:24Z</time>
      </trkpt>
      <trkpt lat="48.39101" lon="7.26679">
        <ele>1052.6038</ele>
        <time>2026-03-19T14:44:29Z</time>
      </trkpt>
      <trkpt lat="48.39106" lon="7.26677">
        <ele>1052.6038</ele>
        <time>2026-03-19T14:44:33Z</time>
      </trkpt>
      <trkpt lat="48.3911" lon="7.26675">
        <ele>1052.6038</ele>
        <time>2026-03-19T14:44:38Z</time>
      </trkpt>
      <trkpt lat="48.39115" lon="7.26672">
        <ele>1052.6038</ele>
        <time>2026-03-19T14:44:45Z</time>
      </trkpt>
      <trkpt lat="48.39121" lon="7.26668">
        <ele>1052.6038</ele>
        <time>2026-03-19T14:44:52Z</time>
      </trkpt>
      <trkpt lat="48.39125" lon="7.26665">
        <ele>1052.6038</ele>
        <time>2026-03-19T14:45:00Z</time>
      </trkpt>
      <trkpt lat="48.39129" lon="7.26662">
        <ele>1052.6038</ele>
        <time>2026-03-19T14:45:06Z</time>
      </trkpt>
      <trkpt lat="48.39134" lon="7.26658">
        <ele>1052.6038</ele>
        <time>2026-03-19T14:45:12Z</time>
      </trkpt>
      <trkpt lat="48.39138" lon="7.26655">
        <ele>1052.6038</ele>
        <time>2026-03-19T14:45:17Z</time>
      </trkpt>
      <trkpt lat="48.39142" lon="7.26652">
        <ele>1052.6038</ele>
        <time>2026-03-19T14:45:22Z</time>
      </trkpt>
      <trkpt lat="48.39147" lon="7.26648">
        <ele>1052.6038</ele>
        <time>2026-03-19T14:45:28Z</time>
      </trkpt>
      <trkpt lat="48.39152" lon="7.26645">
        <ele>1052.6038</ele>
        <time>2026-03-19T14:45:34Z</time>
      </trkpt>
      <trkpt lat="48.39156" lon="7.26641">
        <ele>1052.6038</ele>
        <time>2026-03-19T14:45:39Z</time>
      </trkpt>
      <trkpt lat="48.3916" lon="7.26638">
        <ele>1052.6038</ele>
        <time>2026-03-19T14:45:43Z</time>
      </trkpt>
      <trkpt lat="48.39164" lon="7.26634">
        <ele>1052.6038</ele>
        <time>2026-03-19T14:45:47Z</time>
      </trkpt>
      <trkpt lat="48.39169" lon="7.26631">
        <ele>1052.6038</ele>
        <time>2026-03-19T14:45:54Z</time>
      </trkpt>
      <trkpt lat="48.39173" lon="7.26627">
        <ele>1052.6038</ele>
        <time>2026-03-19T14:45:58Z</time>
      </trkpt>
      <trkpt lat="48.39178" lon="7.26623">
        <ele>1052.6038</ele>
        <time>2026-03-19T14:46:03Z</time>
      </trkpt>
      <trkpt lat="48.39182" lon="7.26619">
        <ele>1050.2229</ele>
        <time>2026-03-19T14:46:08Z</time>
      </trkpt>
      <trkpt lat="48.39187" lon="7.26615">
        <ele>1047.8419</ele>
        <time>2026-03-19T14:46:13Z</time>
      </trkpt>
      <trkpt lat="48.39191" lon="7.26612">
        <ele>1045.461</ele>
        <time>2026-03-19T14:46:18Z</time>
      </trkpt>
      <trkpt lat="48.39195" lon="7.26609">
        <ele>1043.0801</ele>
        <time>2026-03-19T14:46:23Z</time>
      </trkpt>
      <trkpt lat="48.39201" lon="7.26605">
        <ele>1040.6992</ele>
        <time>2026-03-19T14:46:29Z</time>
      </trkpt>
      <trkpt lat="48.39205" lon="7.26602">
        <ele>1040.6992</ele>
        <time>2026-03-19T14:46:33Z</time>
      </trkpt>
      <trkpt lat="48.3921" lon="7.266">
        <ele>1040.6992</ele>
        <time>2026-03-19T14:46:39Z</time>
      </trkpt>
      <trkpt lat="48.39214" lon="7.26598">
        <ele>1040.6992</ele>
        <time>2026-03-19T14:46:45Z</time>
      </trkpt>
      <trkpt lat="48.39219" lon="7.26597">
        <ele>1040.6992</ele>
        <time>2026-03-19T14:46:50Z</time>
      </trkpt>
      <trkpt lat="48.39224" lon="7.26596">
        <ele>1040.6992</ele>
        <time>2026-03-19T14:46:57Z</time>
      </trkpt>
      <trkpt lat="48.39229" lon="7.26595">
        <ele>1040.6992</ele>
        <time>2026-03-19T14:47:03Z</time>
      </trkpt>
      <trkpt lat="48.39235" lon="7.26595">
        <ele>1040.6992</ele>
        <time>2026-03-19T14:47:09Z</time>
      </trkpt>
      <trkpt lat="48.39239" lon="7.26595">
        <ele>1040.6992</ele>
        <time>2026-03-19T14:47:14Z</time>
      </trkpt>
      <trkpt lat="48.39244" lon="7.26595">
        <ele>1040.6992</ele>
        <time>2026-03-19T14:47:19Z</time>
      </trkpt>
      <trkpt lat="48.39249" lon="7.26595">
        <ele>1040.6992</ele>
        <time>2026-03-19T14:47:23Z</time>
      </trkpt>
      <trkpt lat="48.39254" lon="7.26595">
        <ele>1040.6992</ele>
        <time>2026-03-19T14:47:29Z</time>
      </trkpt>
      <trkpt lat="48.39259" lon="7.26595">
        <ele>1040.6992</ele>
        <time>2026-03-19T14:47:35Z</time>
      </trkpt>
      <trkpt lat="48.39264" lon="7.26594">
        <ele>1040.6992</ele>
        <time>2026-03-19T14:47:41Z</time>
      </trkpt>
      <trkpt lat="48.39269" lon="7.26594">
        <ele>1040.6992</ele>
        <time>2026-03-19T14:47:48Z</time>
      </trkpt>
      <trkpt lat="48.39274" lon="7.26592">
        <ele>1040.6992</ele>
        <time>2026-03-19T14:47:53Z</time>
      </trkpt>
      <trkpt lat="48.39279" lon="7.26591">
        <ele>1040.6992</ele>
        <time>2026-03-19T14:47:58Z</time>
      </trkpt>
      <trkpt lat="48.39283" lon="7.26589">
        <ele>1040.6992</ele>
        <time>2026-03-19T14:48:02Z</time>
      </trkpt>
      <trkpt lat="48.39288" lon="7.26586">
        <ele>1040.6992</ele>
        <time>2026-03-19T14:48:07Z</time>
      </trkpt>
      <trkpt lat="48.39294" lon="7.26582">
        <ele>1040.6992</ele>
        <time>2026-03-19T14:48:13Z</time>
      </trkpt>
      <trkpt lat="48.39298" lon="7.26579">
        <ele>1040.6992</ele>
        <time>2026-03-19T14:48:19Z</time>
      </trkpt>
      <trkpt lat="48.39302" lon="7.26576">
        <ele>1040.6992</ele>
        <time>2026-03-19T14:48:25Z</time>
      </trkpt>
      <trkpt lat="48.39307" lon="7.26572">
        <ele>1040.6992</ele>
        <time>2026-03-19T14:48:30Z</time>
      </trkpt>
      <trkpt lat="48.39311" lon="7.26568">
        <ele>1040.6992</ele>
        <time>2026-03-19T14:48:35Z</time>
      </trkpt>
      <trkpt lat="48.39315" lon="7.26564">
        <ele>1040.6992</ele>
        <time>2026-03-19T14:48:40Z</time>
      </trkpt>
      <trkpt lat="48.3932" lon="7.2656">
        <ele>1040.6992</ele>
        <time>2026-03-19T14:48:47Z</time>
      </trkpt>
      <trkpt lat="48.39323" lon="7.26555">
        <ele>1040.6992</ele>
        <time>2026-03-19T14:48:53Z</time>
      </trkpt>
      <trkpt lat="48.39328" lon="7.26551">
        <ele>1040.6992</ele>
        <time>2026-03-19T14:48:58Z</time>
      </trkpt>
      <trkpt lat="48.39331" lon="7.26547">
        <ele>1040.6992</ele>
        <time>2026-03-19T14:49:02Z</time>
      </trkpt>
      <trkpt lat="48.39336" lon="7.26542">
        <ele>1040.6992</ele>
        <time>2026-03-19T14:49:08Z</time>
      </trkpt>
      <trkpt lat="48.3934" lon="7.26537">
        <ele>1040.6992</ele>
        <time>2026-03-19T14:49:13Z</time>
      </trkpt>
      <trkpt lat="48.39344" lon="7.26533">
        <ele>1040.6992</ele>
        <time>2026-03-19T14:49:19Z</time>
      </trkpt>
      <trkpt lat="48.39348" lon="7.26528">
        <ele>1040.6992</ele>
        <time>2026-03-19T14:49:24Z</time>
      </trkpt>
      <trkpt lat="48.39352" lon="7.26524">
        <ele>1040.6992</ele>
        <time>2026-03-19T14:49:31Z</time>
      </trkpt>
      <trkpt lat="48.39356" lon="7.26519">
        <ele>1040.6992</ele>
        <time>2026-03-19T14:49:38Z</time>
      </trkpt>
      <trkpt lat="48.3936" lon="7.26514">
        <ele>1040.6992</ele>
        <time>2026-03-19T14:49:44Z</time>
      </trkpt>
      <trkpt lat="48.39364" lon="7.26509">
        <ele>1040.6992</ele>
        <time>2026-03-19T14:49:52Z</time>
      </trkpt>
      <trkpt lat="48.39368" lon="7.26504">
        <ele>1040.6992</ele>
        <time>2026-03-19T14:49:59Z</time>
      </trkpt>
      <trkpt lat="48.39372" lon="7.265">
        <ele>1040.6992</ele>
        <time>2026-03-19T14:50:04Z</time>
      </trkpt>
      <trkpt lat="48.39375" lon="7.26495">
        <ele>1040.6992</ele>
        <time>2026-03-19T14:50:09Z</time>
      </trkpt>
      <trkpt lat="48.39379" lon="7.2649">
        <ele>1040.6992</ele>
        <time>2026-03-19T14:50:13Z</time>
      </trkpt>
      <trkpt lat="48.39383" lon="7.26484">
        <ele>1040.6992</ele>
        <time>2026-03-19T14:50:17Z</time>
      </trkpt>
      <trkpt lat="48.39386" lon="7.26479">
        <ele>1040.6992</ele>
        <time>2026-03-19T14:50:21Z</time>
      </trkpt>
      <trkpt lat="48.3939" lon="7.26473">
        <ele>1040.6992</ele>
        <time>2026-03-19T14:50:27Z</time>
      </trkpt>
      <trkpt lat="48.39394" lon="7.26467">
        <ele>1040.6992</ele>
        <time>2026-03-19T14:50:33Z</time>
      </trkpt>
      <trkpt lat="48.39397" lon="7.26461">
        <ele>1040.6992</ele>
        <time>2026-03-19T14:50:38Z</time>
      </trkpt>
      <trkpt lat="48.394" lon="7.26456">
        <ele>1040.6992</ele>
        <time>2026-03-19T14:50:45Z</time>
      </trkpt>
      <trkpt lat="48.39399" lon="7.26445">
        <ele>1040.6992</ele>
        <time>2026-03-19T14:51:11Z</time>
      </trkpt>
      <trkpt lat="48.39398" lon="7.26438">
        <ele>1040.6992</ele>
        <time>2026-03-19T14:51:16Z</time>
      </trkpt>
      <trkpt lat="48.39399" lon="7.2643">
        <ele>1040.6992</ele>
        <time>2026-03-19T14:51:21Z</time>
      </trkpt>
      <trkpt lat="48.39401" lon="7.26424">
        <ele>1040.6992</ele>
        <time>2026-03-19T14:51:27Z</time>
      </trkpt>
      <trkpt lat="48.39403" lon="7.26417">
        <ele>1040.6992</ele>
        <time>2026-03-19T14:51:32Z</time>
      </trkpt>
      <trkpt lat="48.39404" lon="7.2641">
        <ele>1040.6992</ele>
        <time>2026-03-19T14:51:37Z</time>
      </trkpt>
      <trkpt lat="48.39407" lon="7.26403">
        <ele>1040.6992</ele>
        <time>2026-03-19T14:51:42Z</time>
      </trkpt>
      <trkpt lat="48.39409" lon="7.26396">
        <ele>1040.6992</ele>
        <time>2026-03-19T14:51:47Z</time>
      </trkpt>
      <trkpt lat="48.39412" lon="7.26389">
        <ele>1040.6992</ele>
        <time>2026-03-19T14:51:52Z</time>
      </trkpt>
      <trkpt lat="48.39414" lon="7.26381">
        <ele>1040.6992</ele>
        <time>2026-03-19T14:51:57Z</time>
      </trkpt>
      <trkpt lat="48.39416" lon="7.26374">
        <ele>1040.6992</ele>
        <time>2026-03-19T14:52:02Z</time>
      </trkpt>
      <trkpt lat="48.39418" lon="7.26368">
        <ele>1040.6992</ele>
        <time>2026-03-19T14:52:06Z</time>
      </trkpt>
      <trkpt lat="48.3942" lon="7.2636">
        <ele>1040.6992</ele>
        <time>2026-03-19T14:52:12Z</time>
      </trkpt>
      <trkpt lat="48.39421" lon="7.26353">
        <ele>1040.6992</ele>
        <time>2026-03-19T14:52:17Z</time>
      </trkpt>
      <trkpt lat="48.39422" lon="7.26346">
        <ele>1040.6992</ele>
        <time>2026-03-19T14:52:23Z</time>
      </trkpt>
      <trkpt lat="48.39425" lon="7.26339">
        <ele>1040.6992</ele>
        <time>2026-03-19T14:52:29Z</time>
      </trkpt>
      <trkpt lat="48.39427" lon="7.26332">
        <ele>1040.6992</ele>
        <time>2026-03-19T14:52:34Z</time>
      </trkpt>
      <trkpt lat="48.3943" lon="7.26326">
        <ele>1040.6992</ele>
        <time>2026-03-19T14:52:38Z</time>
      </trkpt>
      <trkpt lat="48.39433" lon="7.26321">
        <ele>1040.6992</ele>
        <time>2026-03-19T14:52:42Z</time>
      </trkpt>
      <trkpt lat="48.39436" lon="7.26315">
        <ele>1040.6992</ele>
        <time>2026-03-19T14:52:47Z</time>
      </trkpt>
      <trkpt lat="48.3944" lon="7.2631">
        <ele>1040.6992</ele>
        <time>2026-03-19T14:52:52Z</time>
      </trkpt>
      <trkpt lat="48.39443" lon="7.26305">
        <ele>1040.6992</ele>
        <time>2026-03-19T14:52:57Z</time>
      </trkpt>
      <trkpt lat="48.39447" lon="7.263">
        <ele>1040.6992</ele>
        <time>2026-03-19T14:53:02Z</time>
      </trkpt>
      <trkpt lat="48.39451" lon="7.26294">
        <ele>1040.6992</ele>
        <time>2026-03-19T14:53:07Z</time>
      </trkpt>
      <trkpt lat="48.39454" lon="7.26289">
        <ele>1040.6992</ele>
        <time>2026-03-19T14:53:11Z</time>
      </trkpt>
      <trkpt lat="48.39459" lon="7.26284">
        <ele>1040.6992</ele>
        <time>2026-03-19T14:53:16Z</time>
      </trkpt>
      <trkpt lat="48.39463" lon="7.26278">
        <ele>1040.6992</ele>
        <time>2026-03-19T14:53:22Z</time>
      </trkpt>
      <trkpt lat="48.39463" lon="7.2627">
        <ele>1040.6992</ele>
        <time>2026-03-19T14:53:26Z</time>
      </trkpt>
      <trkpt lat="48.39462" lon="7.26263">
        <ele>1040.6992</ele>
        <time>2026-03-19T14:53:29Z</time>
      </trkpt>
      <trkpt lat="48.39462" lon="7.26256">
        <ele>1040.6992</ele>
        <time>2026-03-19T14:53:32Z</time>
      </trkpt>
      <trkpt lat="48.39465" lon="7.2625">
        <ele>1040.6992</ele>
        <time>2026-03-19T14:53:37Z</time>
      </trkpt>
      <trkpt lat="48.3947" lon="7.26246">
        <ele>1040.6992</ele>
        <time>2026-03-19T14:53:43Z</time>
      </trkpt>
      <trkpt lat="48.39474" lon="7.2624">
        <ele>1040.6992</ele>
        <time>2026-03-19T14:53:48Z</time>
      </trkpt>
      <trkpt lat="48.39478" lon="7.26236">
        <ele>1040.6992</ele>
        <time>2026-03-19T14:53:52Z</time>
      </trkpt>
      <trkpt lat="48.39481" lon="7.26231">
        <ele>1040.6992</ele>
        <time>2026-03-19T14:53:57Z</time>
      </trkpt>
      <trkpt lat="48.39487" lon="7.26228">
        <ele>1040.6992</ele>
        <time>2026-03-19T14:54:02Z</time>
      </trkpt>
      <trkpt lat="48.39491" lon="7.26223">
        <ele>1040.6992</ele>
        <time>2026-03-19T14:54:07Z</time>
      </trkpt>
      <trkpt lat="48.39497" lon="7.26223">
        <ele>1042.9978</ele>
        <time>2026-03-19T14:54:11Z</time>
      </trkpt>
      <trkpt lat="48.39502" lon="7.26221">
        <ele>1045.2964</ele>
        <time>2026-03-19T14:54:14Z</time>
      </trkpt>
      <trkpt lat="48.39507" lon="7.26219">
        <ele>1047.5951</ele>
        <time>2026-03-19T14:54:19Z</time>
      </trkpt>
      <trkpt lat="48.3951" lon="7.26213">
        <ele>1049.8937</ele>
        <time>2026-03-19T14:54:24Z</time>
      </trkpt>
      <trkpt lat="48.39513" lon="7.26207">
        <ele>1052.1923</ele>
        <time>2026-03-19T14:54:29Z</time>
      </trkpt>
      <trkpt lat="48.39517" lon="7.26201">
        <ele>1052.1923</ele>
        <time>2026-03-19T14:54:35Z</time>
      </trkpt>
      <trkpt lat="48.3952" lon="7.26195">
        <ele>1052.1923</ele>
        <time>2026-03-19T14:54:39Z</time>
      </trkpt>
      <trkpt lat="48.39523" lon="7.26188">
        <ele>1052.1923</ele>
        <time>2026-03-19T14:54:43Z</time>
      </trkpt>
      <trkpt lat="48.39525" lon="7.26181">
        <ele>1052.1923</ele>
        <time>2026-03-19T14:54:47Z</time>
      </trkpt>
      <trkpt lat="48.39525" lon="7.26173">
        <ele>1052.1923</ele>
        <time>2026-03-19T14:54:50Z</time>
      </trkpt>
      <trkpt lat="48.39526" lon="7.26166">
        <ele>1052.1923</ele>
        <time>2026-03-19T14:54:55Z</time>
      </trkpt>
      <trkpt lat="48.39527" lon="7.26159">
        <ele>1052.1923</ele>
        <time>2026-03-19T14:55:00Z</time>
      </trkpt>
      <trkpt lat="48.39529" lon="7.26153">
        <ele>1052.1923</ele>
        <time>2026-03-19T14:55:05Z</time>
      </trkpt>
      <trkpt lat="48.3953" lon="7.26146">
        <ele>1052.1923</ele>
        <time>2026-03-19T14:55:10Z</time>
      </trkpt>
      <trkpt lat="48.39532" lon="7.26138">
        <ele>1052.1923</ele>
        <time>2026-03-19T14:55:15Z</time>
      </trkpt>
      <trkpt lat="48.39533" lon="7.2613">
        <ele>1052.1923</ele>
        <time>2026-03-19T14:55:19Z</time>
      </trkpt>
      <trkpt lat="48.39535" lon="7.26123">
        <ele>1052.1923</ele>
        <time>2026-03-19T14:55:24Z</time>
      </trkpt>
      <trkpt lat="48.39536" lon="7.26116">
        <ele>1052.1923</ele>
        <time>2026-03-19T14:55:29Z</time>
      </trkpt>
      <trkpt lat="48.39538" lon="7.26109">
        <ele>1052.1923</ele>
        <time>2026-03-19T14:55:36Z</time>
      </trkpt>
      <trkpt lat="48.39539" lon="7.26102">
        <ele>1052.1923</ele>
        <time>2026-03-19T14:55:41Z</time>
      </trkpt>
      <trkpt lat="48.39541" lon="7.26094">
        <ele>1052.1923</ele>
        <time>2026-03-19T14:55:46Z</time>
      </trkpt>
      <trkpt lat="48.39542" lon="7.26086">
        <ele>1052.1923</ele>
        <time>2026-03-19T14:55:51Z</time>
      </trkpt>
      <trkpt lat="48.39541" lon="7.26079">
        <ele>1052.1923</ele>
        <time>2026-03-19T14:59:31Z</time>
      </trkpt>
      <trkpt lat="48.39542" lon="7.26085">
        <ele>1052.1923</ele>
        <time>2026-03-19T15:01:25Z</time>
      </trkpt>
      <trkpt lat="48.39544" lon="7.26077">
        <ele>1052.1923</ele>
        <time>2026-03-19T15:01:33Z</time>
      </trkpt>
      <trkpt lat="48.39545" lon="7.26069">
        <ele>1052.1923</ele>
        <time>2026-03-19T15:01:38Z</time>
      </trkpt>
      <trkpt lat="48.39547" lon="7.26062">
        <ele>1052.1923</ele>
        <time>2026-03-19T15:01:43Z</time>
      </trkpt>
      <trkpt lat="48.39549" lon="7.26055">
        <ele>1052.1923</ele>
        <time>2026-03-19T15:01:48Z</time>
      </trkpt>
      <trkpt lat="48.39549" lon="7.26048">
        <ele>1052.1923</ele>
        <time>2026-03-19T15:01:54Z</time>
      </trkpt>
      <trkpt lat="48.39549" lon="7.2604">
        <ele>1052.1923</ele>
        <time>2026-03-19T15:01:59Z</time>
      </trkpt>
      <trkpt lat="48.3955" lon="7.26032">
        <ele>1052.1923</ele>
        <time>2026-03-19T15:02:05Z</time>
      </trkpt>
      <trkpt lat="48.39551" lon="7.26025">
        <ele>1052.1923</ele>
        <time>2026-03-19T15:02:10Z</time>
      </trkpt>
      <trkpt lat="48.39551" lon="7.26018">
        <ele>1052.1923</ele>
        <time>2026-03-19T15:02:14Z</time>
      </trkpt>
      <trkpt lat="48.39552" lon="7.2601">
        <ele>1050.1119</ele>
        <time>2026-03-19T15:02:19Z</time>
      </trkpt>
      <trkpt lat="48.39552" lon="7.26003">
        <ele>1048.0315</ele>
        <time>2026-03-19T15:02:23Z</time>
      </trkpt>
      <trkpt lat="48.39552" lon="7.25994">
        <ele>1045.9512</ele>
        <time>2026-03-19T15:02:28Z</time>
      </trkpt>
      <trkpt lat="48.39552" lon="7.25987">
        <ele>1043.8707</ele>
        <time>2026-03-19T15:02:32Z</time>
      </trkpt>
      <trkpt lat="48.39552" lon="7.25979">
        <ele>1041.7904</ele>
        <time>2026-03-19T15:02:38Z</time>
      </trkpt>
      <trkpt lat="48.39552" lon="7.25972">
        <ele>1041.7904</ele>
        <time>2026-03-19T15:02:42Z</time>
      </trkpt>
      <trkpt lat="48.39552" lon="7.25966">
        <ele>1041.7904</ele>
        <time>2026-03-19T15:02:46Z</time>
      </trkpt>
      <trkpt lat="48.39553" lon="7.25958">
        <ele>1041.7904</ele>
        <time>2026-03-19T15:02:50Z</time>
      </trkpt>
      <trkpt lat="48.39553" lon="7.2595">
        <ele>1041.7904</ele>
        <time>2026-03-19T15:02:54Z</time>
      </trkpt>
      <trkpt lat="48.39553" lon="7.25943">
        <ele>1041.7904</ele>
        <time>2026-03-19T15:02:59Z</time>
      </trkpt>
      <trkpt lat="48.39554" lon="7.25935">
        <ele>1041.7904</ele>
        <time>2026-03-19T15:03:04Z</time>
      </trkpt>
      <trkpt lat="48.39554" lon="7.25927">
        <ele>1041.7904</ele>
        <time>2026-03-19T15:03:09Z</time>
      </trkpt>
      <trkpt lat="48.39555" lon="7.25919">
        <ele>1041.7904</ele>
        <time>2026-03-19T15:03:14Z</time>
      </trkpt>
      <trkpt lat="48.39555" lon="7.25911">
        <ele>1041.7904</ele>
        <time>2026-03-19T15:03:19Z</time>
      </trkpt>
      <trkpt lat="48.39555" lon="7.25903">
        <ele>1041.7904</ele>
        <time>2026-03-19T15:03:24Z</time>
      </trkpt>
      <trkpt lat="48.39556" lon="7.25896">
        <ele>1041.7904</ele>
        <time>2026-03-19T15:03:29Z</time>
      </trkpt>
      <trkpt lat="48.39557" lon="7.25888">
        <ele>1041.7904</ele>
        <time>2026-03-19T15:03:35Z</time>
      </trkpt>
      <trkpt lat="48.39558" lon="7.2588">
        <ele>1041.7904</ele>
        <time>2026-03-19T15:03:39Z</time>
      </trkpt>
      <trkpt lat="48.39559" lon="7.25872">
        <ele>1041.7904</ele>
        <time>2026-03-19T15:03:44Z</time>
      </trkpt>
      <trkpt lat="48.3956" lon="7.25865">
        <ele>1041.7904</ele>
        <time>2026-03-19T15:03:48Z</time>
      </trkpt>
      <trkpt lat="48.39561" lon="7.25857">
        <ele>1041.7904</ele>
        <time>2026-03-19T15:03:53Z</time>
      </trkpt>
      <trkpt lat="48.39562" lon="7.2585">
        <ele>1041.7904</ele>
        <time>2026-03-19T15:03:57Z</time>
      </trkpt>
      <trkpt lat="48.39563" lon="7.25843">
        <ele>1041.7904</ele>
        <time>2026-03-19T15:04:02Z</time>
      </trkpt>
      <trkpt lat="48.39564" lon="7.25836">
        <ele>1041.7904</ele>
        <time>2026-03-19T15:04:07Z</time>
      </trkpt>
      <trkpt lat="48.39565" lon="7.25828">
        <ele>1039.7548</ele>
        <time>2026-03-19T15:04:12Z</time>
      </trkpt>
      <trkpt lat="48.39567" lon="7.25821">
        <ele>1037.7191</ele>
        <time>2026-03-19T15:04:18Z</time>
      </trkpt>
      <trkpt lat="48.39568" lon="7.25814">
        <ele>1035.6833</ele>
        <time>2026-03-19T15:04:23Z</time>
      </trkpt>
      <trkpt lat="48.39569" lon="7.25807">
        <ele>1033.6477</ele>
        <time>2026-03-19T15:04:27Z</time>
      </trkpt>
      <trkpt lat="48.3957" lon="7.258">
        <ele>1031.612</ele>
        <time>2026-03-19T15:04:32Z</time>
      </trkpt>
      <trkpt lat="48.39571" lon="7.25792">
        <ele>1031.612</ele>
        <time>2026-03-19T15:04:37Z</time>
      </trkpt>
      <trkpt lat="48.39573" lon="7.25786">
        <ele>1031.612</ele>
        <time>2026-03-19T15:04:41Z</time>
      </trkpt>
      <trkpt lat="48.39573" lon="7.25778">
        <ele>1031.612</ele>
        <time>2026-03-19T15:04:46Z</time>
      </trkpt>
      <trkpt lat="48.39575" lon="7.25772">
        <ele>1031.612</ele>
        <time>2026-03-19T15:04:51Z</time>
      </trkpt>
      <trkpt lat="48.39576" lon="7.25765">
        <ele>1031.612</ele>
        <time>2026-03-19T15:04:56Z</time>
      </trkpt>
      <trkpt lat="48.39577" lon="7.25758">
        <ele>1031.612</ele>
        <time>2026-03-19T15:05:01Z</time>
      </trkpt>
      <trkpt lat="48.39578" lon="7.2575">
        <ele>1031.612</ele>
        <time>2026-03-19T15:05:05Z</time>
      </trkpt>
      <trkpt lat="48.39579" lon="7.25743">
        <ele>1031.612</ele>
        <time>2026-03-19T15:05:10Z</time>
      </trkpt>
      <trkpt lat="48.39581" lon="7.25735">
        <ele>1031.612</ele>
        <time>2026-03-19T15:05:15Z</time>
      </trkpt>
      <trkpt lat="48.39582" lon="7.25728">
        <ele>1031.612</ele>
        <time>2026-03-19T15:05:21Z</time>
      </trkpt>
      <trkpt lat="48.39583" lon="7.25721">
        <ele>1031.612</ele>
        <time>2026-03-19T15:05:26Z</time>
      </trkpt>
      <trkpt lat="48.39584" lon="7.25714">
        <ele>1031.612</ele>
        <time>2026-03-19T15:05:30Z</time>
      </trkpt>
      <trkpt lat="48.39586" lon="7.25706">
        <ele>1031.612</ele>
        <time>2026-03-19T15:05:35Z</time>
      </trkpt>
      <trkpt lat="48.39588" lon="7.25699">
        <ele>1031.612</ele>
        <time>2026-03-19T15:05:40Z</time>
      </trkpt>
      <trkpt lat="48.39592" lon="7.25694">
        <ele>1031.612</ele>
        <time>2026-03-19T15:05:45Z</time>
      </trkpt>
      <trkpt lat="48.39595" lon="7.25689">
        <ele>1031.612</ele>
        <time>2026-03-19T15:05:49Z</time>
      </trkpt>
      <trkpt lat="48.39599" lon="7.25685">
        <ele>1031.612</ele>
        <time>2026-03-19T15:06:08Z</time>
      </trkpt>
      <trkpt lat="48.39604" lon="7.25683">
        <ele>1031.612</ele>
        <time>2026-03-19T15:06:16Z</time>
      </trkpt>
      <trkpt lat="48.39609" lon="7.25681">
        <ele>1031.612</ele>
        <time>2026-03-19T15:06:21Z</time>
      </trkpt>
      <trkpt lat="48.39614" lon="7.25679">
        <ele>1031.612</ele>
        <time>2026-03-19T15:06:26Z</time>
      </trkpt>
      <trkpt lat="48.39618" lon="7.25677">
        <ele>1031.612</ele>
        <time>2026-03-19T15:06:32Z</time>
      </trkpt>
      <trkpt lat="48.39623" lon="7.25675">
        <ele>1031.612</ele>
        <time>2026-03-19T15:06:37Z</time>
      </trkpt>
      <trkpt lat="48.39628" lon="7.25674">
        <ele>1031.612</ele>
        <time>2026-03-19T15:06:42Z</time>
      </trkpt>
      <trkpt lat="48.39632" lon="7.25673">
        <ele>1031.612</ele>
        <time>2026-03-19T15:06:47Z</time>
      </trkpt>
      <trkpt lat="48.39637" lon="7.25671">
        <ele>1031.612</ele>
        <time>2026-03-19T15:06:51Z</time>
      </trkpt>
      <trkpt lat="48.39643" lon="7.2567">
        <ele>1031.612</ele>
        <time>2026-03-19T15:06:56Z</time>
      </trkpt>
      <trkpt lat="48.39647" lon="7.2567">
        <ele>1031.612</ele>
        <time>2026-03-19T15:07:01Z</time>
      </trkpt>
      <trkpt lat="48.39652" lon="7.25669">
        <ele>1031.612</ele>
        <time>2026-03-19T15:07:05Z</time>
      </trkpt>
      <trkpt lat="48.39657" lon="7.25668">
        <ele>1031.612</ele>
        <time>2026-03-19T15:07:10Z</time>
      </trkpt>
      <trkpt lat="48.39662" lon="7.25667">
        <ele>1031.612</ele>
        <time>2026-03-19T15:07:14Z</time>
      </trkpt>
      <trkpt lat="48.39666" lon="7.25666">
        <ele>1031.612</ele>
        <time>2026-03-19T15:07:18Z</time>
      </trkpt>
      <trkpt lat="48.39671" lon="7.25664">
        <ele>1031.612</ele>
        <time>2026-03-19T15:07:23Z</time>
      </trkpt>
      <trkpt lat="48.39676" lon="7.25662">
        <ele>1031.612</ele>
        <time>2026-03-19T15:07:28Z</time>
      </trkpt>
      <trkpt lat="48.39681" lon="7.2566">
        <ele>1031.612</ele>
        <time>2026-03-19T15:07:33Z</time>
      </trkpt>
      <trkpt lat="48.39686" lon="7.25658">
        <ele>1031.612</ele>
        <time>2026-03-19T15:07:38Z</time>
      </trkpt>
      <trkpt lat="48.3969" lon="7.25656">
        <ele>1031.612</ele>
        <time>2026-03-19T15:07:42Z</time>
      </trkpt>
      <trkpt lat="48.39695" lon="7.25654">
        <ele>1031.612</ele>
        <time>2026-03-19T15:07:51Z</time>
      </trkpt>
      <trkpt lat="48.39699" lon="7.25651">
        <ele>1031.612</ele>
        <time>2026-03-19T15:07:56Z</time>
      </trkpt>
      <trkpt lat="48.39704" lon="7.25648">
        <ele>1031.612</ele>
        <time>2026-03-19T15:08:01Z</time>
      </trkpt>
      <trkpt lat="48.39708" lon="7.25645">
        <ele>1031.612</ele>
        <time>2026-03-19T15:08:06Z</time>
      </trkpt>
      <trkpt lat="48.39713" lon="7.25641">
        <ele>1031.612</ele>
        <time>2026-03-19T15:08:12Z</time>
      </trkpt>
      <trkpt lat="48.39717" lon="7.25637">
        <ele>1031.612</ele>
        <time>2026-03-19T15:08:18Z</time>
      </trkpt>
      <trkpt lat="48.39721" lon="7.25633">
        <ele>1031.612</ele>
        <time>2026-03-19T15:08:24Z</time>
      </trkpt>
      <trkpt lat="48.39726" lon="7.25629">
        <ele>1031.612</ele>
        <time>2026-03-19T15:08:29Z</time>
      </trkpt>
      <trkpt lat="48.3973" lon="7.25625">
        <ele>1031.612</ele>
        <time>2026-03-19T15:08:34Z</time>
      </trkpt>
      <trkpt lat="48.39734" lon="7.25621">
        <ele>1031.612</ele>
        <time>2026-03-19T15:08:39Z</time>
      </trkpt>
      <trkpt lat="48.39739" lon="7.25617">
        <ele>1031.612</ele>
        <time>2026-03-19T15:08:42Z</time>
      </trkpt>
      <trkpt lat="48.39743" lon="7.25613">
        <ele>1031.612</ele>
        <time>2026-03-19T15:08:47Z</time>
      </trkpt>
      <trkpt lat="48.39747" lon="7.25609">
        <ele>1031.612</ele>
        <time>2026-03-19T15:08:51Z</time>
      </trkpt>
      <trkpt lat="48.39751" lon="7.25605">
        <ele>1031.612</ele>
        <time>2026-03-19T15:08:56Z</time>
      </trkpt>
      <trkpt lat="48.39756" lon="7.25601">
        <ele>1031.612</ele>
        <time>2026-03-19T15:09:01Z</time>
      </trkpt>
      <trkpt lat="48.39761" lon="7.25599">
        <ele>1031.612</ele>
        <time>2026-03-19T15:09:06Z</time>
      </trkpt>
      <trkpt lat="48.39767" lon="7.25596">
        <ele>1031.612</ele>
        <time>2026-03-19T15:09:11Z</time>
      </trkpt>
      <trkpt lat="48.39772" lon="7.25595">
        <ele>1031.612</ele>
        <time>2026-03-19T15:09:17Z</time>
      </trkpt>
      <trkpt lat="48.39777" lon="7.25594">
        <ele>1031.612</ele>
        <time>2026-03-19T15:09:22Z</time>
      </trkpt>
      <trkpt lat="48.39782" lon="7.25593">
        <ele>1031.612</ele>
        <time>2026-03-19T15:09:28Z</time>
      </trkpt>
      <trkpt lat="48.39787" lon="7.25592">
        <ele>1031.612</ele>
        <time>2026-03-19T15:09:33Z</time>
      </trkpt>
      <trkpt lat="48.39792" lon="7.25591">
        <ele>1031.612</ele>
        <time>2026-03-19T15:09:38Z</time>
      </trkpt>
      <trkpt lat="48.39797" lon="7.2559">
        <ele>1031.612</ele>
        <time>2026-03-19T15:09:43Z</time>
      </trkpt>
      <trkpt lat="48.39803" lon="7.25589">
        <ele>1031.612</ele>
        <time>2026-03-19T15:09:49Z</time>
      </trkpt>
      <trkpt lat="48.39808" lon="7.25588">
        <ele>1031.612</ele>
        <time>2026-03-19T15:09:55Z</time>
      </trkpt>
      <trkpt lat="48.39813" lon="7.25586">
        <ele>1031.612</ele>
        <time>2026-03-19T15:09:59Z</time>
      </trkpt>
      <trkpt lat="48.39819" lon="7.25584">
        <ele>1031.612</ele>
        <time>2026-03-19T15:10:04Z</time>
      </trkpt>
      <trkpt lat="48.39824" lon="7.25582">
        <ele>1031.612</ele>
        <time>2026-03-19T15:10:09Z</time>
      </trkpt>
      <trkpt lat="48.39829" lon="7.25581">
        <ele>1031.612</ele>
        <time>2026-03-19T15:10:14Z</time>
      </trkpt>
      <trkpt lat="48.39834" lon="7.25578">
        <ele>1031.612</ele>
        <time>2026-03-19T15:10:19Z</time>
      </trkpt>
      <trkpt lat="48.39838" lon="7.25575">
        <ele>1031.612</ele>
        <time>2026-03-19T15:10:24Z</time>
      </trkpt>
      <trkpt lat="48.39842" lon="7.25573">
        <ele>1031.612</ele>
        <time>2026-03-19T15:10:30Z</time>
      </trkpt>
      <trkpt lat="48.39848" lon="7.2557">
        <ele>1031.612</ele>
        <time>2026-03-19T15:10:36Z</time>
      </trkpt>
      <trkpt lat="48.39852" lon="7.25567">
        <ele>1031.612</ele>
        <time>2026-03-19T15:10:40Z</time>
      </trkpt>
      <trkpt lat="48.39856" lon="7.25563">
        <ele>1031.612</ele>
        <time>2026-03-19T15:10:45Z</time>
      </trkpt>
      <trkpt lat="48.39861" lon="7.2556">
        <ele>1031.612</ele>
        <time>2026-03-19T15:10:51Z</time>
      </trkpt>
      <trkpt lat="48.39864" lon="7.25557">
        <ele>1031.612</ele>
        <time>2026-03-19T15:10:57Z</time>
      </trkpt>
      <trkpt lat="48.39868" lon="7.25553">
        <ele>1031.612</ele>
        <time>2026-03-19T15:11:18Z</time>
      </trkpt>
      <trkpt lat="48.39872" lon="7.25549">
        <ele>1031.612</ele>
        <time>2026-03-19T15:11:30Z</time>
      </trkpt>
      <trkpt lat="48.39874" lon="7.25542">
        <ele>1031.612</ele>
        <time>2026-03-19T15:11:34Z</time>
      </trkpt>
      <trkpt lat="48.39877" lon="7.25535">
        <ele>1031.612</ele>
        <time>2026-03-19T15:11:39Z</time>
      </trkpt>
      <trkpt lat="48.3988" lon="7.2553">
        <ele>1031.612</ele>
        <time>2026-03-19T15:11:43Z</time>
      </trkpt>
      <trkpt lat="48.39885" lon="7.25528">
        <ele>1031.612</ele>
        <time>2026-03-19T15:11:47Z</time>
      </trkpt>
      <trkpt lat="48.3989" lon="7.25523">
        <ele>1031.612</ele>
        <time>2026-03-19T15:11:51Z</time>
      </trkpt>
      <trkpt lat="48.39893" lon="7.25519">
        <ele>1031.612</ele>
        <time>2026-03-19T15:11:55Z</time>
      </trkpt>
      <trkpt lat="48.39896" lon="7.25514">
        <ele>1031.612</ele>
        <time>2026-03-19T15:11:59Z</time>
      </trkpt>
      <trkpt lat="48.399" lon="7.25508">
        <ele>1031.612</ele>
        <time>2026-03-19T15:12:03Z</time>
      </trkpt>
      <trkpt lat="48.39904" lon="7.25502">
        <ele>1031.612</ele>
        <time>2026-03-19T15:12:08Z</time>
      </trkpt>
      <trkpt lat="48.39907" lon="7.25496">
        <ele>1031.612</ele>
        <time>2026-03-19T15:12:13Z</time>
      </trkpt>
      <trkpt lat="48.39911" lon="7.25489">
        <ele>1031.612</ele>
        <time>2026-03-19T15:12:17Z</time>
      </trkpt>
      <trkpt lat="48.39914" lon="7.25483">
        <ele>1031.612</ele>
        <time>2026-03-19T15:12:22Z</time>
      </trkpt>
      <trkpt lat="48.39917" lon="7.25477">
        <ele>1031.612</ele>
        <time>2026-03-19T15:12:27Z</time>
      </trkpt>
      <trkpt lat="48.3992" lon="7.25472">
        <ele>1031.612</ele>
        <time>2026-03-19T15:12:32Z</time>
      </trkpt>
      <trkpt lat="48.39923" lon="7.25465">
        <ele>1031.612</ele>
        <time>2026-03-19T15:12:37Z</time>
      </trkpt>
      <trkpt lat="48.39926" lon="7.2546">
        <ele>1031.612</ele>
        <time>2026-03-19T15:12:42Z</time>
      </trkpt>
      <trkpt lat="48.3993" lon="7.25455">
        <ele>1031.612</ele>
        <time>2026-03-19T15:12:49Z</time>
      </trkpt>
      <trkpt lat="48.39933" lon="7.25447">
        <ele>1031.612</ele>
        <time>2026-03-19T15:12:55Z</time>
      </trkpt>
      <trkpt lat="48.39936" lon="7.25441">
        <ele>1031.612</ele>
        <time>2026-03-19T15:13:01Z</time>
      </trkpt>
      <trkpt lat="48.39938" lon="7.25435">
        <ele>1031.612</ele>
        <time>2026-03-19T15:13:06Z</time>
      </trkpt>
      <trkpt lat="48.39941" lon="7.25428">
        <ele>1031.612</ele>
        <time>2026-03-19T15:13:11Z</time>
      </trkpt>
      <trkpt lat="48.39944" lon="7.25421">
        <ele>1031.612</ele>
        <time>2026-03-19T15:13:16Z</time>
      </trkpt>
      <trkpt lat="48.39946" lon="7.25415">
        <ele>1031.612</ele>
        <time>2026-03-19T15:13:20Z</time>
      </trkpt>
      <trkpt lat="48.39949" lon="7.25408">
        <ele>1031.612</ele>
        <time>2026-03-19T15:13:26Z</time>
      </trkpt>
      <trkpt lat="48.39954" lon="7.25405">
        <ele>1031.612</ele>
        <time>2026-03-19T15:13:30Z</time>
      </trkpt>
      <trkpt lat="48.39957" lon="7.25402">
        <ele>1031.612</ele>
        <time>2026-03-19T15:13:34Z</time>
      </trkpt>
      <trkpt lat="48.39962" lon="7.25398">
        <ele>1031.612</ele>
        <time>2026-03-19T15:13:39Z</time>
      </trkpt>
      <trkpt lat="48.39966" lon="7.25393">
        <ele>1031.612</ele>
        <time>2026-03-19T15:13:44Z</time>
      </trkpt>
      <trkpt lat="48.3997" lon="7.25389">
        <ele>1031.612</ele>
        <time>2026-03-19T15:13:49Z</time>
      </trkpt>
      <trkpt lat="48.39973" lon="7.25384">
        <ele>1031.612</ele>
        <time>2026-03-19T15:13:53Z</time>
      </trkpt>
      <trkpt lat="48.39977" lon="7.2538">
        <ele>1031.612</ele>
        <time>2026-03-19T15:13:58Z</time>
      </trkpt>
      <trkpt lat="48.39981" lon="7.25375">
        <ele>1031.612</ele>
        <time>2026-03-19T15:14:03Z</time>
      </trkpt>
      <trkpt lat="48.39985" lon="7.2537">
        <ele>1031.612</ele>
        <time>2026-03-19T15:14:08Z</time>
      </trkpt>
      <trkpt lat="48.3999" lon="7.25365">
        <ele>1031.612</ele>
        <time>2026-03-19T15:14:12Z</time>
      </trkpt>
      <trkpt lat="48.39994" lon="7.2536">
        <ele>1031.612</ele>
        <time>2026-03-19T15:14:17Z</time>
      </trkpt>
      <trkpt lat="48.39998" lon="7.25355">
        <ele>1031.612</ele>
        <time>2026-03-19T15:14:22Z</time>
      </trkpt>
      <trkpt lat="48.40002" lon="7.25351">
        <ele>1031.612</ele>
        <time>2026-03-19T15:14:27Z</time>
      </trkpt>
      <trkpt lat="48.40006" lon="7.25346">
        <ele>1031.612</ele>
        <time>2026-03-19T15:14:33Z</time>
      </trkpt>
      <trkpt lat="48.40009" lon="7.25342">
        <ele>1031.612</ele>
        <time>2026-03-19T15:14:37Z</time>
      </trkpt>
      <trkpt lat="48.40014" lon="7.25336">
        <ele>1031.612</ele>
        <time>2026-03-19T15:14:47Z</time>
      </trkpt>
      <trkpt lat="48.40017" lon="7.25332">
        <ele>1031.612</ele>
        <time>2026-03-19T15:14:52Z</time>
      </trkpt>
      <trkpt lat="48.40021" lon="7.25328">
        <ele>1031.612</ele>
        <time>2026-03-19T15:14:57Z</time>
      </trkpt>
      <trkpt lat="48.40025" lon="7.25323">
        <ele>1031.612</ele>
        <time>2026-03-19T15:15:06Z</time>
      </trkpt>
      <trkpt lat="48.4003" lon="7.25319">
        <ele>1031.612</ele>
        <time>2026-03-19T15:15:24Z</time>
      </trkpt>
      <trkpt lat="48.40034" lon="7.25314">
        <ele>1031.612</ele>
        <time>2026-03-19T15:15:30Z</time>
      </trkpt>
      <trkpt lat="48.40038" lon="7.2531">
        <ele>1031.612</ele>
        <time>2026-03-19T15:15:35Z</time>
      </trkpt>
      <trkpt lat="48.40043" lon="7.25306">
        <ele>1031.612</ele>
        <time>2026-03-19T15:15:40Z</time>
      </trkpt>
      <trkpt lat="48.40047" lon="7.25303">
        <ele>1031.612</ele>
        <time>2026-03-19T15:15:45Z</time>
      </trkpt>
      <trkpt lat="48.40052" lon="7.25299">
        <ele>1031.612</ele>
        <time>2026-03-19T15:15:51Z</time>
      </trkpt>
      <trkpt lat="48.40056" lon="7.25296">
        <ele>1031.612</ele>
        <time>2026-03-19T15:15:57Z</time>
      </trkpt>
      <trkpt lat="48.4006" lon="7.25293">
        <ele>1031.612</ele>
        <time>2026-03-19T15:16:02Z</time>
      </trkpt>
      <trkpt lat="48.40065" lon="7.2529">
        <ele>1031.612</ele>
        <time>2026-03-19T15:16:07Z</time>
      </trkpt>
      <trkpt lat="48.40069" lon="7.25286">
        <ele>1031.612</ele>
        <time>2026-03-19T15:16:12Z</time>
      </trkpt>
      <trkpt lat="48.40074" lon="7.25284">
        <ele>1031.612</ele>
        <time>2026-03-19T15:16:17Z</time>
      </trkpt>
      <trkpt lat="48.40078" lon="7.25281">
        <ele>1031.612</ele>
        <time>2026-03-19T15:16:21Z</time>
      </trkpt>
      <trkpt lat="48.40082" lon="7.25279">
        <ele>1031.612</ele>
        <time>2026-03-19T15:16:25Z</time>
      </trkpt>
      <trkpt lat="48.40087" lon="7.25276">
        <ele>1031.612</ele>
        <time>2026-03-19T15:16:29Z</time>
      </trkpt>
      <trkpt lat="48.40091" lon="7.25273">
        <ele>1031.612</ele>
        <time>2026-03-19T15:16:33Z</time>
      </trkpt>
      <trkpt lat="48.40096" lon="7.2527">
        <ele>1031.612</ele>
        <time>2026-03-19T15:16:38Z</time>
      </trkpt>
      <trkpt lat="48.40101" lon="7.25268">
        <ele>1031.612</ele>
        <time>2026-03-19T15:16:43Z</time>
      </trkpt>
      <trkpt lat="48.40105" lon="7.25265">
        <ele>1031.612</ele>
        <time>2026-03-19T15:16:47Z</time>
      </trkpt>
      <trkpt lat="48.40109" lon="7.25263">
        <ele>1031.612</ele>
        <time>2026-03-19T15:16:52Z</time>
      </trkpt>
      <trkpt lat="48.40114" lon="7.2526">
        <ele>1031.612</ele>
        <time>2026-03-19T15:16:56Z</time>
      </trkpt>
      <trkpt lat="48.40118" lon="7.25258">
        <ele>1031.612</ele>
        <time>2026-03-19T15:17:01Z</time>
      </trkpt>
      <trkpt lat="48.40123" lon="7.25255">
        <ele>1031.612</ele>
        <time>2026-03-19T15:17:07Z</time>
      </trkpt>
      <trkpt lat="48.40127" lon="7.25253">
        <ele>1031.612</ele>
        <time>2026-03-19T15:17:13Z</time>
      </trkpt>
      <trkpt lat="48.40131" lon="7.25249">
        <ele>1031.612</ele>
        <time>2026-03-19T15:17:19Z</time>
      </trkpt>
      <trkpt lat="48.40136" lon="7.25248">
        <ele>1031.612</ele>
        <time>2026-03-19T15:17:26Z</time>
      </trkpt>
      <trkpt lat="48.4014" lon="7.25243">
        <ele>1031.612</ele>
        <time>2026-03-19T15:17:33Z</time>
      </trkpt>
      <trkpt lat="48.40141" lon="7.25234">
        <ele>1031.612</ele>
        <time>2026-03-19T15:17:37Z</time>
      </trkpt>
      <trkpt lat="48.40141" lon="7.25223">
        <ele>1031.612</ele>
        <time>2026-03-19T15:17:40Z</time>
      </trkpt>
      <trkpt lat="48.40145" lon="7.25218">
        <ele>1031.612</ele>
        <time>2026-03-19T15:17:45Z</time>
      </trkpt>
      <trkpt lat="48.40148" lon="7.25213">
        <ele>1031.612</ele>
        <time>2026-03-19T15:17:49Z</time>
      </trkpt>
      <trkpt lat="48.40151" lon="7.25208">
        <ele>1031.612</ele>
        <time>2026-03-19T15:17:53Z</time>
      </trkpt>
      <trkpt lat="48.40154" lon="7.25202">
        <ele>1031.612</ele>
        <time>2026-03-19T15:17:58Z</time>
      </trkpt>
      <trkpt lat="48.40158" lon="7.25195">
        <ele>1031.612</ele>
        <time>2026-03-19T15:18:03Z</time>
      </trkpt>
      <trkpt lat="48.4016" lon="7.2519">
        <ele>1031.612</ele>
        <time>2026-03-19T15:18:07Z</time>
      </trkpt>
      <trkpt lat="48.40163" lon="7.25184">
        <ele>1031.612</ele>
        <time>2026-03-19T15:18:12Z</time>
      </trkpt>
      <trkpt lat="48.40167" lon="7.25177">
        <ele>1031.612</ele>
        <time>2026-03-19T15:18:17Z</time>
      </trkpt>
      <trkpt lat="48.40171" lon="7.25172">
        <ele>1031.612</ele>
        <time>2026-03-19T15:18:22Z</time>
      </trkpt>
      <trkpt lat="48.40175" lon="7.25167">
        <ele>1031.612</ele>
        <time>2026-03-19T15:18:27Z</time>
      </trkpt>
      <trkpt lat="48.40179" lon="7.25164">
        <ele>1031.612</ele>
        <time>2026-03-19T15:18:31Z</time>
      </trkpt>
      <trkpt lat="48.40183" lon="7.25162">
        <ele>1031.612</ele>
        <time>2026-03-19T15:18:36Z</time>
      </trkpt>
      <trkpt lat="48.40189" lon="7.25161">
        <ele>1031.612</ele>
        <time>2026-03-19T15:18:41Z</time>
      </trkpt>
      <trkpt lat="48.40194" lon="7.2516">
        <ele>1031.612</ele>
        <time>2026-03-19T15:18:45Z</time>
      </trkpt>
      <trkpt lat="48.40199" lon="7.25161">
        <ele>1031.612</ele>
        <time>2026-03-19T15:18:50Z</time>
      </trkpt>
      <trkpt lat="48.40203" lon="7.25161">
        <ele>1031.612</ele>
        <time>2026-03-19T15:18:54Z</time>
      </trkpt>
      <trkpt lat="48.40209" lon="7.25162">
        <ele>1031.612</ele>
        <time>2026-03-19T15:18:59Z</time>
      </trkpt>
      <trkpt lat="48.40213" lon="7.25164">
        <ele>1031.612</ele>
        <time>2026-03-19T15:19:03Z</time>
      </trkpt>
      <trkpt lat="48.40219" lon="7.25165">
        <ele>1031.612</ele>
        <time>2026-03-19T15:19:08Z</time>
      </trkpt>
      <trkpt lat="48.40224" lon="7.25167">
        <ele>1031.612</ele>
        <time>2026-03-19T15:19:13Z</time>
      </trkpt>
      <trkpt lat="48.40228" lon="7.25169">
        <ele>1031.612</ele>
        <time>2026-03-19T15:19:18Z</time>
      </trkpt>
      <trkpt lat="48.40234" lon="7.25172">
        <ele>1031.612</ele>
        <time>2026-03-19T15:19:23Z</time>
      </trkpt>
      <trkpt lat="48.40238" lon="7.25175">
        <ele>1031.612</ele>
        <time>2026-03-19T15:19:28Z</time>
      </trkpt>
      <trkpt lat="48.40243" lon="7.25178">
        <ele>1031.612</ele>
        <time>2026-03-19T15:19:32Z</time>
      </trkpt>
      <trkpt lat="48.40247" lon="7.25182">
        <ele>1031.612</ele>
        <time>2026-03-19T15:19:37Z</time>
      </trkpt>
      <trkpt lat="48.40252" lon="7.25186">
        <ele>1031.612</ele>
        <time>2026-03-19T15:19:42Z</time>
      </trkpt>
      <trkpt lat="48.40257" lon="7.2519">
        <ele>1031.612</ele>
        <time>2026-03-19T15:19:47Z</time>
      </trkpt>
      <trkpt lat="48.40261" lon="7.25193">
        <ele>1031.612</ele>
        <time>2026-03-19T15:19:52Z</time>
      </trkpt>
      <trkpt lat="48.40266" lon="7.25197">
        <ele>1031.612</ele>
        <time>2026-03-19T15:19:58Z</time>
      </trkpt>
      <trkpt lat="48.4027" lon="7.25201">
        <ele>1031.612</ele>
        <time>2026-03-19T15:20:02Z</time>
      </trkpt>
      <trkpt lat="48.40275" lon="7.25205">
        <ele>1031.612</ele>
        <time>2026-03-19T15:20:07Z</time>
      </trkpt>
      <trkpt lat="48.4028" lon="7.25209">
        <ele>1031.612</ele>
        <time>2026-03-19T15:20:11Z</time>
      </trkpt>
      <trkpt lat="48.40284" lon="7.25212">
        <ele>1031.612</ele>
        <time>2026-03-19T15:20:14Z</time>
      </trkpt>
      <trkpt lat="48.40288" lon="7.25216">
        <ele>1031.612</ele>
        <time>2026-03-19T15:20:18Z</time>
      </trkpt>
      <trkpt lat="48.40293" lon="7.25222">
        <ele>1031.612</ele>
        <time>2026-03-19T15:20:22Z</time>
      </trkpt>
      <trkpt lat="48.40297" lon="7.25226">
        <ele>1031.612</ele>
        <time>2026-03-19T15:20:29Z</time>
      </trkpt>
      <trkpt lat="48.40301" lon="7.25229">
        <ele>1029.6061</ele>
        <time>2026-03-19T15:20:33Z</time>
      </trkpt>
      <trkpt lat="48.40306" lon="7.25233">
        <ele>1027.6001</ele>
        <time>2026-03-19T15:20:38Z</time>
      </trkpt>
      <trkpt lat="48.40311" lon="7.25237">
        <ele>1025.5941</ele>
        <time>2026-03-19T15:20:42Z</time>
      </trkpt>
      <trkpt lat="48.40315" lon="7.2524">
        <ele>1023.58813</ele>
        <time>2026-03-19T15:20:46Z</time>
      </trkpt>
      <trkpt lat="48.4032" lon="7.25244">
        <ele>1021.58215</ele>
        <time>2026-03-19T15:20:50Z</time>
      </trkpt>
      <trkpt lat="48.40324" lon="7.25247">
        <ele>1021.58215</ele>
        <time>2026-03-19T15:20:55Z</time>
      </trkpt>
      <trkpt lat="48.40329" lon="7.2525">
        <ele>1021.58215</ele>
        <time>2026-03-19T15:21:01Z</time>
      </trkpt>
      <trkpt lat="48.40334" lon="7.25252">
        <ele>1021.58215</ele>
        <time>2026-03-19T15:21:06Z</time>
      </trkpt>
      <trkpt lat="48.40338" lon="7.25255">
        <ele>1021.58215</ele>
        <time>2026-03-19T15:21:10Z</time>
      </trkpt>
      <trkpt lat="48.40343" lon="7.25257">
        <ele>1021.58215</ele>
        <time>2026-03-19T15:21:15Z</time>
      </trkpt>
      <trkpt lat="48.40348" lon="7.25259">
        <ele>1021.58215</ele>
        <time>2026-03-19T15:21:20Z</time>
      </trkpt>
      <trkpt lat="48.40353" lon="7.25262">
        <ele>1021.58215</ele>
        <time>2026-03-19T15:21:26Z</time>
      </trkpt>
      <trkpt lat="48.40358" lon="7.25264">
        <ele>1021.58215</ele>
        <time>2026-03-19T15:21:30Z</time>
      </trkpt>
      <trkpt lat="48.40363" lon="7.25266">
        <ele>1021.58215</ele>
        <time>2026-03-19T15:21:34Z</time>
      </trkpt>
      <trkpt lat="48.40367" lon="7.25268">
        <ele>1021.58215</ele>
        <time>2026-03-19T15:21:39Z</time>
      </trkpt>
      <trkpt lat="48.40372" lon="7.2527">
        <ele>1021.58215</ele>
        <time>2026-03-19T15:21:43Z</time>
      </trkpt>
      <trkpt lat="48.40376" lon="7.25274">
        <ele>1021.58215</ele>
        <time>2026-03-19T15:21:53Z</time>
      </trkpt>
      <trkpt lat="48.40381" lon="7.25276">
        <ele>1021.58215</ele>
        <time>2026-03-19T15:22:23Z</time>
      </trkpt>
      <trkpt lat="48.40384" lon="7.25281">
        <ele>1021.58215</ele>
        <time>2026-03-19T15:22:28Z</time>
      </trkpt>
      <trkpt lat="48.40389" lon="7.25284">
        <ele>1021.58215</ele>
        <time>2026-03-19T15:22:32Z</time>
      </trkpt>
      <trkpt lat="48.40393" lon="7.25289">
        <ele>1021.58215</ele>
        <time>2026-03-19T15:22:37Z</time>
      </trkpt>
      <trkpt lat="48.40398" lon="7.25293">
        <ele>1021.58215</ele>
        <time>2026-03-19T15:22:42Z</time>
      </trkpt>
      <trkpt lat="48.40402" lon="7.25298">
        <ele>1021.58215</ele>
        <time>2026-03-19T15:22:47Z</time>
      </trkpt>
      <trkpt lat="48.40406" lon="7.25302">
        <ele>1021.58215</ele>
        <time>2026-03-19T15:22:51Z</time>
      </trkpt>
      <trkpt lat="48.4041" lon="7.25306">
        <ele>1021.58215</ele>
        <time>2026-03-19T15:22:55Z</time>
      </trkpt>
      <trkpt lat="48.40414" lon="7.2531">
        <ele>1021.58215</ele>
        <time>2026-03-19T15:23:01Z</time>
      </trkpt>
      <trkpt lat="48.40419" lon="7.25314">
        <ele>1021.58215</ele>
        <time>2026-03-19T15:23:06Z</time>
      </trkpt>
      <trkpt lat="48.40424" lon="7.25318">
        <ele>1021.58215</ele>
        <time>2026-03-19T15:23:11Z</time>
      </trkpt>
      <trkpt lat="48.40428" lon="7.25322">
        <ele>1021.58215</ele>
        <time>2026-03-19T15:23:16Z</time>
      </trkpt>
      <trkpt lat="48.40432" lon="7.25325">
        <ele>1021.58215</ele>
        <time>2026-03-19T15:23:21Z</time>
      </trkpt>
      <trkpt lat="48.40437" lon="7.25327">
        <ele>1021.58215</ele>
        <time>2026-03-19T15:23:25Z</time>
      </trkpt>
      <trkpt lat="48.40442" lon="7.2533">
        <ele>1021.58215</ele>
        <time>2026-03-19T15:23:30Z</time>
      </trkpt>
      <trkpt lat="48.40447" lon="7.25334">
        <ele>1021.58215</ele>
        <time>2026-03-19T15:23:35Z</time>
      </trkpt>
      <trkpt lat="48.40451" lon="7.25337">
        <ele>1021.58215</ele>
        <time>2026-03-19T15:23:39Z</time>
      </trkpt>
      <trkpt lat="48.40456" lon="7.25339">
        <ele>1021.58215</ele>
        <time>2026-03-19T15:23:44Z</time>
      </trkpt>
      <trkpt lat="48.40461" lon="7.25341">
        <ele>1021.58215</ele>
        <time>2026-03-19T15:23:49Z</time>
      </trkpt>
      <trkpt lat="48.40466" lon="7.25343">
        <ele>1021.58215</ele>
        <time>2026-03-19T15:23:54Z</time>
      </trkpt>
      <trkpt lat="48.4047" lon="7.25345">
        <ele>1021.58215</ele>
        <time>2026-03-19T15:23:58Z</time>
      </trkpt>
      <trkpt lat="48.40476" lon="7.25347">
        <ele>1021.58215</ele>
        <time>2026-03-19T15:24:04Z</time>
      </trkpt>
      <trkpt lat="48.4048" lon="7.25348">
        <ele>1021.58215</ele>
        <time>2026-03-19T15:24:08Z</time>
      </trkpt>
      <trkpt lat="48.40485" lon="7.25349">
        <ele>1021.58215</ele>
        <time>2026-03-19T15:24:12Z</time>
      </trkpt>
      <trkpt lat="48.4049" lon="7.2535">
        <ele>1021.58215</ele>
        <time>2026-03-19T15:24:17Z</time>
      </trkpt>
      <trkpt lat="48.40496" lon="7.25352">
        <ele>1021.58215</ele>
        <time>2026-03-19T15:24:26Z</time>
      </trkpt>
      <trkpt lat="48.40501" lon="7.25353">
        <ele>1021.58215</ele>
        <time>2026-03-19T15:24:31Z</time>
      </trkpt>
      <trkpt lat="48.40506" lon="7.25354">
        <ele>1021.58215</ele>
        <time>2026-03-19T15:24:36Z</time>
      </trkpt>
      <trkpt lat="48.40511" lon="7.25355">
        <ele>1021.58215</ele>
        <time>2026-03-19T15:24:40Z</time>
      </trkpt>
      <trkpt lat="48.40516" lon="7.25356">
        <ele>1021.58215</ele>
        <time>2026-03-19T15:24:44Z</time>
      </trkpt>
      <trkpt lat="48.40521" lon="7.25356">
        <ele>1021.58215</ele>
        <time>2026-03-19T15:24:48Z</time>
      </trkpt>
      <trkpt lat="48.40525" lon="7.25357">
        <ele>1021.58215</ele>
        <time>2026-03-19T15:24:53Z</time>
      </trkpt>
      <trkpt lat="48.4053" lon="7.25358">
        <ele>1021.58215</ele>
        <time>2026-03-19T15:24:57Z</time>
      </trkpt>
      <trkpt lat="48.40535" lon="7.25359">
        <ele>1021.58215</ele>
        <time>2026-03-19T15:25:02Z</time>
      </trkpt>
      <trkpt lat="48.4054" lon="7.2536">
        <ele>1021.58215</ele>
        <time>2026-03-19T15:25:07Z</time>
      </trkpt>
      <trkpt lat="48.40546" lon="7.25361">
        <ele>1021.58215</ele>
        <time>2026-03-19T15:25:14Z</time>
      </trkpt>
      <trkpt lat="48.4055" lon="7.25361">
        <ele>1021.58215</ele>
        <time>2026-03-19T15:25:19Z</time>
      </trkpt>
      <trkpt lat="48.40554" lon="7.25357">
        <ele>1021.58215</ele>
        <time>2026-03-19T15:25:23Z</time>
      </trkpt>
      <trkpt lat="48.40558" lon="7.25351">
        <ele>1021.58215</ele>
        <time>2026-03-19T15:25:27Z</time>
      </trkpt>
      <trkpt lat="48.40563" lon="7.25349">
        <ele>1021.58215</ele>
        <time>2026-03-19T15:25:32Z</time>
      </trkpt>
      <trkpt lat="48.40569" lon="7.25348">
        <ele>1021.58215</ele>
        <time>2026-03-19T15:25:38Z</time>
      </trkpt>
      <trkpt lat="48.40573" lon="7.25347">
        <ele>1021.58215</ele>
        <time>2026-03-19T15:25:43Z</time>
      </trkpt>
      <trkpt lat="48.40578" lon="7.25345">
        <ele>1021.58215</ele>
        <time>2026-03-19T15:25:48Z</time>
      </trkpt>
      <trkpt lat="48.40583" lon="7.25345">
        <ele>1021.58215</ele>
        <time>2026-03-19T15:25:53Z</time>
      </trkpt>
      <trkpt lat="48.40588" lon="7.25346">
        <ele>1021.58215</ele>
        <time>2026-03-19T15:25:58Z</time>
      </trkpt>
      <trkpt lat="48.40593" lon="7.25345">
        <ele>1021.58215</ele>
        <time>2026-03-19T15:26:03Z</time>
      </trkpt>
      <trkpt lat="48.40598" lon="7.25343">
        <ele>1021.58215</ele>
        <time>2026-03-19T15:26:08Z</time>
      </trkpt>
      <trkpt lat="48.40604" lon="7.25341">
        <ele>1021.58215</ele>
        <time>2026-03-19T15:26:13Z</time>
      </trkpt>
      <trkpt lat="48.40608" lon="7.2534">
        <ele>1021.58215</ele>
        <time>2026-03-19T15:26:17Z</time>
      </trkpt>
      <trkpt lat="48.40612" lon="7.25339">
        <ele>1021.58215</ele>
        <time>2026-03-19T15:26:21Z</time>
      </trkpt>
      <trkpt lat="48.40617" lon="7.25337">
        <ele>1021.58215</ele>
        <time>2026-03-19T15:26:25Z</time>
      </trkpt>
      <trkpt lat="48.40622" lon="7.25334">
        <ele>1019.43207</ele>
        <time>2026-03-19T15:26:30Z</time>
      </trkpt>
      <trkpt lat="48.40627" lon="7.25332">
        <ele>1017.282</ele>
        <time>2026-03-19T15:26:35Z</time>
      </trkpt>
      <trkpt lat="48.40631" lon="7.25328">
        <ele>1015.13196</ele>
        <time>2026-03-19T15:26:39Z</time>
      </trkpt>
      <trkpt lat="48.40636" lon="7.25326">
        <ele>1012.9819</ele>
        <time>2026-03-19T15:26:44Z</time>
      </trkpt>
      <trkpt lat="48.4064" lon="7.25323">
        <ele>1010.8318</ele>
        <time>2026-03-19T15:26:48Z</time>
      </trkpt>
      <trkpt lat="48.40645" lon="7.25319">
        <ele>1010.8318</ele>
        <time>2026-03-19T15:26:53Z</time>
      </trkpt>
      <trkpt lat="48.40648" lon="7.25316">
        <ele>1010.8318</ele>
        <time>2026-03-19T15:26:57Z</time>
      </trkpt>
      <trkpt lat="48.40653" lon="7.25314">
        <ele>1010.8318</ele>
        <time>2026-03-19T15:27:02Z</time>
      </trkpt>
      <trkpt lat="48.40657" lon="7.25311">
        <ele>1010.8318</ele>
        <time>2026-03-19T15:27:06Z</time>
      </trkpt>
      <trkpt lat="48.40663" lon="7.25309">
        <ele>1010.8318</ele>
        <time>2026-03-19T15:27:12Z</time>
      </trkpt>
      <trkpt lat="48.40667" lon="7.25308">
        <ele>1010.8318</ele>
        <time>2026-03-19T15:27:16Z</time>
      </trkpt>
      <trkpt lat="48.40672" lon="7.25309">
        <ele>1010.8318</ele>
        <time>2026-03-19T15:27:20Z</time>
      </trkpt>
      <trkpt lat="48.40677" lon="7.25311">
        <ele>1010.8318</ele>
        <time>2026-03-19T15:27:25Z</time>
      </trkpt>
      <trkpt lat="48.4068" lon="7.2532">
        <ele>1010.8318</ele>
        <time>2026-03-19T15:27:29Z</time>
      </trkpt>
      <trkpt lat="48.40683" lon="7.25325">
        <ele>1010.8318</ele>
        <time>2026-03-19T15:27:34Z</time>
      </trkpt>
      <trkpt lat="48.40685" lon="7.25332">
        <ele>1010.8318</ele>
        <time>2026-03-19T15:27:38Z</time>
      </trkpt>
      <trkpt lat="48.40687" lon="7.2534">
        <ele>1010.8318</ele>
        <time>2026-03-19T15:27:43Z</time>
      </trkpt>
      <trkpt lat="48.40689" lon="7.25347">
        <ele>1010.8318</ele>
        <time>2026-03-19T15:27:48Z</time>
      </trkpt>
      <trkpt lat="48.4069" lon="7.25354">
        <ele>1010.8318</ele>
        <time>2026-03-19T15:27:52Z</time>
      </trkpt>
      <trkpt lat="48.40691" lon="7.2536">
        <ele>1010.8318</ele>
        <time>2026-03-19T15:27:56Z</time>
      </trkpt>
      <trkpt lat="48.40691" lon="7.25369">
        <ele>1010.8318</ele>
        <time>2026-03-19T15:28:01Z</time>
      </trkpt>
      <trkpt lat="48.40692" lon="7.25375">
        <ele>1010.8318</ele>
        <time>2026-03-19T15:28:06Z</time>
      </trkpt>
      <trkpt lat="48.40693" lon="7.25384">
        <ele>1010.8318</ele>
        <time>2026-03-19T15:28:11Z</time>
      </trkpt>
      <trkpt lat="48.40694" lon="7.25391">
        <ele>1010.8318</ele>
        <time>2026-03-19T15:28:16Z</time>
      </trkpt>
      <trkpt lat="48.40695" lon="7.25398">
        <ele>1010.8318</ele>
        <time>2026-03-19T15:28:20Z</time>
      </trkpt>
      <trkpt lat="48.40696" lon="7.25405">
        <ele>1010.8318</ele>
        <time>2026-03-19T15:28:25Z</time>
      </trkpt>
      <trkpt lat="48.40698" lon="7.25413">
        <ele>1010.8318</ele>
        <time>2026-03-19T15:28:31Z</time>
      </trkpt>
      <trkpt lat="48.40699" lon="7.2542">
        <ele>1010.8318</ele>
        <time>2026-03-19T15:28:37Z</time>
      </trkpt>
      <trkpt lat="48.40701" lon="7.25428">
        <ele>1010.8318</ele>
        <time>2026-03-19T15:28:42Z</time>
      </trkpt>
      <trkpt lat="48.40702" lon="7.25435">
        <ele>1010.8318</ele>
        <time>2026-03-19T15:28:46Z</time>
      </trkpt>
      <trkpt lat="48.40704" lon="7.25442">
        <ele>1010.8318</ele>
        <time>2026-03-19T15:28:50Z</time>
      </trkpt>
      <trkpt lat="48.40705" lon="7.25449">
        <ele>1010.8318</ele>
        <time>2026-03-19T15:28:55Z</time>
      </trkpt>
      <trkpt lat="48.40707" lon="7.25456">
        <ele>1010.8318</ele>
        <time>2026-03-19T15:29:00Z</time>
      </trkpt>
      <trkpt lat="48.40709" lon="7.25463">
        <ele>1010.8318</ele>
        <time>2026-03-19T15:29:05Z</time>
      </trkpt>
      <trkpt lat="48.4071" lon="7.2547">
        <ele>1010.8318</ele>
        <time>2026-03-19T15:29:10Z</time>
      </trkpt>
      <trkpt lat="48.40711" lon="7.25477">
        <ele>1010.8318</ele>
        <time>2026-03-19T15:29:15Z</time>
      </trkpt>
      <trkpt lat="48.40712" lon="7.25485">
        <ele>1010.8318</ele>
        <time>2026-03-19T15:29:20Z</time>
      </trkpt>
      <trkpt lat="48.40712" lon="7.25493">
        <ele>1010.8318</ele>
        <time>2026-03-19T15:29:25Z</time>
      </trkpt>
      <trkpt lat="48.40713" lon="7.255">
        <ele>1010.8318</ele>
        <time>2026-03-19T15:29:30Z</time>
      </trkpt>
      <trkpt lat="48.40712" lon="7.25508">
        <ele>1010.8318</ele>
        <time>2026-03-19T15:29:35Z</time>
      </trkpt>
      <trkpt lat="48.40712" lon="7.25516">
        <ele>1010.8318</ele>
        <time>2026-03-19T15:29:40Z</time>
      </trkpt>
      <trkpt lat="48.40711" lon="7.25524">
        <ele>1010.8318</ele>
        <time>2026-03-19T15:29:46Z</time>
      </trkpt>
      <trkpt lat="48.4071" lon="7.25532">
        <ele>1010.8318</ele>
        <time>2026-03-19T15:29:52Z</time>
      </trkpt>
      <trkpt lat="48.4071" lon="7.2554">
        <ele>1010.8318</ele>
        <time>2026-03-19T15:29:57Z</time>
      </trkpt>
      <trkpt lat="48.40709" lon="7.25547">
        <ele>1010.8318</ele>
        <time>2026-03-19T15:30:02Z</time>
      </trkpt>
      <trkpt lat="48.40708" lon="7.25555">
        <ele>1010.8318</ele>
        <time>2026-03-19T15:30:08Z</time>
      </trkpt>
      <trkpt lat="48.40707" lon="7.25562">
        <ele>1010.8318</ele>
        <time>2026-03-19T15:30:12Z</time>
      </trkpt>
      <trkpt lat="48.40707" lon="7.2557">
        <ele>1010.8318</ele>
        <time>2026-03-19T15:30:17Z</time>
      </trkpt>
      <trkpt lat="48.40706" lon="7.25577">
        <ele>1010.8318</ele>
        <time>2026-03-19T15:30:21Z</time>
      </trkpt>
      <trkpt lat="48.40706" lon="7.25586">
        <ele>1010.8318</ele>
        <time>2026-03-19T15:30:26Z</time>
      </trkpt>
      <trkpt lat="48.40706" lon="7.25594">
        <ele>1010.8318</ele>
        <time>2026-03-19T15:30:31Z</time>
      </trkpt>
      <trkpt lat="48.40707" lon="7.25601">
        <ele>1010.8318</ele>
        <time>2026-03-19T15:30:36Z</time>
      </trkpt>
      <trkpt lat="48.40708" lon="7.25609">
        <ele>1010.8318</ele>
        <time>2026-03-19T15:30:41Z</time>
      </trkpt>
      <trkpt lat="48.40709" lon="7.25616">
        <ele>1010.8318</ele>
        <time>2026-03-19T15:30:45Z</time>
      </trkpt>
      <trkpt lat="48.4071" lon="7.25624">
        <ele>1010.8318</ele>
        <time>2026-03-19T15:30:50Z</time>
      </trkpt>
      <trkpt lat="48.40711" lon="7.25632">
        <ele>1010.8318</ele>
        <time>2026-03-19T15:30:55Z</time>
      </trkpt>
      <trkpt lat="48.40711" lon="7.25641">
        <ele>1010.8318</ele>
        <time>2026-03-19T15:31:00Z</time>
      </trkpt>
      <trkpt lat="48.40711" lon="7.25647">
        <ele>1010.8318</ele>
        <time>2026-03-19T15:31:05Z</time>
      </trkpt>
      <trkpt lat="48.40711" lon="7.25654">
        <ele>1010.8318</ele>
        <time>2026-03-19T15:31:10Z</time>
      </trkpt>
      <trkpt lat="48.40714" lon="7.2566">
        <ele>1010.8318</ele>
        <time>2026-03-19T15:31:20Z</time>
      </trkpt>
      <trkpt lat="48.40719" lon="7.25662">
        <ele>1010.8318</ele>
        <time>2026-03-19T15:31:23Z</time>
      </trkpt>
      <trkpt lat="48.40723" lon="7.25665">
        <ele>1010.8318</ele>
        <time>2026-03-19T15:31:25Z</time>
      </trkpt>
      <trkpt lat="48.40727" lon="7.25667">
        <ele>1010.8318</ele>
        <time>2026-03-19T15:31:27Z</time>
      </trkpt>
      <trkpt lat="48.40731" lon="7.2567">
        <ele>1010.8318</ele>
        <time>2026-03-19T15:31:31Z</time>
      </trkpt>
      <trkpt lat="48.40736" lon="7.2567">
        <ele>1008.703</ele>
        <time>2026-03-19T15:31:40Z</time>
      </trkpt>
      <trkpt lat="48.40738" lon="7.25677">
        <ele>1006.57416</ele>
        <time>2026-03-19T15:32:33Z</time>
      </trkpt>
      <trkpt lat="48.40739" lon="7.25684">
        <ele>1004.4454</ele>
        <time>2026-03-19T15:32:39Z</time>
      </trkpt>
      <trkpt lat="48.40739" lon="7.25692">
        <ele>1002.3165</ele>
        <time>2026-03-19T15:32:45Z</time>
      </trkpt>
      <trkpt lat="48.40744" lon="7.25695">
        <ele>1000.18774</ele>
        <time>2026-03-19T15:32:50Z</time>
      </trkpt>
      <trkpt lat="48.40749" lon="7.25697">
        <ele>1000.18774</ele>
        <time>2026-03-19T15:32:55Z</time>
      </trkpt>
      <trkpt lat="48.40753" lon="7.25702">
        <ele>1000.18774</ele>
        <time>2026-03-19T15:33:00Z</time>
      </trkpt>
      <trkpt lat="48.40757" lon="7.25706">
        <ele>1000.18774</ele>
        <time>2026-03-19T15:33:05Z</time>
      </trkpt>
    </trkseg>
  </trk>
</gpx>